<?xml version="1.0" encoding="UTF-8" standalone="no" ?>
<gpx xmlns="http://www.topografix.com/GPX/1/1" xmlns:xsi="http://www.w3.org/2001/XMLSchema-instance" xsi:schemaLocation="http://www.topografix.com/GPX/1/1 http://www.topografix.com/GPX/1/1/gpx.xsd" version="1.1" creator="VisuGPX - https://www.visugpx.com">
  <metadata>
    <name>VTC le 27 mars 2021 à 09:06</name>
  </metadata>
  <trk>
    <name><![CDATA[VTC le 27 mars 2021 à 09:06]]></name>
    <trkseg>
      <trkpt lat="43.65054" lon="3.78935">
        <ele>63.50845</ele>
        <time>2021-03-27T08:06:27.317Z</time>
      </trkpt>
      <trkpt lat="43.65057" lon="3.78933">
        <ele>62.56291</ele>
        <time>2021-03-27T08:06:36.000Z</time>
      </trkpt>
      <trkpt lat="43.65068" lon="3.78933">
        <ele>62.38075</ele>
        <time>2021-03-27T08:06:38.000Z</time>
      </trkpt>
      <trkpt lat="43.65065" lon="3.78933">
        <ele>62.31234</ele>
        <time>2021-03-27T08:06:42.000Z</time>
      </trkpt>
      <trkpt lat="43.65063" lon="3.78934">
        <ele>62.2791</ele>
        <time>2021-03-27T08:06:44.000Z</time>
      </trkpt>
      <trkpt lat="43.65067" lon="3.78908">
        <ele>62.41283</ele>
        <time>2021-03-27T08:06:52.000Z</time>
      </trkpt>
      <trkpt lat="43.65073" lon="3.78892">
        <ele>62.66447</ele>
        <time>2021-03-27T08:06:56.000Z</time>
      </trkpt>
      <trkpt lat="43.65084" lon="3.78877">
        <ele>62.79596</ele>
        <time>2021-03-27T08:07:00.000Z</time>
      </trkpt>
      <trkpt lat="43.65096" lon="3.7885">
        <ele>62.75713</ele>
        <time>2021-03-27T08:07:04.000Z</time>
      </trkpt>
      <trkpt lat="43.65113" lon="3.78836">
        <ele>62.72609</ele>
        <time>2021-03-27T08:07:08.000Z</time>
      </trkpt>
      <trkpt lat="43.65128" lon="3.78821">
        <ele>62.58591</ele>
        <time>2021-03-27T08:07:13.000Z</time>
      </trkpt>
      <trkpt lat="43.65144" lon="3.78819">
        <ele>62.52414</ele>
        <time>2021-03-27T08:07:17.000Z</time>
      </trkpt>
      <trkpt lat="43.65163" lon="3.788">
        <ele>62.33329</ele>
        <time>2021-03-27T08:07:24.000Z</time>
      </trkpt>
      <trkpt lat="43.65202" lon="3.78779">
        <ele>61.69108</ele>
        <time>2021-03-27T08:07:36.000Z</time>
      </trkpt>
      <trkpt lat="43.65214" lon="3.78765">
        <ele>61.55206</ele>
        <time>2021-03-27T08:07:41.000Z</time>
      </trkpt>
      <trkpt lat="43.65225" lon="3.78739">
        <ele>61.29626</ele>
        <time>2021-03-27T08:07:47.000Z</time>
      </trkpt>
      <trkpt lat="43.6527" lon="3.78713">
        <ele>60.98033</ele>
        <time>2021-03-27T08:07:59.000Z</time>
      </trkpt>
      <trkpt lat="43.6532" lon="3.7868">
        <ele>61.04346</ele>
        <time>2021-03-27T08:08:14.000Z</time>
      </trkpt>
      <trkpt lat="43.65354" lon="3.78651">
        <ele>61.13547</ele>
        <time>2021-03-27T08:08:23.000Z</time>
      </trkpt>
      <trkpt lat="43.65382" lon="3.78636">
        <ele>61.14806</ele>
        <time>2021-03-27T08:08:28.000Z</time>
      </trkpt>
      <trkpt lat="43.65415" lon="3.78619">
        <ele>61.08515</ele>
        <time>2021-03-27T08:08:33.000Z</time>
      </trkpt>
      <trkpt lat="43.65434" lon="3.78605">
        <ele>61.0172</ele>
        <time>2021-03-27T08:08:37.000Z</time>
      </trkpt>
      <trkpt lat="43.65437" lon="3.78576">
        <ele>60.98579</ele>
        <time>2021-03-27T08:08:42.000Z</time>
      </trkpt>
      <trkpt lat="43.65432" lon="3.7855">
        <ele>60.97583</ele>
        <time>2021-03-27T08:08:51.000Z</time>
      </trkpt>
      <trkpt lat="43.65436" lon="3.78584">
        <ele>60.93194</ele>
        <time>2021-03-27T08:09:04.000Z</time>
      </trkpt>
      <trkpt lat="43.65434" lon="3.78601">
        <ele>60.93115</ele>
        <time>2021-03-27T08:09:07.000Z</time>
      </trkpt>
      <trkpt lat="43.65431" lon="3.78609">
        <ele>60.93037</ele>
        <time>2021-03-27T08:09:09.000Z</time>
      </trkpt>
      <trkpt lat="43.65427" lon="3.78618">
        <ele>60.93055</ele>
        <time>2021-03-27T08:09:13.000Z</time>
      </trkpt>
      <trkpt lat="43.65433" lon="3.7863">
        <ele>60.92941</ele>
        <time>2021-03-27T08:09:18.000Z</time>
      </trkpt>
      <trkpt lat="43.65439" lon="3.78625">
        <ele>60.92539</ele>
        <time>2021-03-27T08:09:21.000Z</time>
      </trkpt>
      <trkpt lat="43.65439" lon="3.7862">
        <ele>60.92531</ele>
        <time>2021-03-27T08:09:23.000Z</time>
      </trkpt>
      <trkpt lat="43.65436" lon="3.78618">
        <ele>60.92656</ele>
        <time>2021-03-27T08:09:27.000Z</time>
      </trkpt>
      <trkpt lat="43.65433" lon="3.78539">
        <ele>60.91864</ele>
        <time>2021-03-27T08:09:48.000Z</time>
      </trkpt>
      <trkpt lat="43.6543" lon="3.78506">
        <ele>61.05463</ele>
        <time>2021-03-27T08:09:54.000Z</time>
      </trkpt>
      <trkpt lat="43.65444" lon="3.78473">
        <ele>61.39435</ele>
        <time>2021-03-27T08:10:00.000Z</time>
      </trkpt>
      <trkpt lat="43.65452" lon="3.7845">
        <ele>61.8031</ele>
        <time>2021-03-27T08:10:04.000Z</time>
      </trkpt>
      <trkpt lat="43.65468" lon="3.78418">
        <ele>62.47853</ele>
        <time>2021-03-27T08:10:10.000Z</time>
      </trkpt>
      <trkpt lat="43.65483" lon="3.78392">
        <ele>63.14618</ele>
        <time>2021-03-27T08:10:15.000Z</time>
      </trkpt>
      <trkpt lat="43.65497" lon="3.78368">
        <ele>63.83385</ele>
        <time>2021-03-27T08:10:20.000Z</time>
      </trkpt>
      <trkpt lat="43.65514" lon="3.78347">
        <ele>64.71869</ele>
        <time>2021-03-27T08:10:25.000Z</time>
      </trkpt>
      <trkpt lat="43.65545" lon="3.78342">
        <ele>66.04607</ele>
        <time>2021-03-27T08:10:32.000Z</time>
      </trkpt>
      <trkpt lat="43.65586" lon="3.78338">
        <ele>68.55889</ele>
        <time>2021-03-27T08:10:42.000Z</time>
      </trkpt>
      <trkpt lat="43.6561" lon="3.78325">
        <ele>70.40098</ele>
        <time>2021-03-27T08:10:48.000Z</time>
      </trkpt>
      <trkpt lat="43.65632" lon="3.78303">
        <ele>72.39448</ele>
        <time>2021-03-27T08:10:55.000Z</time>
      </trkpt>
      <trkpt lat="43.65655" lon="3.78271">
        <ele>74.80987</ele>
        <time>2021-03-27T08:11:03.000Z</time>
      </trkpt>
      <trkpt lat="43.65695" lon="3.78201">
        <ele>76.76823</ele>
        <time>2021-03-27T08:11:15.000Z</time>
      </trkpt>
      <trkpt lat="43.65721" lon="3.78174">
        <ele>77.24793</ele>
        <time>2021-03-27T08:11:22.000Z</time>
      </trkpt>
      <trkpt lat="43.65743" lon="3.78161">
        <ele>77.44935</ele>
        <time>2021-03-27T08:11:27.000Z</time>
      </trkpt>
      <trkpt lat="43.65781" lon="3.78132">
        <ele>77.53781</ele>
        <time>2021-03-27T08:11:35.000Z</time>
      </trkpt>
      <trkpt lat="43.65792" lon="3.78115">
        <ele>77.56398</ele>
        <time>2021-03-27T08:11:40.000Z</time>
      </trkpt>
      <trkpt lat="43.6581" lon="3.78091">
        <ele>77.59935</ele>
        <time>2021-03-27T08:11:45.000Z</time>
      </trkpt>
      <trkpt lat="43.65811" lon="3.7807">
        <ele>77.65586</ele>
        <time>2021-03-27T08:11:51.000Z</time>
      </trkpt>
      <trkpt lat="43.65815" lon="3.78047">
        <ele>77.77922</ele>
        <time>2021-03-27T08:11:56.000Z</time>
      </trkpt>
      <trkpt lat="43.65825" lon="3.78033">
        <ele>77.88025</ele>
        <time>2021-03-27T08:12:00.000Z</time>
      </trkpt>
      <trkpt lat="43.65829" lon="3.78013">
        <ele>78.05464</ele>
        <time>2021-03-27T08:12:04.000Z</time>
      </trkpt>
      <trkpt lat="43.65859" lon="3.77974">
        <ele>78.89496</ele>
        <time>2021-03-27T08:12:18.000Z</time>
      </trkpt>
      <trkpt lat="43.6587" lon="3.77959">
        <ele>79.06142</ele>
        <time>2021-03-27T08:12:23.000Z</time>
      </trkpt>
      <trkpt lat="43.65876" lon="3.77928">
        <ele>79.25912</ele>
        <time>2021-03-27T08:12:31.000Z</time>
      </trkpt>
      <trkpt lat="43.65889" lon="3.77926">
        <ele>79.31067</ele>
        <time>2021-03-27T08:12:37.000Z</time>
      </trkpt>
      <trkpt lat="43.65938" lon="3.77869">
        <ele>79.46038</ele>
        <time>2021-03-27T08:12:52.000Z</time>
      </trkpt>
      <trkpt lat="43.65959" lon="3.77838">
        <ele>79.53692</ele>
        <time>2021-03-27T08:12:59.000Z</time>
      </trkpt>
      <trkpt lat="43.65984" lon="3.77788">
        <ele>79.79422</ele>
        <time>2021-03-27T08:13:11.000Z</time>
      </trkpt>
      <trkpt lat="43.6599" lon="3.77766">
        <ele>80.26896</ele>
        <time>2021-03-27T08:13:15.000Z</time>
      </trkpt>
      <trkpt lat="43.66015" lon="3.77712">
        <ele>84.749</ele>
        <time>2021-03-27T08:13:27.000Z</time>
      </trkpt>
      <trkpt lat="43.66043" lon="3.7765">
        <ele>88.69775</ele>
        <time>2021-03-27T08:13:42.000Z</time>
      </trkpt>
      <trkpt lat="43.66071" lon="3.77577">
        <ele>90.79433</ele>
        <time>2021-03-27T08:13:58.000Z</time>
      </trkpt>
      <trkpt lat="43.66079" lon="3.77556">
        <ele>91.68127</ele>
        <time>2021-03-27T08:14:06.000Z</time>
      </trkpt>
      <trkpt lat="43.66086" lon="3.77546">
        <ele>92.3705</ele>
        <time>2021-03-27T08:14:10.000Z</time>
      </trkpt>
      <trkpt lat="43.66093" lon="3.77528">
        <ele>93.31951</ele>
        <time>2021-03-27T08:14:16.000Z</time>
      </trkpt>
      <trkpt lat="43.661" lon="3.77506">
        <ele>95.65489</ele>
        <time>2021-03-27T08:14:23.000Z</time>
      </trkpt>
      <trkpt lat="43.66112" lon="3.77497">
        <ele>97.94153</ele>
        <time>2021-03-27T08:14:28.000Z</time>
      </trkpt>
      <trkpt lat="43.6612" lon="3.77494">
        <ele>99.06994</ele>
        <time>2021-03-27T08:14:33.000Z</time>
      </trkpt>
      <trkpt lat="43.66123" lon="3.77492">
        <ele>99.37948</ele>
        <time>2021-03-27T08:14:35.000Z</time>
      </trkpt>
      <trkpt lat="43.66143" lon="3.77437">
        <ele>100.12201</ele>
        <time>2021-03-27T08:14:50.000Z</time>
      </trkpt>
      <trkpt lat="43.66159" lon="3.77411">
        <ele>99.58252</ele>
        <time>2021-03-27T08:14:55.000Z</time>
      </trkpt>
      <trkpt lat="43.66182" lon="3.77389">
        <ele>98.40557</ele>
        <time>2021-03-27T08:15:01.000Z</time>
      </trkpt>
      <trkpt lat="43.66193" lon="3.77357">
        <ele>97.20544</ele>
        <time>2021-03-27T08:15:06.000Z</time>
      </trkpt>
      <trkpt lat="43.66196" lon="3.77318">
        <ele>95.54709</ele>
        <time>2021-03-27T08:15:12.000Z</time>
      </trkpt>
      <trkpt lat="43.66213" lon="3.77218">
        <ele>91.0591</ele>
        <time>2021-03-27T08:15:26.000Z</time>
      </trkpt>
      <trkpt lat="43.6622" lon="3.77187">
        <ele>89.89533</ele>
        <time>2021-03-27T08:15:30.000Z</time>
      </trkpt>
      <trkpt lat="43.66232" lon="3.77132">
        <ele>87.98495</ele>
        <time>2021-03-27T08:15:37.000Z</time>
      </trkpt>
      <trkpt lat="43.66232" lon="3.7705">
        <ele>85.37352</ele>
        <time>2021-03-27T08:15:47.000Z</time>
      </trkpt>
      <trkpt lat="43.66242" lon="3.7702">
        <ele>84.08064</ele>
        <time>2021-03-27T08:15:52.000Z</time>
      </trkpt>
      <trkpt lat="43.66248" lon="3.7701">
        <ele>83.27435</ele>
        <time>2021-03-27T08:15:55.000Z</time>
      </trkpt>
      <trkpt lat="43.66261" lon="3.76996">
        <ele>80.9417</ele>
        <time>2021-03-27T08:16:42.000Z</time>
      </trkpt>
      <trkpt lat="43.66285" lon="3.76903">
        <ele>77.59195</ele>
        <time>2021-03-27T08:16:58.000Z</time>
      </trkpt>
      <trkpt lat="43.66295" lon="3.76865">
        <ele>77.14654</ele>
        <time>2021-03-27T08:17:04.000Z</time>
      </trkpt>
      <trkpt lat="43.66318" lon="3.76771">
        <ele>76.23256</ele>
        <time>2021-03-27T08:17:17.000Z</time>
      </trkpt>
      <trkpt lat="43.66325" lon="3.76741">
        <ele>75.99734</ele>
        <time>2021-03-27T08:17:21.000Z</time>
      </trkpt>
      <trkpt lat="43.66334" lon="3.76704">
        <ele>75.71666</ele>
        <time>2021-03-27T08:17:26.000Z</time>
      </trkpt>
      <trkpt lat="43.66358" lon="3.76628">
        <ele>75.28641</ele>
        <time>2021-03-27T08:17:37.000Z</time>
      </trkpt>
      <trkpt lat="43.66371" lon="3.76603">
        <ele>75.21321</ele>
        <time>2021-03-27T08:17:41.000Z</time>
      </trkpt>
      <trkpt lat="43.66392" lon="3.76574">
        <ele>75.12572</ele>
        <time>2021-03-27T08:17:47.000Z</time>
      </trkpt>
      <trkpt lat="43.66399" lon="3.76557">
        <ele>75.04562</ele>
        <time>2021-03-27T08:17:52.000Z</time>
      </trkpt>
      <trkpt lat="43.66395" lon="3.76557">
        <ele>75.0286</ele>
        <time>2021-03-27T08:18:14.000Z</time>
      </trkpt>
      <trkpt lat="43.66388" lon="3.76561">
        <ele>75.00456</ele>
        <time>2021-03-27T08:18:21.000Z</time>
      </trkpt>
      <trkpt lat="43.66379" lon="3.76557">
        <ele>74.97468</ele>
        <time>2021-03-27T08:18:25.000Z</time>
      </trkpt>
      <trkpt lat="43.66366" lon="3.76535">
        <ele>74.90772</ele>
        <time>2021-03-27T08:18:32.000Z</time>
      </trkpt>
      <trkpt lat="43.66351" lon="3.7652">
        <ele>74.88405</ele>
        <time>2021-03-27T08:18:39.000Z</time>
      </trkpt>
      <trkpt lat="43.66335" lon="3.76514">
        <ele>74.87683</ele>
        <time>2021-03-27T08:18:46.000Z</time>
      </trkpt>
      <trkpt lat="43.66327" lon="3.7651">
        <ele>74.87855</ele>
        <time>2021-03-27T08:18:54.000Z</time>
      </trkpt>
      <trkpt lat="43.66322" lon="3.76488">
        <ele>74.92869</ele>
        <time>2021-03-27T08:19:00.000Z</time>
      </trkpt>
      <trkpt lat="43.6632" lon="3.76424">
        <ele>75.63466</ele>
        <time>2021-03-27T08:19:13.000Z</time>
      </trkpt>
      <trkpt lat="43.66321" lon="3.76371">
        <ele>77.59429</ele>
        <time>2021-03-27T08:19:25.000Z</time>
      </trkpt>
      <trkpt lat="43.6633" lon="3.76313">
        <ele>80.13069</ele>
        <time>2021-03-27T08:19:37.000Z</time>
      </trkpt>
      <trkpt lat="43.66332" lon="3.76266">
        <ele>82.88569</ele>
        <time>2021-03-27T08:19:49.000Z</time>
      </trkpt>
      <trkpt lat="43.66332" lon="3.76256">
        <ele>83.44333</ele>
        <time>2021-03-27T08:19:53.000Z</time>
      </trkpt>
      <trkpt lat="43.6632" lon="3.7625">
        <ele>85.39261</ele>
        <time>2021-03-27T08:20:22.000Z</time>
      </trkpt>
      <trkpt lat="43.66288" lon="3.7624">
        <ele>89.11692</ele>
        <time>2021-03-27T08:20:33.000Z</time>
      </trkpt>
      <trkpt lat="43.66247" lon="3.76221">
        <ele>91.33556</ele>
        <time>2021-03-27T08:20:52.000Z</time>
      </trkpt>
      <trkpt lat="43.66208" lon="3.76206">
        <ele>92.42765</ele>
        <time>2021-03-27T08:21:05.000Z</time>
      </trkpt>
      <trkpt lat="43.66174" lon="3.76185">
        <ele>93.53787</ele>
        <time>2021-03-27T08:21:20.000Z</time>
      </trkpt>
      <trkpt lat="43.66166" lon="3.76181">
        <ele>93.90045</ele>
        <time>2021-03-27T08:21:23.000Z</time>
      </trkpt>
      <trkpt lat="43.66158" lon="3.7617">
        <ele>94.31646</ele>
        <time>2021-03-27T08:21:28.000Z</time>
      </trkpt>
      <trkpt lat="43.66152" lon="3.76149">
        <ele>95.7681</ele>
        <time>2021-03-27T08:21:37.000Z</time>
      </trkpt>
      <trkpt lat="43.66146" lon="3.76134">
        <ele>98.12113</ele>
        <time>2021-03-27T08:21:42.000Z</time>
      </trkpt>
      <trkpt lat="43.66144" lon="3.76115">
        <ele>100.50404</ele>
        <time>2021-03-27T08:21:48.000Z</time>
      </trkpt>
      <trkpt lat="43.6614" lon="3.76098">
        <ele>102.65303</ele>
        <time>2021-03-27T08:21:53.000Z</time>
      </trkpt>
      <trkpt lat="43.66137" lon="3.76051">
        <ele>106.19274</ele>
        <time>2021-03-27T08:22:07.000Z</time>
      </trkpt>
      <trkpt lat="43.66136" lon="3.76007">
        <ele>110.19712</ele>
        <time>2021-03-27T08:22:22.000Z</time>
      </trkpt>
      <trkpt lat="43.66134" lon="3.75974">
        <ele>113.33199</ele>
        <time>2021-03-27T08:22:38.000Z</time>
      </trkpt>
      <trkpt lat="43.66133" lon="3.75932">
        <ele>117.5321</ele>
        <time>2021-03-27T08:22:52.000Z</time>
      </trkpt>
      <trkpt lat="43.66132" lon="3.75915">
        <ele>118.82024</ele>
        <time>2021-03-27T08:22:58.000Z</time>
      </trkpt>
      <trkpt lat="43.66126" lon="3.75906">
        <ele>120.13193</ele>
        <time>2021-03-27T08:23:03.000Z</time>
      </trkpt>
      <trkpt lat="43.66119" lon="3.75899">
        <ele>120.99633</ele>
        <time>2021-03-27T08:23:07.000Z</time>
      </trkpt>
      <trkpt lat="43.66114" lon="3.75892">
        <ele>121.89802</ele>
        <time>2021-03-27T08:23:11.000Z</time>
      </trkpt>
      <trkpt lat="43.66108" lon="3.75885">
        <ele>122.83565</ele>
        <time>2021-03-27T08:23:15.000Z</time>
      </trkpt>
      <trkpt lat="43.66093" lon="3.75861">
        <ele>126.38488</ele>
        <time>2021-03-27T08:23:29.000Z</time>
      </trkpt>
      <trkpt lat="43.66075" lon="3.75835">
        <ele>130.71369</ele>
        <time>2021-03-27T08:23:42.000Z</time>
      </trkpt>
      <trkpt lat="43.6607" lon="3.75828">
        <ele>131.80583</ele>
        <time>2021-03-27T08:23:46.000Z</time>
      </trkpt>
      <trkpt lat="43.66067" lon="3.75821">
        <ele>132.96235</ele>
        <time>2021-03-27T08:23:50.000Z</time>
      </trkpt>
      <trkpt lat="43.66065" lon="3.75813">
        <ele>134.00013</ele>
        <time>2021-03-27T08:23:54.000Z</time>
      </trkpt>
      <trkpt lat="43.66075" lon="3.7576">
        <ele>138.27046</ele>
        <time>2021-03-27T08:25:16.000Z</time>
      </trkpt>
      <trkpt lat="43.66082" lon="3.7574">
        <ele>138.84725</ele>
        <time>2021-03-27T08:25:22.000Z</time>
      </trkpt>
      <trkpt lat="43.66093" lon="3.75718">
        <ele>139.07303</ele>
        <time>2021-03-27T08:25:28.000Z</time>
      </trkpt>
      <trkpt lat="43.66091" lon="3.75697">
        <ele>139.12842</ele>
        <time>2021-03-27T08:25:34.000Z</time>
      </trkpt>
      <trkpt lat="43.66082" lon="3.75678">
        <ele>139.19763</ele>
        <time>2021-03-27T08:25:39.000Z</time>
      </trkpt>
      <trkpt lat="43.6606" lon="3.75658">
        <ele>139.51213</ele>
        <time>2021-03-27T08:25:49.000Z</time>
      </trkpt>
      <trkpt lat="43.66038" lon="3.75634">
        <ele>140.25397</ele>
        <time>2021-03-27T08:26:02.000Z</time>
      </trkpt>
      <trkpt lat="43.6603" lon="3.75627">
        <ele>140.72672</ele>
        <time>2021-03-27T08:26:06.000Z</time>
      </trkpt>
      <trkpt lat="43.66018" lon="3.75614">
        <ele>141.31711</ele>
        <time>2021-03-27T08:26:13.000Z</time>
      </trkpt>
      <trkpt lat="43.65998" lon="3.75591">
        <ele>142.85185</ele>
        <time>2021-03-27T08:26:27.000Z</time>
      </trkpt>
      <trkpt lat="43.65981" lon="3.75577">
        <ele>144.91264</ele>
        <time>2021-03-27T08:26:35.000Z</time>
      </trkpt>
      <trkpt lat="43.65964" lon="3.7556">
        <ele>146.42192</ele>
        <time>2021-03-27T08:26:46.000Z</time>
      </trkpt>
      <trkpt lat="43.65948" lon="3.75547">
        <ele>147.80387</ele>
        <time>2021-03-27T08:26:54.000Z</time>
      </trkpt>
      <trkpt lat="43.65941" lon="3.75538">
        <ele>148.52544</ele>
        <time>2021-03-27T08:26:58.000Z</time>
      </trkpt>
      <trkpt lat="43.65895" lon="3.75503">
        <ele>149.50513</ele>
        <time>2021-03-27T08:27:14.000Z</time>
      </trkpt>
      <trkpt lat="43.6586" lon="3.75485">
        <ele>149.06033</ele>
        <time>2021-03-27T08:27:24.000Z</time>
      </trkpt>
      <trkpt lat="43.65845" lon="3.75472">
        <ele>148.73408</ele>
        <time>2021-03-27T08:27:27.000Z</time>
      </trkpt>
      <trkpt lat="43.65825" lon="3.7546">
        <ele>147.5505</ele>
        <time>2021-03-27T08:27:32.000Z</time>
      </trkpt>
      <trkpt lat="43.65803" lon="3.75453">
        <ele>145.33628</ele>
        <time>2021-03-27T08:27:37.000Z</time>
      </trkpt>
      <trkpt lat="43.65734" lon="3.75408">
        <ele>137.72373</ele>
        <time>2021-03-27T08:27:50.000Z</time>
      </trkpt>
      <trkpt lat="43.65716" lon="3.75391">
        <ele>135.77424</ele>
        <time>2021-03-27T08:27:54.000Z</time>
      </trkpt>
      <trkpt lat="43.65712" lon="3.75386">
        <ele>134.91673</ele>
        <time>2021-03-27T08:27:59.000Z</time>
      </trkpt>
      <trkpt lat="43.65712" lon="3.75362">
        <ele>133.11702</ele>
        <time>2021-03-27T08:28:31.000Z</time>
      </trkpt>
      <trkpt lat="43.65689" lon="3.75334">
        <ele>131.31625</ele>
        <time>2021-03-27T08:28:45.000Z</time>
      </trkpt>
      <trkpt lat="43.65682" lon="3.75325">
        <ele>130.69629</ele>
        <time>2021-03-27T08:28:49.000Z</time>
      </trkpt>
      <trkpt lat="43.6564" lon="3.75304">
        <ele>128.31165</ele>
        <time>2021-03-27T08:29:02.000Z</time>
      </trkpt>
      <trkpt lat="43.6563" lon="3.7528">
        <ele>127.30529</ele>
        <time>2021-03-27T08:29:07.000Z</time>
      </trkpt>
      <trkpt lat="43.65631" lon="3.75254">
        <ele>126.40927</ele>
        <time>2021-03-27T08:29:11.000Z</time>
      </trkpt>
      <trkpt lat="43.65636" lon="3.7523">
        <ele>125.65959</ele>
        <time>2021-03-27T08:29:14.000Z</time>
      </trkpt>
      <trkpt lat="43.65662" lon="3.75164">
        <ele>122.28231</ele>
        <time>2021-03-27T08:29:24.000Z</time>
      </trkpt>
      <trkpt lat="43.65673" lon="3.75116">
        <ele>120.20394</ele>
        <time>2021-03-27T08:29:30.000Z</time>
      </trkpt>
      <trkpt lat="43.65691" lon="3.75051">
        <ele>116.80385</ele>
        <time>2021-03-27T08:29:39.000Z</time>
      </trkpt>
      <trkpt lat="43.65705" lon="3.75026">
        <ele>114.86154</ele>
        <time>2021-03-27T08:29:44.000Z</time>
      </trkpt>
      <trkpt lat="43.65732" lon="3.75017">
        <ele>112.79489</ele>
        <time>2021-03-27T08:29:49.000Z</time>
      </trkpt>
      <trkpt lat="43.65745" lon="3.75004">
        <ele>111.02167</ele>
        <time>2021-03-27T08:29:53.000Z</time>
      </trkpt>
      <trkpt lat="43.65751" lon="3.75003">
        <ele>110.18873</ele>
        <time>2021-03-27T08:29:57.000Z</time>
      </trkpt>
      <trkpt lat="43.6574" lon="3.74991">
        <ele>107.91012</ele>
        <time>2021-03-27T08:30:12.000Z</time>
      </trkpt>
      <trkpt lat="43.65729" lon="3.74963">
        <ele>107.43326</ele>
        <time>2021-03-27T08:30:21.000Z</time>
      </trkpt>
      <trkpt lat="43.65713" lon="3.74913">
        <ele>108.12996</ele>
        <time>2021-03-27T08:30:35.000Z</time>
      </trkpt>
      <trkpt lat="43.65697" lon="3.7488">
        <ele>109.67139</ele>
        <time>2021-03-27T08:30:43.000Z</time>
      </trkpt>
      <trkpt lat="43.65693" lon="3.74865">
        <ele>110.65386</ele>
        <time>2021-03-27T08:30:47.000Z</time>
      </trkpt>
      <trkpt lat="43.65687" lon="3.74841">
        <ele>112.0962</ele>
        <time>2021-03-27T08:30:54.000Z</time>
      </trkpt>
      <trkpt lat="43.65689" lon="3.7483">
        <ele>112.54564</ele>
        <time>2021-03-27T08:30:59.000Z</time>
      </trkpt>
      <trkpt lat="43.6569" lon="3.74819">
        <ele>112.97111</ele>
        <time>2021-03-27T08:31:06.000Z</time>
      </trkpt>
      <trkpt lat="43.65687" lon="3.74825">
        <ele>113.47399</ele>
        <time>2021-03-27T08:31:36.000Z</time>
      </trkpt>
      <trkpt lat="43.65693" lon="3.74827">
        <ele>113.95592</ele>
        <time>2021-03-27T08:33:02.000Z</time>
      </trkpt>
      <trkpt lat="43.65698" lon="3.74826">
        <ele>114.15946</ele>
        <time>2021-03-27T08:33:06.000Z</time>
      </trkpt>
      <trkpt lat="43.65705" lon="3.74835">
        <ele>114.69625</ele>
        <time>2021-03-27T08:33:11.000Z</time>
      </trkpt>
      <trkpt lat="43.65708" lon="3.74849">
        <ele>115.29193</ele>
        <time>2021-03-27T08:33:17.000Z</time>
      </trkpt>
      <trkpt lat="43.6571" lon="3.74864">
        <ele>115.71119</ele>
        <time>2021-03-27T08:33:22.000Z</time>
      </trkpt>
      <trkpt lat="43.65718" lon="3.74883">
        <ele>116.08444</ele>
        <time>2021-03-27T08:33:26.000Z</time>
      </trkpt>
      <trkpt lat="43.65733" lon="3.74893">
        <ele>116.41177</ele>
        <time>2021-03-27T08:33:30.000Z</time>
      </trkpt>
      <trkpt lat="43.65747" lon="3.74892">
        <ele>116.59091</ele>
        <time>2021-03-27T08:33:33.000Z</time>
      </trkpt>
      <trkpt lat="43.65783" lon="3.74887">
        <ele>117.4674</ele>
        <time>2021-03-27T08:33:41.000Z</time>
      </trkpt>
      <trkpt lat="43.65806" lon="3.74854">
        <ele>118.96911</ele>
        <time>2021-03-27T08:33:53.000Z</time>
      </trkpt>
      <trkpt lat="43.65816" lon="3.7483">
        <ele>120.94551</ele>
        <time>2021-03-27T08:34:00.000Z</time>
      </trkpt>
      <trkpt lat="43.65817" lon="3.74814">
        <ele>122.135</ele>
        <time>2021-03-27T08:34:05.000Z</time>
      </trkpt>
      <trkpt lat="43.65824" lon="3.74796">
        <ele>123.49174</ele>
        <time>2021-03-27T08:34:10.000Z</time>
      </trkpt>
      <trkpt lat="43.65835" lon="3.74776">
        <ele>124.80737</ele>
        <time>2021-03-27T08:34:16.000Z</time>
      </trkpt>
      <trkpt lat="43.65849" lon="3.7476">
        <ele>125.83436</ele>
        <time>2021-03-27T08:34:32.000Z</time>
      </trkpt>
      <trkpt lat="43.6585" lon="3.74756">
        <ele>125.9821</ele>
        <time>2021-03-27T08:34:35.000Z</time>
      </trkpt>
      <trkpt lat="43.65852" lon="3.74726">
        <ele>127.39753</ele>
        <time>2021-03-27T08:34:55.000Z</time>
      </trkpt>
      <trkpt lat="43.65855" lon="3.74708">
        <ele>128.20444</ele>
        <time>2021-03-27T08:35:01.000Z</time>
      </trkpt>
      <trkpt lat="43.65861" lon="3.7468">
        <ele>129.54363</ele>
        <time>2021-03-27T08:35:11.000Z</time>
      </trkpt>
      <trkpt lat="43.65861" lon="3.74667">
        <ele>130.34554</ele>
        <time>2021-03-27T08:35:15.000Z</time>
      </trkpt>
      <trkpt lat="43.65864" lon="3.74632">
        <ele>132.5739</ele>
        <time>2021-03-27T08:35:26.000Z</time>
      </trkpt>
      <trkpt lat="43.65869" lon="3.74599">
        <ele>134.62383</ele>
        <time>2021-03-27T08:35:38.000Z</time>
      </trkpt>
      <trkpt lat="43.65873" lon="3.74579">
        <ele>136.40105</ele>
        <time>2021-03-27T08:36:07.000Z</time>
      </trkpt>
      <trkpt lat="43.65875" lon="3.7457">
        <ele>136.9687</ele>
        <time>2021-03-27T08:36:11.000Z</time>
      </trkpt>
      <trkpt lat="43.65879" lon="3.74561">
        <ele>137.49149</ele>
        <time>2021-03-27T08:36:15.000Z</time>
      </trkpt>
      <trkpt lat="43.65891" lon="3.74545">
        <ele>138.73531</ele>
        <time>2021-03-27T08:36:24.000Z</time>
      </trkpt>
      <trkpt lat="43.65899" lon="3.74544">
        <ele>139.78851</ele>
        <time>2021-03-27T08:38:26.000Z</time>
      </trkpt>
      <trkpt lat="43.65891" lon="3.74551">
        <ele>140.93032</ele>
        <time>2021-03-27T08:38:48.000Z</time>
      </trkpt>
      <trkpt lat="43.65884" lon="3.74561">
        <ele>141.17398</ele>
        <time>2021-03-27T08:38:55.000Z</time>
      </trkpt>
      <trkpt lat="43.65874" lon="3.7457">
        <ele>141.28065</ele>
        <time>2021-03-27T08:39:00.000Z</time>
      </trkpt>
      <trkpt lat="43.65869" lon="3.74584">
        <ele>141.30906</ele>
        <time>2021-03-27T08:39:04.000Z</time>
      </trkpt>
      <trkpt lat="43.6586" lon="3.74605">
        <ele>141.11119</ele>
        <time>2021-03-27T08:39:11.000Z</time>
      </trkpt>
      <trkpt lat="43.65858" lon="3.74641">
        <ele>139.99171</ele>
        <time>2021-03-27T08:39:23.000Z</time>
      </trkpt>
      <trkpt lat="43.65854" lon="3.74674">
        <ele>138.12002</ele>
        <time>2021-03-27T08:39:32.000Z</time>
      </trkpt>
      <trkpt lat="43.65851" lon="3.74694">
        <ele>136.56138</ele>
        <time>2021-03-27T08:39:37.000Z</time>
      </trkpt>
      <trkpt lat="43.65844" lon="3.74744">
        <ele>132.23492</ele>
        <time>2021-03-27T08:39:49.000Z</time>
      </trkpt>
      <trkpt lat="43.6584" lon="3.74757">
        <ele>131.21896</ele>
        <time>2021-03-27T08:39:55.000Z</time>
      </trkpt>
      <trkpt lat="43.65834" lon="3.74765">
        <ele>130.52721</ele>
        <time>2021-03-27T08:39:58.000Z</time>
      </trkpt>
      <trkpt lat="43.65819" lon="3.74778">
        <ele>131.16863</ele>
        <time>2021-03-27T08:40:05.000Z</time>
      </trkpt>
      <trkpt lat="43.65789" lon="3.74797">
        <ele>136.21372</ele>
        <time>2021-03-27T08:40:17.000Z</time>
      </trkpt>
      <trkpt lat="43.65778" lon="3.74799">
        <ele>138.73428</ele>
        <time>2021-03-27T08:40:23.000Z</time>
      </trkpt>
      <trkpt lat="43.65777" lon="3.74796">
        <ele>139.67384</ele>
        <time>2021-03-27T08:40:33.000Z</time>
      </trkpt>
      <trkpt lat="43.65777" lon="3.74791">
        <ele>141.03002</ele>
        <time>2021-03-27T08:41:40.001Z</time>
      </trkpt>
      <trkpt lat="43.65778" lon="3.74784">
        <ele>141.97232</ele>
        <time>2021-03-27T08:41:45.001Z</time>
      </trkpt>
      <trkpt lat="43.65778" lon="3.74773">
        <ele>142.89694</ele>
        <time>2021-03-27T08:42:02.001Z</time>
      </trkpt>
      <trkpt lat="43.65779" lon="3.7477">
        <ele>143.13908</ele>
        <time>2021-03-27T08:42:03.001Z</time>
      </trkpt>
      <trkpt lat="43.65783" lon="3.74775">
        <ele>143.62269</ele>
        <time>2021-03-27T08:42:17.001Z</time>
      </trkpt>
      <trkpt lat="43.65783" lon="3.74779">
        <ele>143.72787</ele>
        <time>2021-03-27T08:42:19.001Z</time>
      </trkpt>
      <trkpt lat="43.65782" lon="3.74783">
        <ele>143.79905</ele>
        <time>2021-03-27T08:42:22.001Z</time>
      </trkpt>
      <trkpt lat="43.6578" lon="3.74786">
        <ele>143.83181</ele>
        <time>2021-03-27T08:42:25.001Z</time>
      </trkpt>
      <trkpt lat="43.65777" lon="3.74791">
        <ele>143.87833</ele>
        <time>2021-03-27T08:42:33.001Z</time>
      </trkpt>
      <trkpt lat="43.65775" lon="3.74791">
        <ele>143.9261</ele>
        <time>2021-03-27T08:42:38.001Z</time>
      </trkpt>
      <trkpt lat="43.65772" lon="3.7479">
        <ele>143.96224</ele>
        <time>2021-03-27T08:42:41.001Z</time>
      </trkpt>
      <trkpt lat="43.6577" lon="3.74787">
        <ele>144.00276</ele>
        <time>2021-03-27T08:42:45.001Z</time>
      </trkpt>
      <trkpt lat="43.65767" lon="3.74786">
        <ele>144.09111</ele>
        <time>2021-03-27T08:43:07.001Z</time>
      </trkpt>
      <trkpt lat="43.65767" lon="3.74777">
        <ele>144.29947</ele>
        <time>2021-03-27T08:46:14.001Z</time>
      </trkpt>
      <trkpt lat="43.65774" lon="3.74763">
        <ele>144.67098</ele>
        <time>2021-03-27T08:46:20.001Z</time>
      </trkpt>
      <trkpt lat="43.65777" lon="3.74761">
        <ele>144.78688</ele>
        <time>2021-03-27T08:47:26.001Z</time>
      </trkpt>
      <trkpt lat="43.65776" lon="3.74757">
        <ele>145.15995</ele>
        <time>2021-03-27T08:48:18.000Z</time>
      </trkpt>
      <trkpt lat="43.65778" lon="3.74745">
        <ele>145.95538</ele>
        <time>2021-03-27T08:49:09.000Z</time>
      </trkpt>
      <trkpt lat="43.65784" lon="3.74739">
        <ele>146.42902</ele>
        <time>2021-03-27T08:49:24.000Z</time>
      </trkpt>
      <trkpt lat="43.65789" lon="3.74705">
        <ele>147.90365</ele>
        <time>2021-03-27T08:49:36.000Z</time>
      </trkpt>
      <trkpt lat="43.65785" lon="3.74694">
        <ele>149.64388</ele>
        <time>2021-03-27T08:49:54.000Z</time>
      </trkpt>
      <trkpt lat="43.65779" lon="3.74656">
        <ele>153.75561</ele>
        <time>2021-03-27T08:50:05.000Z</time>
      </trkpt>
      <trkpt lat="43.65774" lon="3.74635">
        <ele>157.14146</ele>
        <time>2021-03-27T08:50:13.000Z</time>
      </trkpt>
      <trkpt lat="43.65772" lon="3.74627">
        <ele>159.27476</ele>
        <time>2021-03-27T08:50:17.000Z</time>
      </trkpt>
      <trkpt lat="43.65771" lon="3.74616">
        <ele>162.63316</ele>
        <time>2021-03-27T08:50:24.000Z</time>
      </trkpt>
      <trkpt lat="43.65776" lon="3.74596">
        <ele>167.12706</ele>
        <time>2021-03-27T08:50:31.000Z</time>
      </trkpt>
      <trkpt lat="43.65774" lon="3.74595">
        <ele>168.10146</ele>
        <time>2021-03-27T08:50:34.000Z</time>
      </trkpt>
      <trkpt lat="43.65773" lon="3.7459">
        <ele>171.54604</ele>
        <time>2021-03-27T08:51:05.000Z</time>
      </trkpt>
      <trkpt lat="43.65777" lon="3.74579">
        <ele>173.46514</ele>
        <time>2021-03-27T08:51:12.000Z</time>
      </trkpt>
      <trkpt lat="43.65781" lon="3.74568">
        <ele>174.88143</ele>
        <time>2021-03-27T08:51:20.000Z</time>
      </trkpt>
      <trkpt lat="43.65783" lon="3.74568">
        <ele>175.43582</ele>
        <time>2021-03-27T08:51:26.000Z</time>
      </trkpt>
      <trkpt lat="43.65785" lon="3.74565">
        <ele>176.0118</ele>
        <time>2021-03-27T08:51:30.000Z</time>
      </trkpt>
      <trkpt lat="43.65787" lon="3.74555">
        <ele>177.45339</ele>
        <time>2021-03-27T08:51:38.000Z</time>
      </trkpt>
      <trkpt lat="43.6579" lon="3.74547">
        <ele>179.04268</ele>
        <time>2021-03-27T08:51:54.000Z</time>
      </trkpt>
      <trkpt lat="43.65791" lon="3.74543">
        <ele>179.32733</ele>
        <time>2021-03-27T08:52:14.000Z</time>
      </trkpt>
      <trkpt lat="43.65793" lon="3.74537">
        <ele>179.59205</ele>
        <time>2021-03-27T08:55:35.000Z</time>
      </trkpt>
      <trkpt lat="43.65794" lon="3.74519">
        <ele>179.59989</ele>
        <time>2021-03-27T08:55:42.000Z</time>
      </trkpt>
      <trkpt lat="43.65784" lon="3.74507">
        <ele>179.5603</ele>
        <time>2021-03-27T08:55:48.000Z</time>
      </trkpt>
      <trkpt lat="43.65769" lon="3.74497">
        <ele>178.95093</ele>
        <time>2021-03-27T08:55:54.001Z</time>
      </trkpt>
      <trkpt lat="43.65762" lon="3.74482">
        <ele>178.19698</ele>
        <time>2021-03-27T08:55:59.001Z</time>
      </trkpt>
      <trkpt lat="43.65752" lon="3.74454">
        <ele>177.07604</ele>
        <time>2021-03-27T08:56:08.000Z</time>
      </trkpt>
      <trkpt lat="43.65743" lon="3.7444">
        <ele>176.38193</ele>
        <time>2021-03-27T08:56:13.000Z</time>
      </trkpt>
      <trkpt lat="43.65728" lon="3.74427">
        <ele>175.35204</ele>
        <time>2021-03-27T08:56:18.000Z</time>
      </trkpt>
      <trkpt lat="43.6571" lon="3.74405">
        <ele>173.33172</ele>
        <time>2021-03-27T08:56:25.000Z</time>
      </trkpt>
      <trkpt lat="43.65701" lon="3.74384">
        <ele>171.87409</ele>
        <time>2021-03-27T08:56:30.000Z</time>
      </trkpt>
      <trkpt lat="43.65694" lon="3.74378">
        <ele>171.2881</ele>
        <time>2021-03-27T08:56:32.000Z</time>
      </trkpt>
      <trkpt lat="43.65669" lon="3.74366">
        <ele>168.09033</ele>
        <time>2021-03-27T08:56:41.000Z</time>
      </trkpt>
      <trkpt lat="43.65654" lon="3.74346">
        <ele>166.15554</ele>
        <time>2021-03-27T08:56:46.000Z</time>
      </trkpt>
      <trkpt lat="43.65645" lon="3.74335">
        <ele>165.03658</ele>
        <time>2021-03-27T08:56:51.000Z</time>
      </trkpt>
      <trkpt lat="43.6563" lon="3.74277">
        <ele>163.5804</ele>
        <time>2021-03-27T08:57:06.000Z</time>
      </trkpt>
      <trkpt lat="43.65617" lon="3.74249">
        <ele>162.99623</ele>
        <time>2021-03-27T08:57:15.000Z</time>
      </trkpt>
      <trkpt lat="43.65588" lon="3.74193">
        <ele>161.9188</ele>
        <time>2021-03-27T08:57:29.000Z</time>
      </trkpt>
      <trkpt lat="43.65563" lon="3.74141">
        <ele>161.13825</ele>
        <time>2021-03-27T08:57:43.000Z</time>
      </trkpt>
      <trkpt lat="43.65528" lon="3.741">
        <ele>160.57421</ele>
        <time>2021-03-27T08:57:54.000Z</time>
      </trkpt>
      <trkpt lat="43.65516" lon="3.74084">
        <ele>160.13751</ele>
        <time>2021-03-27T08:58:00.000Z</time>
      </trkpt>
      <trkpt lat="43.65509" lon="3.74079">
        <ele>159.68872</ele>
        <time>2021-03-27T08:58:18.000Z</time>
      </trkpt>
      <trkpt lat="43.65502" lon="3.74079">
        <ele>159.07779</ele>
        <time>2021-03-27T08:58:22.000Z</time>
      </trkpt>
      <trkpt lat="43.65485" lon="3.74087">
        <ele>156.0659</ele>
        <time>2021-03-27T08:58:32.000Z</time>
      </trkpt>
      <trkpt lat="43.65476" lon="3.74086">
        <ele>153.8893</ele>
        <time>2021-03-27T08:58:47.000Z</time>
      </trkpt>
      <trkpt lat="43.65471" lon="3.74083">
        <ele>152.22982</ele>
        <time>2021-03-27T08:58:51.000Z</time>
      </trkpt>
      <trkpt lat="43.65471" lon="3.74069">
        <ele>149.57041</ele>
        <time>2021-03-27T08:59:04.000Z</time>
      </trkpt>
      <trkpt lat="43.65459" lon="3.74069">
        <ele>148.82299</ele>
        <time>2021-03-27T08:59:11.000Z</time>
      </trkpt>
      <trkpt lat="43.65439" lon="3.74059">
        <ele>148.80535</ele>
        <time>2021-03-27T08:59:19.000Z</time>
      </trkpt>
      <trkpt lat="43.65422" lon="3.74055">
        <ele>149.01938</ele>
        <time>2021-03-27T08:59:25.000Z</time>
      </trkpt>
      <trkpt lat="43.65406" lon="3.74042">
        <ele>149.95122</ele>
        <time>2021-03-27T08:59:32.000Z</time>
      </trkpt>
      <trkpt lat="43.65362" lon="3.74025">
        <ele>152.22557</ele>
        <time>2021-03-27T08:59:46.000Z</time>
      </trkpt>
      <trkpt lat="43.65349" lon="3.74021">
        <ele>152.71207</ele>
        <time>2021-03-27T08:59:51.000Z</time>
      </trkpt>
      <trkpt lat="43.65337" lon="3.74007">
        <ele>153.40707</ele>
        <time>2021-03-27T09:00:42.000Z</time>
      </trkpt>
      <trkpt lat="43.65318" lon="3.7399">
        <ele>154.19292</ele>
        <time>2021-03-27T09:00:49.000Z</time>
      </trkpt>
      <trkpt lat="43.65298" lon="3.73989">
        <ele>154.62429</ele>
        <time>2021-03-27T09:00:53.000Z</time>
      </trkpt>
      <trkpt lat="43.65283" lon="3.73981">
        <ele>154.89099</ele>
        <time>2021-03-27T09:00:57.000Z</time>
      </trkpt>
      <trkpt lat="43.65264" lon="3.73971">
        <ele>155.0333</ele>
        <time>2021-03-27T09:01:02.000Z</time>
      </trkpt>
      <trkpt lat="43.65244" lon="3.73958">
        <ele>155.09028</ele>
        <time>2021-03-27T09:01:06.000Z</time>
      </trkpt>
      <trkpt lat="43.65207" lon="3.73939">
        <ele>155.23672</ele>
        <time>2021-03-27T09:01:13.000Z</time>
      </trkpt>
      <trkpt lat="43.65186" lon="3.73927">
        <ele>155.4954</ele>
        <time>2021-03-27T09:01:18.000Z</time>
      </trkpt>
      <trkpt lat="43.65142" lon="3.73901">
        <ele>155.92088</ele>
        <time>2021-03-27T09:01:28.000Z</time>
      </trkpt>
      <trkpt lat="43.65114" lon="3.73887">
        <ele>156.1031</ele>
        <time>2021-03-27T09:01:34.000Z</time>
      </trkpt>
      <trkpt lat="43.65092" lon="3.73881">
        <ele>156.20452</ele>
        <time>2021-03-27T09:01:38.000Z</time>
      </trkpt>
      <trkpt lat="43.65069" lon="3.73872">
        <ele>156.29796</ele>
        <time>2021-03-27T09:01:43.000Z</time>
      </trkpt>
      <trkpt lat="43.65036" lon="3.73848">
        <ele>156.37071</ele>
        <time>2021-03-27T09:01:49.000Z</time>
      </trkpt>
      <trkpt lat="43.65014" lon="3.73831">
        <ele>156.43256</ele>
        <time>2021-03-27T09:01:56.000Z</time>
      </trkpt>
      <trkpt lat="43.64998" lon="3.73818">
        <ele>156.52109</ele>
        <time>2021-03-27T09:02:02.000Z</time>
      </trkpt>
      <trkpt lat="43.64955" lon="3.73784">
        <ele>156.87781</ele>
        <time>2021-03-27T09:02:15.000Z</time>
      </trkpt>
      <trkpt lat="43.64937" lon="3.73774">
        <ele>157.07426</ele>
        <time>2021-03-27T09:02:20.000Z</time>
      </trkpt>
      <trkpt lat="43.64911" lon="3.73754">
        <ele>157.50233</ele>
        <time>2021-03-27T09:02:27.000Z</time>
      </trkpt>
      <trkpt lat="43.64894" lon="3.73737">
        <ele>157.92026</ele>
        <time>2021-03-27T09:02:32.000Z</time>
      </trkpt>
      <trkpt lat="43.64878" lon="3.73724">
        <ele>158.32236</ele>
        <time>2021-03-27T09:02:36.000Z</time>
      </trkpt>
      <trkpt lat="43.64858" lon="3.7371">
        <ele>159.00104</ele>
        <time>2021-03-27T09:02:42.000Z</time>
      </trkpt>
      <trkpt lat="43.64818" lon="3.73672">
        <ele>160.6558</ele>
        <time>2021-03-27T09:02:54.000Z</time>
      </trkpt>
      <trkpt lat="43.64799" lon="3.73645">
        <ele>161.7837</ele>
        <time>2021-03-27T09:03:01.000Z</time>
      </trkpt>
      <trkpt lat="43.64793" lon="3.73621">
        <ele>162.77337</ele>
        <time>2021-03-27T09:03:07.000Z</time>
      </trkpt>
      <trkpt lat="43.64789" lon="3.736">
        <ele>163.44025</ele>
        <time>2021-03-27T09:03:12.000Z</time>
      </trkpt>
      <trkpt lat="43.64792" lon="3.73577">
        <ele>164.03607</ele>
        <time>2021-03-27T09:03:17.000Z</time>
      </trkpt>
      <trkpt lat="43.64815" lon="3.73497">
        <ele>165.1836</ele>
        <time>2021-03-27T09:03:30.999Z</time>
      </trkpt>
      <trkpt lat="43.64815" lon="3.73471">
        <ele>165.38866</ele>
        <time>2021-03-27T09:03:35.999Z</time>
      </trkpt>
      <trkpt lat="43.64812" lon="3.73448">
        <ele>165.46654</ele>
        <time>2021-03-27T09:03:40.999Z</time>
      </trkpt>
      <trkpt lat="43.64814" lon="3.7343">
        <ele>165.50738</ele>
        <time>2021-03-27T09:03:44.999Z</time>
      </trkpt>
      <trkpt lat="43.64818" lon="3.73421">
        <ele>165.54307</ele>
        <time>2021-03-27T09:03:47.999Z</time>
      </trkpt>
      <trkpt lat="43.64822" lon="3.73413">
        <ele>165.57573</ele>
        <time>2021-03-27T09:03:51.999Z</time>
      </trkpt>
      <trkpt lat="43.64821" lon="3.734">
        <ele>166.04631</ele>
        <time>2021-03-27T09:06:42.000Z</time>
      </trkpt>
      <trkpt lat="43.64824" lon="3.7338">
        <ele>167.07297</ele>
        <time>2021-03-27T09:06:47.000Z</time>
      </trkpt>
      <trkpt lat="43.64833" lon="3.73366">
        <ele>168.32388</ele>
        <time>2021-03-27T09:06:53.000Z</time>
      </trkpt>
      <trkpt lat="43.64848" lon="3.73366">
        <ele>169.20511</ele>
        <time>2021-03-27T09:06:57.000Z</time>
      </trkpt>
      <trkpt lat="43.64861" lon="3.73351">
        <ele>170.16222</ele>
        <time>2021-03-27T09:07:01.000Z</time>
      </trkpt>
      <trkpt lat="43.64867" lon="3.73329">
        <ele>170.84405</ele>
        <time>2021-03-27T09:07:04.000Z</time>
      </trkpt>
      <trkpt lat="43.64885" lon="3.73273">
        <ele>172.94042</ele>
        <time>2021-03-27T09:07:16.000Z</time>
      </trkpt>
      <trkpt lat="43.64904" lon="3.73215">
        <ele>175.897</ele>
        <time>2021-03-27T09:07:29.000Z</time>
      </trkpt>
      <trkpt lat="43.64919" lon="3.7318">
        <ele>178.18377</ele>
        <time>2021-03-27T09:07:39.000Z</time>
      </trkpt>
      <trkpt lat="43.64925" lon="3.73152">
        <ele>179.43804</ele>
        <time>2021-03-27T09:07:46.000Z</time>
      </trkpt>
      <trkpt lat="43.64917" lon="3.73139">
        <ele>180.00192</ele>
        <time>2021-03-27T09:07:50.000Z</time>
      </trkpt>
      <trkpt lat="43.64903" lon="3.73134">
        <ele>180.3486</ele>
        <time>2021-03-27T09:07:54.000Z</time>
      </trkpt>
      <trkpt lat="43.64875" lon="3.73134">
        <ele>180.6904</ele>
        <time>2021-03-27T09:08:02.000Z</time>
      </trkpt>
      <trkpt lat="43.64842" lon="3.73127">
        <ele>180.89774</ele>
        <time>2021-03-27T09:08:13.000Z</time>
      </trkpt>
      <trkpt lat="43.64786" lon="3.7315">
        <ele>180.79442</ele>
        <time>2021-03-27T09:08:29.000Z</time>
      </trkpt>
      <trkpt lat="43.64768" lon="3.73149">
        <ele>180.6852</ele>
        <time>2021-03-27T09:08:36.000Z</time>
      </trkpt>
      <trkpt lat="43.64771" lon="3.7315">
        <ele>180.66719</ele>
        <time>2021-03-27T09:08:43.000Z</time>
      </trkpt>
      <trkpt lat="43.6477" lon="3.73145">
        <ele>180.63028</ele>
        <time>2021-03-27T09:11:28.000Z</time>
      </trkpt>
      <trkpt lat="43.64752" lon="3.7314">
        <ele>180.57884</ele>
        <time>2021-03-27T09:11:39.000Z</time>
      </trkpt>
      <trkpt lat="43.64736" lon="3.73128">
        <ele>180.55228</ele>
        <time>2021-03-27T09:11:47.000Z</time>
      </trkpt>
      <trkpt lat="43.64732" lon="3.73122">
        <ele>180.54822</ele>
        <time>2021-03-27T09:11:55.000Z</time>
      </trkpt>
      <trkpt lat="43.64731" lon="3.73119">
        <ele>180.54689</ele>
        <time>2021-03-27T09:11:59.000Z</time>
      </trkpt>
      <trkpt lat="43.64733" lon="3.73106">
        <ele>180.55053</ele>
        <time>2021-03-27T09:12:06.000Z</time>
      </trkpt>
      <trkpt lat="43.64774" lon="3.73048">
        <ele>180.62631</ele>
        <time>2021-03-27T09:12:23.000Z</time>
      </trkpt>
      <trkpt lat="43.64792" lon="3.73018">
        <ele>180.66344</ele>
        <time>2021-03-27T09:12:29.000Z</time>
      </trkpt>
      <trkpt lat="43.64803" lon="3.72995">
        <ele>180.68213</ele>
        <time>2021-03-27T09:12:33.000Z</time>
      </trkpt>
      <trkpt lat="43.64831" lon="3.72958">
        <ele>180.71919</ele>
        <time>2021-03-27T09:12:43.000Z</time>
      </trkpt>
      <trkpt lat="43.64835" lon="3.72944">
        <ele>180.73024</ele>
        <time>2021-03-27T09:12:47.000Z</time>
      </trkpt>
      <trkpt lat="43.64844" lon="3.72934">
        <ele>180.7376</ele>
        <time>2021-03-27T09:12:51.000Z</time>
      </trkpt>
      <trkpt lat="43.64856" lon="3.72923">
        <ele>180.74617</ele>
        <time>2021-03-27T09:12:55.000Z</time>
      </trkpt>
      <trkpt lat="43.64864" lon="3.72909">
        <ele>180.75587</ele>
        <time>2021-03-27T09:13:00.000Z</time>
      </trkpt>
      <trkpt lat="43.64866" lon="3.72906">
        <ele>180.75737</ele>
        <time>2021-03-27T09:13:03.000Z</time>
      </trkpt>
      <trkpt lat="43.64863" lon="3.72907">
        <ele>180.76014</ele>
        <time>2021-03-27T09:13:11.000Z</time>
      </trkpt>
      <trkpt lat="43.64885" lon="3.72898">
        <ele>180.7608</ele>
        <time>2021-03-27T09:13:59.000Z</time>
      </trkpt>
      <trkpt lat="43.64931" lon="3.72848">
        <ele>180.55766</ele>
        <time>2021-03-27T09:14:15.000Z</time>
      </trkpt>
      <trkpt lat="43.64968" lon="3.72795">
        <ele>177.50902</ele>
        <time>2021-03-27T09:14:30.000Z</time>
      </trkpt>
      <trkpt lat="43.65003" lon="3.72736">
        <ele>175.0523</ele>
        <time>2021-03-27T09:14:45.000Z</time>
      </trkpt>
      <trkpt lat="43.65034" lon="3.72696">
        <ele>173.07566</ele>
        <time>2021-03-27T09:15:01.000Z</time>
      </trkpt>
      <trkpt lat="43.65056" lon="3.72664">
        <ele>171.83725</ele>
        <time>2021-03-27T09:15:08.000Z</time>
      </trkpt>
      <trkpt lat="43.65073" lon="3.72644">
        <ele>170.68868</ele>
        <time>2021-03-27T09:15:14.000Z</time>
      </trkpt>
      <trkpt lat="43.65079" lon="3.72628">
        <ele>169.90879</ele>
        <time>2021-03-27T09:15:19.000Z</time>
      </trkpt>
      <trkpt lat="43.65074" lon="3.72619">
        <ele>167.95972</ele>
        <time>2021-03-27T09:16:51.000Z</time>
      </trkpt>
      <trkpt lat="43.65064" lon="3.72616">
        <ele>167.46358</ele>
        <time>2021-03-27T09:16:55.000Z</time>
      </trkpt>
      <trkpt lat="43.65051" lon="3.7262">
        <ele>167.34155</ele>
        <time>2021-03-27T09:17:00.000Z</time>
      </trkpt>
      <trkpt lat="43.65043" lon="3.72624">
        <ele>167.40042</ele>
        <time>2021-03-27T09:17:07.000Z</time>
      </trkpt>
      <trkpt lat="43.65033" lon="3.72623">
        <ele>167.5668</ele>
        <time>2021-03-27T09:17:11.000Z</time>
      </trkpt>
      <trkpt lat="43.65024" lon="3.72626">
        <ele>167.74658</ele>
        <time>2021-03-27T09:17:15.000Z</time>
      </trkpt>
      <trkpt lat="43.65021" lon="3.72626">
        <ele>167.82534</ele>
        <time>2021-03-27T09:17:18.000Z</time>
      </trkpt>
      <trkpt lat="43.65016" lon="3.72628">
        <ele>167.99265</ele>
        <time>2021-03-27T09:17:29.000Z</time>
      </trkpt>
      <trkpt lat="43.65013" lon="3.72626">
        <ele>168.07943</ele>
        <time>2021-03-27T09:17:32.000Z</time>
      </trkpt>
      <trkpt lat="43.6501" lon="3.72626">
        <ele>168.16619</ele>
        <time>2021-03-27T09:17:36.000Z</time>
      </trkpt>
      <trkpt lat="43.65008" lon="3.72628">
        <ele>168.4193</ele>
        <time>2021-03-27T09:17:47.000Z</time>
      </trkpt>
      <trkpt lat="43.65" lon="3.72624">
        <ele>168.80531</ele>
        <time>2021-03-27T09:18:05.000Z</time>
      </trkpt>
      <trkpt lat="43.64989" lon="3.72613">
        <ele>169.42569</ele>
        <time>2021-03-27T09:18:11.000Z</time>
      </trkpt>
      <trkpt lat="43.64987" lon="3.72603">
        <ele>169.75486</ele>
        <time>2021-03-27T09:18:15.000Z</time>
      </trkpt>
      <trkpt lat="43.6498" lon="3.72586">
        <ele>170.58846</ele>
        <time>2021-03-27T09:18:26.000Z</time>
      </trkpt>
      <trkpt lat="43.64979" lon="3.72576">
        <ele>170.91818</ele>
        <time>2021-03-27T09:18:30.000Z</time>
      </trkpt>
      <trkpt lat="43.6497" lon="3.72565">
        <ele>171.45396</ele>
        <time>2021-03-27T09:18:36.000Z</time>
      </trkpt>
      <trkpt lat="43.64969" lon="3.72561">
        <ele>171.62491</ele>
        <time>2021-03-27T09:18:38.000Z</time>
      </trkpt>
      <trkpt lat="43.64971" lon="3.72554">
        <ele>171.94502</ele>
        <time>2021-03-27T09:18:44.000Z</time>
      </trkpt>
      <trkpt lat="43.64973" lon="3.72551">
        <ele>172.08074</ele>
        <time>2021-03-27T09:18:56.000Z</time>
      </trkpt>
      <trkpt lat="43.64977" lon="3.7255">
        <ele>172.27067</ele>
        <time>2021-03-27T09:20:27.000Z</time>
      </trkpt>
      <trkpt lat="43.64981" lon="3.72543">
        <ele>172.58282</ele>
        <time>2021-03-27T09:21:08.000Z</time>
      </trkpt>
      <trkpt lat="43.64996" lon="3.72537">
        <ele>172.73363</ele>
        <time>2021-03-27T09:21:14.000Z</time>
      </trkpt>
      <trkpt lat="43.65003" lon="3.72526">
        <ele>172.75958</ele>
        <time>2021-03-27T09:21:18.000Z</time>
      </trkpt>
      <trkpt lat="43.65013" lon="3.72516">
        <ele>172.71032</ele>
        <time>2021-03-27T09:21:22.000Z</time>
      </trkpt>
      <trkpt lat="43.65027" lon="3.72501">
        <ele>172.59595</ele>
        <time>2021-03-27T09:21:26.000Z</time>
      </trkpt>
      <trkpt lat="43.65039" lon="3.72493">
        <ele>172.4136</ele>
        <time>2021-03-27T09:21:30.000Z</time>
      </trkpt>
      <trkpt lat="43.65053" lon="3.72484">
        <ele>172.09921</ele>
        <time>2021-03-27T09:21:35.000Z</time>
      </trkpt>
      <trkpt lat="43.65067" lon="3.72475">
        <ele>171.7626</ele>
        <time>2021-03-27T09:21:39.000Z</time>
      </trkpt>
      <trkpt lat="43.65081" lon="3.72484">
        <ele>171.37988</ele>
        <time>2021-03-27T09:21:43.000Z</time>
      </trkpt>
      <trkpt lat="43.65097" lon="3.72483">
        <ele>170.99327</ele>
        <time>2021-03-27T09:21:47.000Z</time>
      </trkpt>
      <trkpt lat="43.65146" lon="3.72461">
        <ele>170.40873</ele>
        <time>2021-03-27T09:21:59.000Z</time>
      </trkpt>
      <trkpt lat="43.65183" lon="3.72428">
        <ele>170.1292</ele>
        <time>2021-03-27T09:22:10.000Z</time>
      </trkpt>
      <trkpt lat="43.65242" lon="3.72351">
        <ele>169.416</ele>
        <time>2021-03-27T09:22:27.000Z</time>
      </trkpt>
      <trkpt lat="43.65262" lon="3.72335">
        <ele>168.81027</ele>
        <time>2021-03-27T09:22:32.000Z</time>
      </trkpt>
      <trkpt lat="43.65276" lon="3.72331">
        <ele>167.83</ele>
        <time>2021-03-27T09:22:37.000Z</time>
      </trkpt>
      <trkpt lat="43.65284" lon="3.72321">
        <ele>167.04746</ele>
        <time>2021-03-27T09:22:41.000Z</time>
      </trkpt>
      <trkpt lat="43.65294" lon="3.72302">
        <ele>165.59626</ele>
        <time>2021-03-27T09:22:46.000Z</time>
      </trkpt>
      <trkpt lat="43.65324" lon="3.72286">
        <ele>163.03361</ele>
        <time>2021-03-27T09:22:54.000Z</time>
      </trkpt>
      <trkpt lat="43.65343" lon="3.72262">
        <ele>161.19247</ele>
        <time>2021-03-27T09:22:59.000Z</time>
      </trkpt>
      <trkpt lat="43.65347" lon="3.72245">
        <ele>159.50352</ele>
        <time>2021-03-27T09:23:03.000Z</time>
      </trkpt>
      <trkpt lat="43.65358" lon="3.72211">
        <ele>154.81242</ele>
        <time>2021-03-27T09:23:14.000Z</time>
      </trkpt>
      <trkpt lat="43.6536" lon="3.72203">
        <ele>153.74605</ele>
        <time>2021-03-27T09:23:17.000Z</time>
      </trkpt>
      <trkpt lat="43.65348" lon="3.72216">
        <ele>150.7267</ele>
        <time>2021-03-27T09:24:46.000Z</time>
      </trkpt>
      <trkpt lat="43.65338" lon="3.72255">
        <ele>151.30602</ele>
        <time>2021-03-27T09:24:56.000Z</time>
      </trkpt>
      <trkpt lat="43.65337" lon="3.72265">
        <ele>151.72259</ele>
        <time>2021-03-27T09:24:59.000Z</time>
      </trkpt>
      <trkpt lat="43.65333" lon="3.72278">
        <ele>152.24753</ele>
        <time>2021-03-27T09:25:04.000Z</time>
      </trkpt>
      <trkpt lat="43.65303" lon="3.72307">
        <ele>155.64862</ele>
        <time>2021-03-27T09:25:19.000Z</time>
      </trkpt>
      <trkpt lat="43.6528" lon="3.7232">
        <ele>157.51565</ele>
        <time>2021-03-27T09:25:30.000Z</time>
      </trkpt>
      <trkpt lat="43.65273" lon="3.72332">
        <ele>158.18093</ele>
        <time>2021-03-27T09:25:36.000Z</time>
      </trkpt>
      <trkpt lat="43.65272" lon="3.72343">
        <ele>158.81304</ele>
        <time>2021-03-27T09:25:40.000Z</time>
      </trkpt>
      <trkpt lat="43.6528" lon="3.72357">
        <ele>159.73316</ele>
        <time>2021-03-27T09:25:44.000Z</time>
      </trkpt>
      <trkpt lat="43.65284" lon="3.72377">
        <ele>160.80111</ele>
        <time>2021-03-27T09:25:49.000Z</time>
      </trkpt>
      <trkpt lat="43.6528" lon="3.72394">
        <ele>161.66739</ele>
        <time>2021-03-27T09:25:53.000Z</time>
      </trkpt>
      <trkpt lat="43.65273" lon="3.72411">
        <ele>162.80643</ele>
        <time>2021-03-27T09:25:58.000Z</time>
      </trkpt>
      <trkpt lat="43.65282" lon="3.72428">
        <ele>163.87891</ele>
        <time>2021-03-27T09:26:03.000Z</time>
      </trkpt>
      <trkpt lat="43.65307" lon="3.72451">
        <ele>164.99455</ele>
        <time>2021-03-27T09:26:11.000Z</time>
      </trkpt>
      <trkpt lat="43.65333" lon="3.72464">
        <ele>165.1613</ele>
        <time>2021-03-27T09:26:17.000Z</time>
      </trkpt>
      <trkpt lat="43.65354" lon="3.72465">
        <ele>165.0658</ele>
        <time>2021-03-27T09:26:21.000Z</time>
      </trkpt>
      <trkpt lat="43.65413" lon="3.72473">
        <ele>164.17108</ele>
        <time>2021-03-27T09:26:32.000Z</time>
      </trkpt>
      <trkpt lat="43.65449" lon="3.72465">
        <ele>163.09386</ele>
        <time>2021-03-27T09:26:38.000Z</time>
      </trkpt>
      <trkpt lat="43.65482" lon="3.72456">
        <ele>161.54973</ele>
        <time>2021-03-27T09:26:44.000Z</time>
      </trkpt>
      <trkpt lat="43.65506" lon="3.72461">
        <ele>160.44594</ele>
        <time>2021-03-27T09:26:48.000Z</time>
      </trkpt>
      <trkpt lat="43.65548" lon="3.72492">
        <ele>158.03091</ele>
        <time>2021-03-27T09:26:57.000Z</time>
      </trkpt>
      <trkpt lat="43.65572" lon="3.72497">
        <ele>156.63081</ele>
        <time>2021-03-27T09:27:01.000Z</time>
      </trkpt>
      <trkpt lat="43.656" lon="3.72507">
        <ele>154.89818</ele>
        <time>2021-03-27T09:27:06.000Z</time>
      </trkpt>
      <trkpt lat="43.65633" lon="3.72509">
        <ele>152.98447</ele>
        <time>2021-03-27T09:27:11.000Z</time>
      </trkpt>
      <trkpt lat="43.65647" lon="3.72513">
        <ele>151.0915</ele>
        <time>2021-03-27T09:27:29.000Z</time>
      </trkpt>
      <trkpt lat="43.65653" lon="3.7251">
        <ele>150.30738</ele>
        <time>2021-03-27T09:27:32.000Z</time>
      </trkpt>
      <trkpt lat="43.65683" lon="3.72483">
        <ele>147.69553</ele>
        <time>2021-03-27T09:27:47.000Z</time>
      </trkpt>
      <trkpt lat="43.65719" lon="3.72433">
        <ele>143.55503</ele>
        <time>2021-03-27T09:28:01.000Z</time>
      </trkpt>
      <trkpt lat="43.65752" lon="3.72376">
        <ele>139.5505</ele>
        <time>2021-03-27T09:28:11.000Z</time>
      </trkpt>
      <trkpt lat="43.65773" lon="3.72366">
        <ele>138.39365</ele>
        <time>2021-03-27T09:28:16.000Z</time>
      </trkpt>
      <trkpt lat="43.65827" lon="3.72354">
        <ele>136.05486</ele>
        <time>2021-03-27T09:28:30.000Z</time>
      </trkpt>
      <trkpt lat="43.65845" lon="3.72356">
        <ele>135.18892</ele>
        <time>2021-03-27T09:28:34.000Z</time>
      </trkpt>
      <trkpt lat="43.65871" lon="3.7235">
        <ele>133.76422</ele>
        <time>2021-03-27T09:28:39.000Z</time>
      </trkpt>
      <trkpt lat="43.65896" lon="3.72354">
        <ele>131.46377</ele>
        <time>2021-03-27T09:28:44.000Z</time>
      </trkpt>
      <trkpt lat="43.65916" lon="3.7235">
        <ele>128.31149</ele>
        <time>2021-03-27T09:28:49.000Z</time>
      </trkpt>
      <trkpt lat="43.65924" lon="3.72327">
        <ele>126.41282</ele>
        <time>2021-03-27T09:28:53.000Z</time>
      </trkpt>
      <trkpt lat="43.65947" lon="3.72275">
        <ele>124.18145</ele>
        <time>2021-03-27T09:29:01.000Z</time>
      </trkpt>
      <trkpt lat="43.65956" lon="3.72257">
        <ele>123.46641</ele>
        <time>2021-03-27T09:29:05.000Z</time>
      </trkpt>
      <trkpt lat="43.65964" lon="3.72246">
        <ele>122.70796</ele>
        <time>2021-03-27T09:29:18.000Z</time>
      </trkpt>
      <trkpt lat="43.65984" lon="3.72195">
        <ele>120.48869</ele>
        <time>2021-03-27T09:29:30.000Z</time>
      </trkpt>
      <trkpt lat="43.65993" lon="3.72187">
        <ele>119.28157</ele>
        <time>2021-03-27T09:29:34.000Z</time>
      </trkpt>
      <trkpt lat="43.65998" lon="3.72167">
        <ele>116.57266</ele>
        <time>2021-03-27T09:29:40.000Z</time>
      </trkpt>
      <trkpt lat="43.65983" lon="3.72101">
        <ele>113.52364</ele>
        <time>2021-03-27T09:29:51.000Z</time>
      </trkpt>
      <trkpt lat="43.65967" lon="3.72057">
        <ele>112.45727</ele>
        <time>2021-03-27T09:29:57.000Z</time>
      </trkpt>
      <trkpt lat="43.65934" lon="3.71967">
        <ele>109.11577</ele>
        <time>2021-03-27T09:30:08.000Z</time>
      </trkpt>
      <trkpt lat="43.65934" lon="3.71929">
        <ele>107.35484</ele>
        <time>2021-03-27T09:30:12.000Z</time>
      </trkpt>
      <trkpt lat="43.65913" lon="3.71896">
        <ele>104.60605</ele>
        <time>2021-03-27T09:30:17.000Z</time>
      </trkpt>
      <trkpt lat="43.65886" lon="3.71875">
        <ele>102.47724</ele>
        <time>2021-03-27T09:30:21.000Z</time>
      </trkpt>
      <trkpt lat="43.65877" lon="3.7187">
        <ele>100.74215</ele>
        <time>2021-03-27T09:30:25.000Z</time>
      </trkpt>
      <trkpt lat="43.65878" lon="3.71861">
        <ele>99.24886</ele>
        <time>2021-03-27T09:30:28.000Z</time>
      </trkpt>
      <trkpt lat="43.65873" lon="3.71853">
        <ele>96.86705</ele>
        <time>2021-03-27T09:31:51.000Z</time>
      </trkpt>
      <trkpt lat="43.65862" lon="3.71844">
        <ele>96.21501</ele>
        <time>2021-03-27T09:31:56.000Z</time>
      </trkpt>
      <trkpt lat="43.65852" lon="3.71834">
        <ele>95.76338</ele>
        <time>2021-03-27T09:32:01.000Z</time>
      </trkpt>
      <trkpt lat="43.65835" lon="3.71825">
        <ele>95.56671</ele>
        <time>2021-03-27T09:32:06.000Z</time>
      </trkpt>
      <trkpt lat="43.65822" lon="3.71813">
        <ele>95.56874</ele>
        <time>2021-03-27T09:32:10.000Z</time>
      </trkpt>
      <trkpt lat="43.65812" lon="3.71794">
        <ele>95.65523</ele>
        <time>2021-03-27T09:32:15.000Z</time>
      </trkpt>
      <trkpt lat="43.658" lon="3.7178">
        <ele>95.79473</ele>
        <time>2021-03-27T09:32:20.000Z</time>
      </trkpt>
      <trkpt lat="43.65775" lon="3.71716">
        <ele>96.14567</ele>
        <time>2021-03-27T09:32:33.000Z</time>
      </trkpt>
      <trkpt lat="43.65761" lon="3.71689">
        <ele>96.20965</ele>
        <time>2021-03-27T09:32:40.000Z</time>
      </trkpt>
      <trkpt lat="43.6573" lon="3.71654">
        <ele>96.27218</ele>
        <time>2021-03-27T09:32:50.000Z</time>
      </trkpt>
      <trkpt lat="43.65715" lon="3.71643">
        <ele>96.30209</ele>
        <time>2021-03-27T09:32:54.000Z</time>
      </trkpt>
      <trkpt lat="43.65706" lon="3.71631">
        <ele>96.32884</ele>
        <time>2021-03-27T09:32:58.000Z</time>
      </trkpt>
      <trkpt lat="43.65697" lon="3.71614">
        <ele>96.34465</ele>
        <time>2021-03-27T09:33:02.000Z</time>
      </trkpt>
      <trkpt lat="43.65685" lon="3.71625">
        <ele>96.37781</ele>
        <time>2021-03-27T09:33:08.000Z</time>
      </trkpt>
      <trkpt lat="43.65671" lon="3.71633">
        <ele>96.49631</ele>
        <time>2021-03-27T09:33:14.000Z</time>
      </trkpt>
      <trkpt lat="43.65643" lon="3.71627">
        <ele>97.35651</ele>
        <time>2021-03-27T09:33:23.000Z</time>
      </trkpt>
      <trkpt lat="43.65633" lon="3.71619">
        <ele>98.05648</ele>
        <time>2021-03-27T09:33:27.000Z</time>
      </trkpt>
      <trkpt lat="43.65618" lon="3.71609">
        <ele>99.08459</ele>
        <time>2021-03-27T09:33:32.000Z</time>
      </trkpt>
      <trkpt lat="43.65574" lon="3.716">
        <ele>101.32728</ele>
        <time>2021-03-27T09:33:44.000Z</time>
      </trkpt>
      <trkpt lat="43.65534" lon="3.71586">
        <ele>102.72775</ele>
        <time>2021-03-27T09:33:56.000Z</time>
      </trkpt>
      <trkpt lat="43.65528" lon="3.71584">
        <ele>102.89868</ele>
        <time>2021-03-27T09:33:58.000Z</time>
      </trkpt>
      <trkpt lat="43.65466" lon="3.71566">
        <ele>104.0099</ele>
        <time>2021-03-27T09:34:34.000Z</time>
      </trkpt>
      <trkpt lat="43.65443" lon="3.71572">
        <ele>104.57447</ele>
        <time>2021-03-27T09:34:38.000Z</time>
      </trkpt>
      <trkpt lat="43.65416" lon="3.71576">
        <ele>105.68885</ele>
        <time>2021-03-27T09:34:43.000Z</time>
      </trkpt>
      <trkpt lat="43.65394" lon="3.71591">
        <ele>106.55826</ele>
        <time>2021-03-27T09:34:47.000Z</time>
      </trkpt>
      <trkpt lat="43.6538" lon="3.71614">
        <ele>107.22156</ele>
        <time>2021-03-27T09:34:51.000Z</time>
      </trkpt>
      <trkpt lat="43.65353" lon="3.71618">
        <ele>107.85721</ele>
        <time>2021-03-27T09:34:56.000Z</time>
      </trkpt>
      <trkpt lat="43.65332" lon="3.71617">
        <ele>108.35361</ele>
        <time>2021-03-27T09:35:00.000Z</time>
      </trkpt>
      <trkpt lat="43.65316" lon="3.71628">
        <ele>108.81674</ele>
        <time>2021-03-27T09:35:04.000Z</time>
      </trkpt>
      <trkpt lat="43.65305" lon="3.71626">
        <ele>109.24306</ele>
        <time>2021-03-27T09:35:08.000Z</time>
      </trkpt>
      <trkpt lat="43.65291" lon="3.71618">
        <ele>109.73448</ele>
        <time>2021-03-27T09:35:13.000Z</time>
      </trkpt>
      <trkpt lat="43.65262" lon="3.71613">
        <ele>110.48535</ele>
        <time>2021-03-27T09:35:20.000Z</time>
      </trkpt>
      <trkpt lat="43.65213" lon="3.71594">
        <ele>112.11039</ele>
        <time>2021-03-27T09:35:34.000Z</time>
      </trkpt>
      <trkpt lat="43.6517" lon="3.71577">
        <ele>113.68478</ele>
        <time>2021-03-27T09:35:45.000Z</time>
      </trkpt>
      <trkpt lat="43.65144" lon="3.71544">
        <ele>115.66888</ele>
        <time>2021-03-27T09:35:55.000Z</time>
      </trkpt>
      <trkpt lat="43.65121" lon="3.71513">
        <ele>117.78313</ele>
        <time>2021-03-27T09:36:10.000Z</time>
      </trkpt>
      <trkpt lat="43.65112" lon="3.71505">
        <ele>118.50496</ele>
        <time>2021-03-27T09:36:14.000Z</time>
      </trkpt>
      <trkpt lat="43.6508" lon="3.71491">
        <ele>120.12639</ele>
        <time>2021-03-27T09:36:27.000Z</time>
      </trkpt>
      <trkpt lat="43.6504" lon="3.71462">
        <ele>121.24721</ele>
        <time>2021-03-27T09:36:40.000Z</time>
      </trkpt>
      <trkpt lat="43.65014" lon="3.71442">
        <ele>121.34059</ele>
        <time>2021-03-27T09:36:46.000Z</time>
      </trkpt>
      <trkpt lat="43.64991" lon="3.71416">
        <ele>121.16637</ele>
        <time>2021-03-27T09:36:51.000Z</time>
      </trkpt>
      <trkpt lat="43.64977" lon="3.71401">
        <ele>120.77248</ele>
        <time>2021-03-27T09:36:57.000Z</time>
      </trkpt>
      <trkpt lat="43.64973" lon="3.71407">
        <ele>120.55519</ele>
        <time>2021-03-27T09:37:01.000Z</time>
      </trkpt>
      <trkpt lat="43.64968" lon="3.71427">
        <ele>120.06716</ele>
        <time>2021-03-27T09:37:07.000Z</time>
      </trkpt>
      <trkpt lat="43.64969" lon="3.71446">
        <ele>119.5789</ele>
        <time>2021-03-27T09:37:13.000Z</time>
      </trkpt>
      <trkpt lat="43.64971" lon="3.71457">
        <ele>119.35442</ele>
        <time>2021-03-27T09:37:17.000Z</time>
      </trkpt>
      <trkpt lat="43.64968" lon="3.71481">
        <ele>118.8228</ele>
        <time>2021-03-27T09:37:31.000Z</time>
      </trkpt>
      <trkpt lat="43.64965" lon="3.71491">
        <ele>118.73167</ele>
        <time>2021-03-27T09:37:36.000Z</time>
      </trkpt>
      <trkpt lat="43.6496" lon="3.71503">
        <ele>118.68737</ele>
        <time>2021-03-27T09:37:43.000Z</time>
      </trkpt>
      <trkpt lat="43.64956" lon="3.71509">
        <ele>118.71411</ele>
        <time>2021-03-27T09:37:47.000Z</time>
      </trkpt>
      <trkpt lat="43.64953" lon="3.7151">
        <ele>118.74278</ele>
        <time>2021-03-27T09:37:49.000Z</time>
      </trkpt>
      <trkpt lat="43.64954" lon="3.71514">
        <ele>118.77161</ele>
        <time>2021-03-27T09:37:54.000Z</time>
      </trkpt>
      <trkpt lat="43.64936" lon="3.7148">
        <ele>120.03392</ele>
        <time>2021-03-27T09:39:31.000Z</time>
      </trkpt>
      <trkpt lat="43.64896" lon="3.71426">
        <ele>120.55568</ele>
        <time>2021-03-27T09:39:45.000Z</time>
      </trkpt>
      <trkpt lat="43.64869" lon="3.71384">
        <ele>120.55867</ele>
        <time>2021-03-27T09:39:55.000Z</time>
      </trkpt>
      <trkpt lat="43.64832" lon="3.71317">
        <ele>120.39723</ele>
        <time>2021-03-27T09:40:08.000Z</time>
      </trkpt>
      <trkpt lat="43.64808" lon="3.71289">
        <ele>120.27043</ele>
        <time>2021-03-27T09:40:15.000Z</time>
      </trkpt>
      <trkpt lat="43.64769" lon="3.71234">
        <ele>119.93051</ele>
        <time>2021-03-27T09:40:28.000Z</time>
      </trkpt>
      <trkpt lat="43.64756" lon="3.71213">
        <ele>119.76885</ele>
        <time>2021-03-27T09:40:32.000Z</time>
      </trkpt>
      <trkpt lat="43.64735" lon="3.7119">
        <ele>119.50494</ele>
        <time>2021-03-27T09:40:37.000Z</time>
      </trkpt>
      <trkpt lat="43.64724" lon="3.71168">
        <ele>119.20743</ele>
        <time>2021-03-27T09:40:41.000Z</time>
      </trkpt>
      <trkpt lat="43.64719" lon="3.71134">
        <ele>118.47412</ele>
        <time>2021-03-27T09:40:46.000Z</time>
      </trkpt>
      <trkpt lat="43.64701" lon="3.71098">
        <ele>117.27609</ele>
        <time>2021-03-27T09:40:51.000Z</time>
      </trkpt>
      <trkpt lat="43.64682" lon="3.71084">
        <ele>116.58402</ele>
        <time>2021-03-27T09:40:54.000Z</time>
      </trkpt>
      <trkpt lat="43.64665" lon="3.71076">
        <ele>115.49314</ele>
        <time>2021-03-27T09:40:59.000Z</time>
      </trkpt>
      <trkpt lat="43.6464" lon="3.71054">
        <ele>114.52064</ele>
        <time>2021-03-27T09:41:06.000Z</time>
      </trkpt>
      <trkpt lat="43.64613" lon="3.71036">
        <ele>113.96222</ele>
        <time>2021-03-27T09:41:12.000Z</time>
      </trkpt>
      <trkpt lat="43.64599" lon="3.71022">
        <ele>113.78632</ele>
        <time>2021-03-27T09:41:17.000Z</time>
      </trkpt>
      <trkpt lat="43.64581" lon="3.71001">
        <ele>113.73371</ele>
        <time>2021-03-27T09:41:22.000Z</time>
      </trkpt>
      <trkpt lat="43.64559" lon="3.70975">
        <ele>113.73428</ele>
        <time>2021-03-27T09:41:28.000Z</time>
      </trkpt>
      <trkpt lat="43.64553" lon="3.70951">
        <ele>113.78559</ele>
        <time>2021-03-27T09:41:32.000Z</time>
      </trkpt>
      <trkpt lat="43.64528" lon="3.70914">
        <ele>113.83571</ele>
        <time>2021-03-27T09:41:39.000Z</time>
      </trkpt>
      <trkpt lat="43.64513" lon="3.70896">
        <ele>113.86696</ele>
        <time>2021-03-27T09:41:43.000Z</time>
      </trkpt>
      <trkpt lat="43.64505" lon="3.70871">
        <ele>113.90166</ele>
        <time>2021-03-27T09:41:48.000Z</time>
      </trkpt>
      <trkpt lat="43.64501" lon="3.70861">
        <ele>113.91858</ele>
        <time>2021-03-27T09:41:51.000Z</time>
      </trkpt>
      <trkpt lat="43.64503" lon="3.70858">
        <ele>113.9423</ele>
        <time>2021-03-27T09:42:34.000Z</time>
      </trkpt>
      <trkpt lat="43.64512" lon="3.70836">
        <ele>114.06951</ele>
        <time>2021-03-27T09:42:42.000Z</time>
      </trkpt>
      <trkpt lat="43.64522" lon="3.70808">
        <ele>114.12091</ele>
        <time>2021-03-27T09:42:46.000Z</time>
      </trkpt>
      <trkpt lat="43.64542" lon="3.70768">
        <ele>114.08248</ele>
        <time>2021-03-27T09:42:52.000Z</time>
      </trkpt>
      <trkpt lat="43.64577" lon="3.70654">
        <ele>113.5254</ele>
        <time>2021-03-27T09:43:05.000Z</time>
      </trkpt>
      <trkpt lat="43.64589" lon="3.70615">
        <ele>112.87044</ele>
        <time>2021-03-27T09:43:10.000Z</time>
      </trkpt>
      <trkpt lat="43.64613" lon="3.70542">
        <ele>111.38331</ele>
        <time>2021-03-27T09:43:19.000Z</time>
      </trkpt>
      <trkpt lat="43.64635" lon="3.70499">
        <ele>110.64585</ele>
        <time>2021-03-27T09:43:26.000Z</time>
      </trkpt>
      <trkpt lat="43.64645" lon="3.70486">
        <ele>110.43383</ele>
        <time>2021-03-27T09:43:29.000Z</time>
      </trkpt>
      <trkpt lat="43.64648" lon="3.70473">
        <ele>110.20809</ele>
        <time>2021-03-27T09:43:33.000Z</time>
      </trkpt>
      <trkpt lat="43.64643" lon="3.7047">
        <ele>110.04545</ele>
        <time>2021-03-27T09:43:35.000Z</time>
      </trkpt>
      <trkpt lat="43.64637" lon="3.70489">
        <ele>109.56205</ele>
        <time>2021-03-27T09:43:42.000Z</time>
      </trkpt>
      <trkpt lat="43.64634" lon="3.70462">
        <ele>109.01653</ele>
        <time>2021-03-27T09:43:49.000Z</time>
      </trkpt>
      <trkpt lat="43.64618" lon="3.70432">
        <ele>108.49637</ele>
        <time>2021-03-27T09:43:54.000Z</time>
      </trkpt>
      <trkpt lat="43.64583" lon="3.70394">
        <ele>107.83185</ele>
        <time>2021-03-27T09:44:03.000Z</time>
      </trkpt>
      <trkpt lat="43.64575" lon="3.70374">
        <ele>107.65961</ele>
        <time>2021-03-27T09:44:07.000Z</time>
      </trkpt>
      <trkpt lat="43.64565" lon="3.70352">
        <ele>107.48474</ele>
        <time>2021-03-27T09:44:12.000Z</time>
      </trkpt>
      <trkpt lat="43.6454" lon="3.70321">
        <ele>107.37706</ele>
        <time>2021-03-27T09:44:21.000Z</time>
      </trkpt>
      <trkpt lat="43.64517" lon="3.70272">
        <ele>107.48472</ele>
        <time>2021-03-27T09:44:32.000Z</time>
      </trkpt>
      <trkpt lat="43.64509" lon="3.70265">
        <ele>107.50808</ele>
        <time>2021-03-27T09:44:35.000Z</time>
      </trkpt>
      <trkpt lat="43.64501" lon="3.70261">
        <ele>107.52099</ele>
        <time>2021-03-27T09:44:42.000Z</time>
      </trkpt>
      <trkpt lat="43.64498" lon="3.70261">
        <ele>107.52261</ele>
        <time>2021-03-27T09:45:03.000Z</time>
      </trkpt>
      <trkpt lat="43.64495" lon="3.70263">
        <ele>107.51993</ele>
        <time>2021-03-27T09:45:07.000Z</time>
      </trkpt>
      <trkpt lat="43.64492" lon="3.70262">
        <ele>107.51716</ele>
        <time>2021-03-27T09:45:10.000Z</time>
      </trkpt>
      <trkpt lat="43.64489" lon="3.70258">
        <ele>107.52247</ele>
        <time>2021-03-27T09:45:33.000Z</time>
      </trkpt>
      <trkpt lat="43.64481" lon="3.70265">
        <ele>107.55624</ele>
        <time>2021-03-27T09:45:56.000Z</time>
      </trkpt>
      <trkpt lat="43.64471" lon="3.7029">
        <ele>107.66825</ele>
        <time>2021-03-27T09:46:03.000Z</time>
      </trkpt>
      <trkpt lat="43.64455" lon="3.70295">
        <ele>107.74652</ele>
        <time>2021-03-27T09:46:08.000Z</time>
      </trkpt>
      <trkpt lat="43.64411" lon="3.7026">
        <ele>107.95828</ele>
        <time>2021-03-27T09:46:22.000Z</time>
      </trkpt>
      <trkpt lat="43.64383" lon="3.70235">
        <ele>108.11112</ele>
        <time>2021-03-27T09:46:33.000Z</time>
      </trkpt>
      <trkpt lat="43.6437" lon="3.70211">
        <ele>108.21442</ele>
        <time>2021-03-27T09:46:40.000Z</time>
      </trkpt>
      <trkpt lat="43.64351" lon="3.70159">
        <ele>108.70276</ele>
        <time>2021-03-27T09:46:54.000Z</time>
      </trkpt>
      <trkpt lat="43.64339" lon="3.70142">
        <ele>109.15209</ele>
        <time>2021-03-27T09:47:00.000Z</time>
      </trkpt>
      <trkpt lat="43.6429" lon="3.7011">
        <ele>109.81825</ele>
        <time>2021-03-27T09:47:11.000Z</time>
      </trkpt>
      <trkpt lat="43.64267" lon="3.70098">
        <ele>109.94558</ele>
        <time>2021-03-27T09:47:21.000Z</time>
      </trkpt>
      <trkpt lat="43.64271" lon="3.701">
        <ele>109.94961</ele>
        <time>2021-03-27T09:47:27.000Z</time>
      </trkpt>
      <trkpt lat="43.64264" lon="3.70124">
        <ele>109.85982</ele>
        <time>2021-03-27T09:48:20.000Z</time>
      </trkpt>
      <trkpt lat="43.64254" lon="3.70137">
        <ele>109.78845</ele>
        <time>2021-03-27T09:48:24.000Z</time>
      </trkpt>
      <trkpt lat="43.64208" lon="3.70164">
        <ele>109.76231</ele>
        <time>2021-03-27T09:48:37.000Z</time>
      </trkpt>
      <trkpt lat="43.6417" lon="3.7021">
        <ele>110.19748</ele>
        <time>2021-03-27T09:48:51.000Z</time>
      </trkpt>
      <trkpt lat="43.64146" lon="3.70239">
        <ele>113.00308</ele>
        <time>2021-03-27T09:49:02.000Z</time>
      </trkpt>
      <trkpt lat="43.64127" lon="3.70254">
        <ele>115.71782</ele>
        <time>2021-03-27T09:49:09.000Z</time>
      </trkpt>
      <trkpt lat="43.64119" lon="3.70265">
        <ele>117.05539</ele>
        <time>2021-03-27T09:49:13.000Z</time>
      </trkpt>
      <trkpt lat="43.641" lon="3.70283">
        <ele>119.17694</ele>
        <time>2021-03-27T09:49:23.000Z</time>
      </trkpt>
      <trkpt lat="43.64091" lon="3.70284">
        <ele>120.17765</ele>
        <time>2021-03-27T09:49:28.000Z</time>
      </trkpt>
      <trkpt lat="43.64084" lon="3.70288">
        <ele>120.91417</ele>
        <time>2021-03-27T09:49:32.000Z</time>
      </trkpt>
      <trkpt lat="43.64075" lon="3.70289">
        <ele>122.06969</ele>
        <time>2021-03-27T09:49:37.000Z</time>
      </trkpt>
      <trkpt lat="43.64043" lon="3.70306">
        <ele>126.2601</ele>
        <time>2021-03-27T09:49:50.000Z</time>
      </trkpt>
      <trkpt lat="43.64026" lon="3.7031">
        <ele>127.75099</ele>
        <time>2021-03-27T09:49:56.000Z</time>
      </trkpt>
      <trkpt lat="43.64004" lon="3.70326">
        <ele>129.42768</ele>
        <time>2021-03-27T09:50:06.000Z</time>
      </trkpt>
      <trkpt lat="43.63991" lon="3.70342">
        <ele>130.14128</ele>
        <time>2021-03-27T09:50:13.000Z</time>
      </trkpt>
      <trkpt lat="43.63978" lon="3.70353">
        <ele>130.49521</ele>
        <time>2021-03-27T09:50:18.000Z</time>
      </trkpt>
      <trkpt lat="43.63962" lon="3.70375">
        <ele>130.72999</ele>
        <time>2021-03-27T09:50:24.000Z</time>
      </trkpt>
      <trkpt lat="43.63942" lon="3.70395">
        <ele>130.7915</ele>
        <time>2021-03-27T09:50:30.000Z</time>
      </trkpt>
      <trkpt lat="43.63936" lon="3.70412">
        <ele>130.791</ele>
        <time>2021-03-27T09:50:37.000Z</time>
      </trkpt>
      <trkpt lat="43.63938" lon="3.70426">
        <ele>130.81702</ele>
        <time>2021-03-27T09:50:41.000Z</time>
      </trkpt>
      <trkpt lat="43.63949" lon="3.70447">
        <ele>130.96672</ele>
        <time>2021-03-27T09:50:47.000Z</time>
      </trkpt>
      <trkpt lat="43.63951" lon="3.70458">
        <ele>131.07063</ele>
        <time>2021-03-27T09:50:51.000Z</time>
      </trkpt>
      <trkpt lat="43.63949" lon="3.70487">
        <ele>131.55768</ele>
        <time>2021-03-27T09:51:01.000Z</time>
      </trkpt>
      <trkpt lat="43.63955" lon="3.70512">
        <ele>132.24533</ele>
        <time>2021-03-27T09:51:09.000Z</time>
      </trkpt>
      <trkpt lat="43.63955" lon="3.70523">
        <ele>132.61726</ele>
        <time>2021-03-27T09:51:13.000Z</time>
      </trkpt>
      <trkpt lat="43.63964" lon="3.7055">
        <ele>133.69523</ele>
        <time>2021-03-27T09:51:25.000Z</time>
      </trkpt>
      <trkpt lat="43.63972" lon="3.70553">
        <ele>134.67608</ele>
        <time>2021-03-27T09:51:32.000Z</time>
      </trkpt>
      <trkpt lat="43.63975" lon="3.70563">
        <ele>135.40136</ele>
        <time>2021-03-27T09:51:36.000Z</time>
      </trkpt>
      <trkpt lat="43.63979" lon="3.70576">
        <ele>136.35929</ele>
        <time>2021-03-27T09:51:40.000Z</time>
      </trkpt>
      <trkpt lat="43.63988" lon="3.70594">
        <ele>137.49621</ele>
        <time>2021-03-27T09:51:45.000Z</time>
      </trkpt>
      <trkpt lat="43.63992" lon="3.7061">
        <ele>138.31778</ele>
        <time>2021-03-27T09:51:50.000Z</time>
      </trkpt>
      <trkpt lat="43.63997" lon="3.7062">
        <ele>138.60471</ele>
        <time>2021-03-27T09:51:54.000Z</time>
      </trkpt>
      <trkpt lat="43.64002" lon="3.70631">
        <ele>138.99157</ele>
        <time>2021-03-27T09:52:00.000Z</time>
      </trkpt>
      <trkpt lat="43.64002" lon="3.70647">
        <ele>139.37056</ele>
        <time>2021-03-27T09:52:06.000Z</time>
      </trkpt>
      <trkpt lat="43.64003" lon="3.70658">
        <ele>139.60582</ele>
        <time>2021-03-27T09:52:10.000Z</time>
      </trkpt>
      <trkpt lat="43.64" lon="3.70709">
        <ele>140.97242</ele>
        <time>2021-03-27T09:52:26.000Z</time>
      </trkpt>
      <trkpt lat="43.63997" lon="3.70731">
        <ele>141.51628</ele>
        <time>2021-03-27T09:52:31.000Z</time>
      </trkpt>
      <trkpt lat="43.63996" lon="3.7075">
        <ele>141.91523</ele>
        <time>2021-03-27T09:52:35.000Z</time>
      </trkpt>
      <trkpt lat="43.63989" lon="3.70797">
        <ele>142.89038</ele>
        <time>2021-03-27T09:52:45.000Z</time>
      </trkpt>
      <trkpt lat="43.63991" lon="3.70835">
        <ele>143.73279</ele>
        <time>2021-03-27T09:52:53.000Z</time>
      </trkpt>
      <trkpt lat="43.63985" lon="3.70872">
        <ele>144.08683</ele>
        <time>2021-03-27T09:53:00.000Z</time>
      </trkpt>
      <trkpt lat="43.6397" lon="3.70913">
        <ele>144.21779</ele>
        <time>2021-03-27T09:53:08.000Z</time>
      </trkpt>
      <trkpt lat="43.63966" lon="3.70953">
        <ele>144.25786</ele>
        <time>2021-03-27T09:53:15.000Z</time>
      </trkpt>
      <trkpt lat="43.63943" lon="3.71003">
        <ele>144.14856</ele>
        <time>2021-03-27T09:53:24.000Z</time>
      </trkpt>
      <trkpt lat="43.63934" lon="3.71018">
        <ele>144.08591</ele>
        <time>2021-03-27T09:53:28.000Z</time>
      </trkpt>
      <trkpt lat="43.63931" lon="3.71029">
        <ele>144.01042</ele>
        <time>2021-03-27T09:53:33.000Z</time>
      </trkpt>
      <trkpt lat="43.6393" lon="3.71048">
        <ele>143.95887</ele>
        <time>2021-03-27T09:53:38.000Z</time>
      </trkpt>
      <trkpt lat="43.6392" lon="3.7109">
        <ele>143.88076</ele>
        <time>2021-03-27T09:53:46.001Z</time>
      </trkpt>
      <trkpt lat="43.63919" lon="3.71098">
        <ele>143.84885</ele>
        <time>2021-03-27T09:53:49.001Z</time>
      </trkpt>
      <trkpt lat="43.63912" lon="3.71102">
        <ele>143.81635</ele>
        <time>2021-03-27T09:54:44.001Z</time>
      </trkpt>
      <trkpt lat="43.63908" lon="3.711">
        <ele>143.80989</ele>
        <time>2021-03-27T09:54:46.001Z</time>
      </trkpt>
      <trkpt lat="43.63924" lon="3.71038">
        <ele>143.79972</ele>
        <time>2021-03-27T09:54:59.000Z</time>
      </trkpt>
      <trkpt lat="43.63944" lon="3.71008">
        <ele>143.80027</ele>
        <time>2021-03-27T09:55:06.000Z</time>
      </trkpt>
      <trkpt lat="43.63958" lon="3.70965">
        <ele>143.81889</ele>
        <time>2021-03-27T09:55:12.000Z</time>
      </trkpt>
      <trkpt lat="43.63966" lon="3.70952">
        <ele>143.83244</ele>
        <time>2021-03-27T09:55:15.000Z</time>
      </trkpt>
      <trkpt lat="43.63956" lon="3.70983">
        <ele>143.86334</ele>
        <time>2021-03-27T09:55:29.000Z</time>
      </trkpt>
      <trkpt lat="43.63947" lon="3.71009">
        <ele>143.87736</ele>
        <time>2021-03-27T09:55:34.000Z</time>
      </trkpt>
      <trkpt lat="43.63931" lon="3.71028">
        <ele>143.87774</ele>
        <time>2021-03-27T09:55:39.000Z</time>
      </trkpt>
      <trkpt lat="43.63932" lon="3.71049">
        <ele>143.87573</ele>
        <time>2021-03-27T09:55:42.000Z</time>
      </trkpt>
      <trkpt lat="43.63927" lon="3.71077">
        <ele>143.87573</ele>
        <time>2021-03-27T09:55:48.000Z</time>
      </trkpt>
      <trkpt lat="43.63918" lon="3.71093">
        <ele>143.87078</ele>
        <time>2021-03-27T09:55:54.000Z</time>
      </trkpt>
      <trkpt lat="43.63912" lon="3.71089">
        <ele>143.86899</ele>
        <time>2021-03-27T09:56:23.000Z</time>
      </trkpt>
      <trkpt lat="43.6391" lon="3.71087">
        <ele>143.86719</ele>
        <time>2021-03-27T09:56:27.000Z</time>
      </trkpt>
      <trkpt lat="43.63911" lon="3.71091">
        <ele>143.85367</ele>
        <time>2021-03-27T09:57:35.000Z</time>
      </trkpt>
      <trkpt lat="43.63913" lon="3.71092">
        <ele>143.85124</ele>
        <time>2021-03-27T09:58:14.000Z</time>
      </trkpt>
      <trkpt lat="43.63917" lon="3.71102">
        <ele>143.8418</ele>
        <time>2021-03-27T09:58:36.000Z</time>
      </trkpt>
      <trkpt lat="43.63922" lon="3.71108">
        <ele>143.831</ele>
        <time>2021-03-27T09:58:40.000Z</time>
      </trkpt>
      <trkpt lat="43.63924" lon="3.7114">
        <ele>143.69837</ele>
        <time>2021-03-27T09:58:48.000Z</time>
      </trkpt>
      <trkpt lat="43.6394" lon="3.71157">
        <ele>143.22496</ele>
        <time>2021-03-27T09:58:52.000Z</time>
      </trkpt>
      <trkpt lat="43.63962" lon="3.71164">
        <ele>141.44255</ele>
        <time>2021-03-27T09:58:58.000Z</time>
      </trkpt>
      <trkpt lat="43.63982" lon="3.7116">
        <ele>138.97286</ele>
        <time>2021-03-27T09:59:03.000Z</time>
      </trkpt>
      <trkpt lat="43.64003" lon="3.71166">
        <ele>136.38817</ele>
        <time>2021-03-27T09:59:09.000Z</time>
      </trkpt>
      <trkpt lat="43.64021" lon="3.71182">
        <ele>134.83536</ele>
        <time>2021-03-27T09:59:14.000Z</time>
      </trkpt>
      <trkpt lat="43.64026" lon="3.71182">
        <ele>134.35707</ele>
        <time>2021-03-27T09:59:16.000Z</time>
      </trkpt>
      <trkpt lat="43.64042" lon="3.71174">
        <ele>133.59502</ele>
        <time>2021-03-27T09:59:21.000Z</time>
      </trkpt>
      <trkpt lat="43.64053" lon="3.71185">
        <ele>133.02282</ele>
        <time>2021-03-27T09:59:26.000Z</time>
      </trkpt>
      <trkpt lat="43.64057" lon="3.71198">
        <ele>132.94966</ele>
        <time>2021-03-27T09:59:30.000Z</time>
      </trkpt>
      <trkpt lat="43.64045" lon="3.71211">
        <ele>133.14157</ele>
        <time>2021-03-27T09:59:37.000Z</time>
      </trkpt>
      <trkpt lat="43.64045" lon="3.7123">
        <ele>133.34615</ele>
        <time>2021-03-27T09:59:41.000Z</time>
      </trkpt>
      <trkpt lat="43.64049" lon="3.71237">
        <ele>133.47882</ele>
        <time>2021-03-27T09:59:44.000Z</time>
      </trkpt>
      <trkpt lat="43.64051" lon="3.71239">
        <ele>133.54288</ele>
        <time>2021-03-27T09:59:46.000Z</time>
      </trkpt>
      <trkpt lat="43.6405" lon="3.71251">
        <ele>133.72985</ele>
        <time>2021-03-27T09:59:53.000Z</time>
      </trkpt>
      <trkpt lat="43.64042" lon="3.71279">
        <ele>134.35357</ele>
        <time>2021-03-27T10:00:05.000Z</time>
      </trkpt>
      <trkpt lat="43.64041" lon="3.71303">
        <ele>135.76817</ele>
        <time>2021-03-27T10:00:32.000Z</time>
      </trkpt>
      <trkpt lat="43.64045" lon="3.71319">
        <ele>136.90268</ele>
        <time>2021-03-27T10:00:37.000Z</time>
      </trkpt>
      <trkpt lat="43.64066" lon="3.71355">
        <ele>140.21008</ele>
        <time>2021-03-27T10:00:51.000Z</time>
      </trkpt>
      <trkpt lat="43.64069" lon="3.71363">
        <ele>140.83552</ele>
        <time>2021-03-27T10:00:54.000Z</time>
      </trkpt>
      <trkpt lat="43.64067" lon="3.71378">
        <ele>141.90321</ele>
        <time>2021-03-27T10:00:59.000Z</time>
      </trkpt>
      <trkpt lat="43.64065" lon="3.71397">
        <ele>142.87902</ele>
        <time>2021-03-27T10:01:04.000Z</time>
      </trkpt>
      <trkpt lat="43.64066" lon="3.71453">
        <ele>145.6907</ele>
        <time>2021-03-27T10:01:17.000Z</time>
      </trkpt>
      <trkpt lat="43.64066" lon="3.7147">
        <ele>146.87372</ele>
        <time>2021-03-27T10:01:22.000Z</time>
      </trkpt>
      <trkpt lat="43.64067" lon="3.71482">
        <ele>147.83547</ele>
        <time>2021-03-27T10:01:27.000Z</time>
      </trkpt>
      <trkpt lat="43.64066" lon="3.71496">
        <ele>148.76482</ele>
        <time>2021-03-27T10:01:33.000Z</time>
      </trkpt>
      <trkpt lat="43.64067" lon="3.71512">
        <ele>149.96692</ele>
        <time>2021-03-27T10:01:42.000Z</time>
      </trkpt>
      <trkpt lat="43.64067" lon="3.7152">
        <ele>150.74985</ele>
        <time>2021-03-27T10:01:48.000Z</time>
      </trkpt>
      <trkpt lat="43.64068" lon="3.71523">
        <ele>150.99724</ele>
        <time>2021-03-27T10:01:50.000Z</time>
      </trkpt>
      <trkpt lat="43.64064" lon="3.71534">
        <ele>151.64878</ele>
        <time>2021-03-27T10:02:01.001Z</time>
      </trkpt>
      <trkpt lat="43.6407" lon="3.71556">
        <ele>152.74912</ele>
        <time>2021-03-27T10:02:08.001Z</time>
      </trkpt>
      <trkpt lat="43.64102" lon="3.71596">
        <ele>153.9371</ele>
        <time>2021-03-27T10:02:23.001Z</time>
      </trkpt>
      <trkpt lat="43.64134" lon="3.71615">
        <ele>153.90773</ele>
        <time>2021-03-27T10:02:30.001Z</time>
      </trkpt>
      <trkpt lat="43.64152" lon="3.71637">
        <ele>153.68898</ele>
        <time>2021-03-27T10:02:35.001Z</time>
      </trkpt>
      <trkpt lat="43.64188" lon="3.71677">
        <ele>152.5727</ele>
        <time>2021-03-27T10:02:43.001Z</time>
      </trkpt>
      <trkpt lat="43.64205" lon="3.71736">
        <ele>148.97781</ele>
        <time>2021-03-27T10:02:52.001Z</time>
      </trkpt>
      <trkpt lat="43.64213" lon="3.71753">
        <ele>146.8253</ele>
        <time>2021-03-27T10:02:57.001Z</time>
      </trkpt>
      <trkpt lat="43.64216" lon="3.71756">
        <ele>146.25549</ele>
        <time>2021-03-27T10:02:58.001Z</time>
      </trkpt>
      <trkpt lat="43.6422" lon="3.71758">
        <ele>145.68406</ele>
        <time>2021-03-27T10:03:00.001Z</time>
      </trkpt>
      <trkpt lat="43.64238" lon="3.71752">
        <ele>143.1761</ele>
        <time>2021-03-27T10:03:07.001Z</time>
      </trkpt>
      <trkpt lat="43.64252" lon="3.71745">
        <ele>141.45691</ele>
        <time>2021-03-27T10:03:12.001Z</time>
      </trkpt>
      <trkpt lat="43.64256" lon="3.71769">
        <ele>139.84888</ele>
        <time>2021-03-27T10:03:17.001Z</time>
      </trkpt>
      <trkpt lat="43.64246" lon="3.71806">
        <ele>138.79866</ele>
        <time>2021-03-27T10:03:22.001Z</time>
      </trkpt>
      <trkpt lat="43.64242" lon="3.71833">
        <ele>138.17904</ele>
        <time>2021-03-27T10:03:26.001Z</time>
      </trkpt>
      <trkpt lat="43.64223" lon="3.71891">
        <ele>136.95591</ele>
        <time>2021-03-27T10:03:33.001Z</time>
      </trkpt>
      <trkpt lat="43.64192" lon="3.7193">
        <ele>135.95512</ele>
        <time>2021-03-27T10:03:40.001Z</time>
      </trkpt>
      <trkpt lat="43.64165" lon="3.71955">
        <ele>135.14965</ele>
        <time>2021-03-27T10:03:47.001Z</time>
      </trkpt>
      <trkpt lat="43.64114" lon="3.72012">
        <ele>134.40381</ele>
        <time>2021-03-27T10:03:59.001Z</time>
      </trkpt>
      <trkpt lat="43.64077" lon="3.72046">
        <ele>134.09784</ele>
        <time>2021-03-27T10:04:08.001Z</time>
      </trkpt>
      <trkpt lat="43.64052" lon="3.72076">
        <ele>134.03477</ele>
        <time>2021-03-27T10:04:12.001Z</time>
      </trkpt>
      <trkpt lat="43.64032" lon="3.7209">
        <ele>134.00198</ele>
        <time>2021-03-27T10:04:16.001Z</time>
      </trkpt>
      <trkpt lat="43.64007" lon="3.72105">
        <ele>133.99057</ele>
        <time>2021-03-27T10:04:22.001Z</time>
      </trkpt>
      <trkpt lat="43.63991" lon="3.72111">
        <ele>134.02189</ele>
        <time>2021-03-27T10:04:27.001Z</time>
      </trkpt>
      <trkpt lat="43.63981" lon="3.7212">
        <ele>134.08724</ele>
        <time>2021-03-27T10:04:31.001Z</time>
      </trkpt>
      <trkpt lat="43.63968" lon="3.72124">
        <ele>134.28536</ele>
        <time>2021-03-27T10:04:37.001Z</time>
      </trkpt>
      <trkpt lat="43.63964" lon="3.72128">
        <ele>134.41934</ele>
        <time>2021-03-27T10:04:40.001Z</time>
      </trkpt>
      <trkpt lat="43.63961" lon="3.72133">
        <ele>134.60356</ele>
        <time>2021-03-27T10:04:45.001Z</time>
      </trkpt>
      <trkpt lat="43.63958" lon="3.7214">
        <ele>134.83214</ele>
        <time>2021-03-27T10:04:49.001Z</time>
      </trkpt>
      <trkpt lat="43.63958" lon="3.72154">
        <ele>135.26203</ele>
        <time>2021-03-27T10:04:55.001Z</time>
      </trkpt>
      <trkpt lat="43.63956" lon="3.7216">
        <ele>135.62312</ele>
        <time>2021-03-27T10:04:59.001Z</time>
      </trkpt>
      <trkpt lat="43.63957" lon="3.72168">
        <ele>136.12314</ele>
        <time>2021-03-27T10:05:08.001Z</time>
      </trkpt>
      <trkpt lat="43.63954" lon="3.722">
        <ele>138.30367</ele>
        <time>2021-03-27T10:05:18.001Z</time>
      </trkpt>
      <trkpt lat="43.63954" lon="3.72215">
        <ele>139.45788</ele>
        <time>2021-03-27T10:05:22.001Z</time>
      </trkpt>
      <trkpt lat="43.63958" lon="3.72231">
        <ele>140.44906</ele>
        <time>2021-03-27T10:05:27.001Z</time>
      </trkpt>
      <trkpt lat="43.63957" lon="3.7225">
        <ele>141.43231</ele>
        <time>2021-03-27T10:05:32.001Z</time>
      </trkpt>
      <trkpt lat="43.63953" lon="3.72264">
        <ele>142.17468</ele>
        <time>2021-03-27T10:05:36.001Z</time>
      </trkpt>
      <trkpt lat="43.63947" lon="3.72274">
        <ele>142.68525</ele>
        <time>2021-03-27T10:05:40.001Z</time>
      </trkpt>
      <trkpt lat="43.63937" lon="3.72283">
        <ele>143.52678</ele>
        <time>2021-03-27T10:05:45.001Z</time>
      </trkpt>
      <trkpt lat="43.63931" lon="3.72297">
        <ele>144.18194</ele>
        <time>2021-03-27T10:05:49.001Z</time>
      </trkpt>
      <trkpt lat="43.63922" lon="3.72305">
        <ele>144.67128</ele>
        <time>2021-03-27T10:05:54.001Z</time>
      </trkpt>
      <trkpt lat="43.63911" lon="3.72325">
        <ele>145.55785</ele>
        <time>2021-03-27T10:06:02.001Z</time>
      </trkpt>
      <trkpt lat="43.63909" lon="3.7233">
        <ele>145.90459</ele>
        <time>2021-03-27T10:06:05.001Z</time>
      </trkpt>
      <trkpt lat="43.63902" lon="3.72336">
        <ele>146.44411</ele>
        <time>2021-03-27T10:06:12.001Z</time>
      </trkpt>
      <trkpt lat="43.63895" lon="3.72348">
        <ele>147.00388</ele>
        <time>2021-03-27T10:06:17.001Z</time>
      </trkpt>
      <trkpt lat="43.63887" lon="3.72356">
        <ele>147.56793</ele>
        <time>2021-03-27T10:06:23.001Z</time>
      </trkpt>
      <trkpt lat="43.6388" lon="3.72373">
        <ele>148.36193</ele>
        <time>2021-03-27T10:06:31.001Z</time>
      </trkpt>
      <trkpt lat="43.63865" lon="3.72394">
        <ele>149.80122</ele>
        <time>2021-03-27T10:06:41.001Z</time>
      </trkpt>
      <trkpt lat="43.63859" lon="3.72409">
        <ele>150.50334</ele>
        <time>2021-03-27T10:06:47.001Z</time>
      </trkpt>
      <trkpt lat="43.63853" lon="3.72415">
        <ele>150.99799</ele>
        <time>2021-03-27T10:06:50.001Z</time>
      </trkpt>
      <trkpt lat="43.63836" lon="3.7244">
        <ele>152.17932</ele>
        <time>2021-03-27T10:07:00.001Z</time>
      </trkpt>
      <trkpt lat="43.63826" lon="3.72456">
        <ele>152.59977</ele>
        <time>2021-03-27T10:07:08.001Z</time>
      </trkpt>
      <trkpt lat="43.63821" lon="3.7247">
        <ele>152.86187</ele>
        <time>2021-03-27T10:07:12.001Z</time>
      </trkpt>
      <trkpt lat="43.63808" lon="3.7249">
        <ele>153.14395</ele>
        <time>2021-03-27T10:07:18.001Z</time>
      </trkpt>
      <trkpt lat="43.63785" lon="3.72531">
        <ele>153.51693</ele>
        <time>2021-03-27T10:07:29.001Z</time>
      </trkpt>
      <trkpt lat="43.63775" lon="3.7256">
        <ele>153.81659</ele>
        <time>2021-03-27T10:07:38.001Z</time>
      </trkpt>
      <trkpt lat="43.63767" lon="3.72578">
        <ele>154.05441</ele>
        <time>2021-03-27T10:07:43.001Z</time>
      </trkpt>
      <trkpt lat="43.63758" lon="3.72604">
        <ele>154.5077</ele>
        <time>2021-03-27T10:07:50.001Z</time>
      </trkpt>
      <trkpt lat="43.6374" lon="3.72632">
        <ele>155.47333</ele>
        <time>2021-03-27T10:08:00.001Z</time>
      </trkpt>
      <trkpt lat="43.63736" lon="3.72645">
        <ele>156.07903</ele>
        <time>2021-03-27T10:08:04.001Z</time>
      </trkpt>
      <trkpt lat="43.63728" lon="3.72656">
        <ele>156.67447</ele>
        <time>2021-03-27T10:08:10.001Z</time>
      </trkpt>
      <trkpt lat="43.63701" lon="3.72707">
        <ele>160.4873</ele>
        <time>2021-03-27T10:08:26.001Z</time>
      </trkpt>
      <trkpt lat="43.63692" lon="3.72724">
        <ele>161.34742</ele>
        <time>2021-03-27T10:08:30.001Z</time>
      </trkpt>
      <trkpt lat="43.63685" lon="3.72735">
        <ele>162.17171</ele>
        <time>2021-03-27T10:08:34.001Z</time>
      </trkpt>
      <trkpt lat="43.6368" lon="3.72749">
        <ele>162.95397</ele>
        <time>2021-03-27T10:08:38.001Z</time>
      </trkpt>
      <trkpt lat="43.63669" lon="3.72765">
        <ele>163.84613</ele>
        <time>2021-03-27T10:08:44.001Z</time>
      </trkpt>
      <trkpt lat="43.63663" lon="3.72789">
        <ele>164.61254</ele>
        <time>2021-03-27T10:08:50.001Z</time>
      </trkpt>
      <trkpt lat="43.63661" lon="3.72866">
        <ele>165.59973</ele>
        <time>2021-03-27T10:09:05.000Z</time>
      </trkpt>
      <trkpt lat="43.63654" lon="3.72934">
        <ele>166.1201</ele>
        <time>2021-03-27T10:09:18.000Z</time>
      </trkpt>
      <trkpt lat="43.63651" lon="3.72957">
        <ele>166.30373</ele>
        <time>2021-03-27T10:09:23.000Z</time>
      </trkpt>
      <trkpt lat="43.63652" lon="3.72984">
        <ele>166.46064</ele>
        <time>2021-03-27T10:09:28.000Z</time>
      </trkpt>
      <trkpt lat="43.6365" lon="3.73002">
        <ele>166.62268</ele>
        <time>2021-03-27T10:09:33.000Z</time>
      </trkpt>
      <trkpt lat="43.63651" lon="3.73028">
        <ele>166.81441</ele>
        <time>2021-03-27T10:09:39.000Z</time>
      </trkpt>
      <trkpt lat="43.63644" lon="3.73085">
        <ele>166.99055</ele>
        <time>2021-03-27T10:09:50.000Z</time>
      </trkpt>
      <trkpt lat="43.63639" lon="3.73111">
        <ele>167.08737</ele>
        <time>2021-03-27T10:09:56.000Z</time>
      </trkpt>
      <trkpt lat="43.63633" lon="3.73155">
        <ele>167.4915</ele>
        <time>2021-03-27T10:10:07.000Z</time>
      </trkpt>
      <trkpt lat="43.63638" lon="3.73187">
        <ele>167.76026</ele>
        <time>2021-03-27T10:10:13.000Z</time>
      </trkpt>
      <trkpt lat="43.63632" lon="3.73249">
        <ele>167.81581</ele>
        <time>2021-03-27T10:10:21.000Z</time>
      </trkpt>
      <trkpt lat="43.63629" lon="3.7329">
        <ele>167.96746</ele>
        <time>2021-03-27T10:10:28.000Z</time>
      </trkpt>
      <trkpt lat="43.63638" lon="3.73347">
        <ele>168.05988</ele>
        <time>2021-03-27T10:10:36.000Z</time>
      </trkpt>
      <trkpt lat="43.63651" lon="3.73381">
        <ele>168.07268</ele>
        <time>2021-03-27T10:10:41.000Z</time>
      </trkpt>
      <trkpt lat="43.63651" lon="3.73408">
        <ele>168.17276</ele>
        <time>2021-03-27T10:10:47.000Z</time>
      </trkpt>
      <trkpt lat="43.63646" lon="3.73439">
        <ele>168.27192</ele>
        <time>2021-03-27T10:10:53.000Z</time>
      </trkpt>
      <trkpt lat="43.63651" lon="3.73461">
        <ele>168.3192</ele>
        <time>2021-03-27T10:10:57.000Z</time>
      </trkpt>
      <trkpt lat="43.63655" lon="3.73484">
        <ele>168.47505</ele>
        <time>2021-03-27T10:11:02.000Z</time>
      </trkpt>
      <trkpt lat="43.63654" lon="3.73514">
        <ele>168.75723</ele>
        <time>2021-03-27T10:11:07.000Z</time>
      </trkpt>
      <trkpt lat="43.63664" lon="3.73548">
        <ele>169.05991</ele>
        <time>2021-03-27T10:11:12.000Z</time>
      </trkpt>
      <trkpt lat="43.63664" lon="3.73576">
        <ele>169.17782</ele>
        <time>2021-03-27T10:11:16.000Z</time>
      </trkpt>
      <trkpt lat="43.63674" lon="3.73603">
        <ele>169.25285</ele>
        <time>2021-03-27T10:11:20.000Z</time>
      </trkpt>
      <trkpt lat="43.63687" lon="3.73625">
        <ele>169.35699</ele>
        <time>2021-03-27T10:11:24.000Z</time>
      </trkpt>
      <trkpt lat="43.63692" lon="3.73672">
        <ele>169.66535</ele>
        <time>2021-03-27T10:11:31.000Z</time>
      </trkpt>
      <trkpt lat="43.6369" lon="3.73694">
        <ele>169.73439</ele>
        <time>2021-03-27T10:11:36.000Z</time>
      </trkpt>
      <trkpt lat="43.63698" lon="3.7372">
        <ele>169.68459</ele>
        <time>2021-03-27T10:11:40.000Z</time>
      </trkpt>
      <trkpt lat="43.63702" lon="3.7374">
        <ele>169.47638</ele>
        <time>2021-03-27T10:11:44.000Z</time>
      </trkpt>
      <trkpt lat="43.63701" lon="3.7378">
        <ele>169.08361</ele>
        <time>2021-03-27T10:11:51.000Z</time>
      </trkpt>
      <trkpt lat="43.63699" lon="3.73814">
        <ele>168.69654</ele>
        <time>2021-03-27T10:11:56.000Z</time>
      </trkpt>
      <trkpt lat="43.63701" lon="3.73842">
        <ele>168.22747</ele>
        <time>2021-03-27T10:12:01.000Z</time>
      </trkpt>
      <trkpt lat="43.63709" lon="3.73881">
        <ele>167.11277</ele>
        <time>2021-03-27T10:12:08.000Z</time>
      </trkpt>
      <trkpt lat="43.63705" lon="3.73909">
        <ele>166.49279</ele>
        <time>2021-03-27T10:12:13.000Z</time>
      </trkpt>
      <trkpt lat="43.63714" lon="3.7395">
        <ele>166.06427</ele>
        <time>2021-03-27T10:12:20.000Z</time>
      </trkpt>
      <trkpt lat="43.63712" lon="3.73993">
        <ele>165.63683</ele>
        <time>2021-03-27T10:12:26.000Z</time>
      </trkpt>
      <trkpt lat="43.63716" lon="3.74016">
        <ele>165.37224</ele>
        <time>2021-03-27T10:12:30.000Z</time>
      </trkpt>
      <trkpt lat="43.63712" lon="3.7404">
        <ele>165.17962</ele>
        <time>2021-03-27T10:12:34.000Z</time>
      </trkpt>
      <trkpt lat="43.63717" lon="3.74059">
        <ele>164.85592</ele>
        <time>2021-03-27T10:12:38.000Z</time>
      </trkpt>
      <trkpt lat="43.63712" lon="3.74091">
        <ele>163.52553</ele>
        <time>2021-03-27T10:12:43.000Z</time>
      </trkpt>
      <trkpt lat="43.63721" lon="3.74113">
        <ele>162.32986</ele>
        <time>2021-03-27T10:12:47.000Z</time>
      </trkpt>
      <trkpt lat="43.6372" lon="3.74133">
        <ele>161.94185</ele>
        <time>2021-03-27T10:12:50.000Z</time>
      </trkpt>
      <trkpt lat="43.63718" lon="3.74152">
        <ele>161.90739</ele>
        <time>2021-03-27T10:12:55.000Z</time>
      </trkpt>
      <trkpt lat="43.63718" lon="3.74174">
        <ele>162.33898</ele>
        <time>2021-03-27T10:13:00.000Z</time>
      </trkpt>
      <trkpt lat="43.63717" lon="3.742">
        <ele>162.58382</ele>
        <time>2021-03-27T10:13:05.000Z</time>
      </trkpt>
      <trkpt lat="43.63729" lon="3.7422">
        <ele>162.56512</ele>
        <time>2021-03-27T10:13:10.000Z</time>
      </trkpt>
      <trkpt lat="43.63729" lon="3.74232">
        <ele>162.5951</ele>
        <time>2021-03-27T10:13:13.000Z</time>
      </trkpt>
      <trkpt lat="43.63729" lon="3.74249">
        <ele>162.78209</ele>
        <time>2021-03-27T10:13:18.000Z</time>
      </trkpt>
      <trkpt lat="43.63733" lon="3.74263">
        <ele>163.00644</ele>
        <time>2021-03-27T10:13:23.000Z</time>
      </trkpt>
      <trkpt lat="43.63739" lon="3.74273">
        <ele>163.27742</ele>
        <time>2021-03-27T10:13:27.000Z</time>
      </trkpt>
      <trkpt lat="43.63746" lon="3.74297">
        <ele>163.34823</ele>
        <time>2021-03-27T10:13:32.000Z</time>
      </trkpt>
      <trkpt lat="43.63749" lon="3.7434">
        <ele>163.14327</ele>
        <time>2021-03-27T10:13:39.000Z</time>
      </trkpt>
      <trkpt lat="43.63749" lon="3.7436">
        <ele>163.15688</ele>
        <time>2021-03-27T10:13:43.000Z</time>
      </trkpt>
      <trkpt lat="43.63755" lon="3.74374">
        <ele>163.2434</ele>
        <time>2021-03-27T10:13:47.000Z</time>
      </trkpt>
      <trkpt lat="43.63759" lon="3.74389">
        <ele>163.33947</ele>
        <time>2021-03-27T10:13:52.000Z</time>
      </trkpt>
      <trkpt lat="43.63761" lon="3.74393">
        <ele>163.35722</ele>
        <time>2021-03-27T10:13:54.000Z</time>
      </trkpt>
      <trkpt lat="43.63765" lon="3.74391">
        <ele>163.36903</ele>
        <time>2021-03-27T10:14:04.000Z</time>
      </trkpt>
      <trkpt lat="43.63781" lon="3.74395">
        <ele>163.24715</ele>
        <time>2021-03-27T10:18:32.000Z</time>
      </trkpt>
      <trkpt lat="43.63807" lon="3.74395">
        <ele>162.67597</ele>
        <time>2021-03-27T10:18:38.000Z</time>
      </trkpt>
      <trkpt lat="43.63833" lon="3.74392">
        <ele>162.08473</ele>
        <time>2021-03-27T10:18:42.000Z</time>
      </trkpt>
      <trkpt lat="43.63868" lon="3.74381">
        <ele>160.42593</ele>
        <time>2021-03-27T10:18:49.000Z</time>
      </trkpt>
      <trkpt lat="43.63892" lon="3.74366">
        <ele>158.57007</ele>
        <time>2021-03-27T10:18:55.000Z</time>
      </trkpt>
      <trkpt lat="43.63909" lon="3.7438">
        <ele>157.09529</ele>
        <time>2021-03-27T10:19:00.000Z</time>
      </trkpt>
      <trkpt lat="43.63911" lon="3.74409">
        <ele>155.8895</ele>
        <time>2021-03-27T10:19:05.000Z</time>
      </trkpt>
      <trkpt lat="43.63907" lon="3.74444">
        <ele>155.13425</ele>
        <time>2021-03-27T10:19:10.000Z</time>
      </trkpt>
      <trkpt lat="43.63911" lon="3.7448">
        <ele>154.57045</ele>
        <time>2021-03-27T10:19:15.000Z</time>
      </trkpt>
      <trkpt lat="43.63924" lon="3.7456">
        <ele>153.67959</ele>
        <time>2021-03-27T10:19:25.000Z</time>
      </trkpt>
      <trkpt lat="43.63932" lon="3.74605">
        <ele>153.30069</ele>
        <time>2021-03-27T10:19:31.000Z</time>
      </trkpt>
      <trkpt lat="43.63941" lon="3.74635">
        <ele>153.1417</ele>
        <time>2021-03-27T10:19:35.000Z</time>
      </trkpt>
      <trkpt lat="43.63949" lon="3.74714">
        <ele>152.80643</ele>
        <time>2021-03-27T10:19:46.000Z</time>
      </trkpt>
      <trkpt lat="43.63953" lon="3.74742">
        <ele>152.70042</ele>
        <time>2021-03-27T10:19:51.000Z</time>
      </trkpt>
      <trkpt lat="43.63961" lon="3.74768">
        <ele>152.61934</ele>
        <time>2021-03-27T10:19:56.000Z</time>
      </trkpt>
      <trkpt lat="43.63963" lon="3.74807">
        <ele>152.55889</ele>
        <time>2021-03-27T10:20:03.000Z</time>
      </trkpt>
      <trkpt lat="43.63962" lon="3.74821">
        <ele>152.55333</ele>
        <time>2021-03-27T10:20:07.000Z</time>
      </trkpt>
      <trkpt lat="43.63972" lon="3.7484">
        <ele>152.563</ele>
        <time>2021-03-27T10:20:14.000Z</time>
      </trkpt>
      <trkpt lat="43.63973" lon="3.74899">
        <ele>152.58744</ele>
        <time>2021-03-27T10:20:25.000Z</time>
      </trkpt>
      <trkpt lat="43.64001" lon="3.74935">
        <ele>152.60104</ele>
        <time>2021-03-27T10:20:34.000Z</time>
      </trkpt>
      <trkpt lat="43.64013" lon="3.74965">
        <ele>152.59109</ele>
        <time>2021-03-27T10:20:40.000Z</time>
      </trkpt>
      <trkpt lat="43.64026" lon="3.74984">
        <ele>152.58653</ele>
        <time>2021-03-27T10:20:45.000Z</time>
      </trkpt>
      <trkpt lat="43.64045" lon="3.74998">
        <ele>152.5686</ele>
        <time>2021-03-27T10:20:51.000Z</time>
      </trkpt>
      <trkpt lat="43.64063" lon="3.75017">
        <ele>152.49733</ele>
        <time>2021-03-27T10:20:55.000Z</time>
      </trkpt>
      <trkpt lat="43.64082" lon="3.75054">
        <ele>151.96198</ele>
        <time>2021-03-27T10:21:00.000Z</time>
      </trkpt>
      <trkpt lat="43.64097" lon="3.75087">
        <ele>150.57894</ele>
        <time>2021-03-27T10:21:05.000Z</time>
      </trkpt>
      <trkpt lat="43.64117" lon="3.75114">
        <ele>149.19801</ele>
        <time>2021-03-27T10:21:09.000Z</time>
      </trkpt>
      <trkpt lat="43.64165" lon="3.75225">
        <ele>146.34399</ele>
        <time>2021-03-27T10:21:24.000Z</time>
      </trkpt>
      <trkpt lat="43.64217" lon="3.75311">
        <ele>144.2442</ele>
        <time>2021-03-27T10:21:37.000Z</time>
      </trkpt>
      <trkpt lat="43.64224" lon="3.75341">
        <ele>143.659</ele>
        <time>2021-03-27T10:21:41.000Z</time>
      </trkpt>
      <trkpt lat="43.64238" lon="3.75369">
        <ele>143.13138</ele>
        <time>2021-03-27T10:21:44.000Z</time>
      </trkpt>
      <trkpt lat="43.64248" lon="3.75399">
        <ele>142.41894</ele>
        <time>2021-03-27T10:21:48.000Z</time>
      </trkpt>
      <trkpt lat="43.64256" lon="3.75447">
        <ele>141.38098</ele>
        <time>2021-03-27T10:21:54.000Z</time>
      </trkpt>
      <trkpt lat="43.64259" lon="3.75473">
        <ele>140.76334</ele>
        <time>2021-03-27T10:21:58.000Z</time>
      </trkpt>
      <trkpt lat="43.64271" lon="3.75488">
        <ele>140.37484</ele>
        <time>2021-03-27T10:22:01.000Z</time>
      </trkpt>
      <trkpt lat="43.64279" lon="3.75494">
        <ele>140.10806</ele>
        <time>2021-03-27T10:22:03.000Z</time>
      </trkpt>
      <trkpt lat="43.64282" lon="3.75493">
        <ele>139.74352</ele>
        <time>2021-03-27T10:22:46.000Z</time>
      </trkpt>
      <trkpt lat="43.64307" lon="3.75519">
        <ele>138.90675</ele>
        <time>2021-03-27T10:23:37.000Z</time>
      </trkpt>
      <trkpt lat="43.64326" lon="3.75534">
        <ele>138.81205</ele>
        <time>2021-03-27T10:23:42.000Z</time>
      </trkpt>
      <trkpt lat="43.64357" lon="3.75555">
        <ele>138.85786</ele>
        <time>2021-03-27T10:23:51.000Z</time>
      </trkpt>
      <trkpt lat="43.64374" lon="3.75552">
        <ele>138.96632</ele>
        <time>2021-03-27T10:23:56.000Z</time>
      </trkpt>
      <trkpt lat="43.64428" lon="3.7558">
        <ele>139.63732</ele>
        <time>2021-03-27T10:24:12.000Z</time>
      </trkpt>
      <trkpt lat="43.64447" lon="3.75594">
        <ele>139.91783</ele>
        <time>2021-03-27T10:24:17.000Z</time>
      </trkpt>
      <trkpt lat="43.64466" lon="3.75609">
        <ele>140.10515</ele>
        <time>2021-03-27T10:24:22.000Z</time>
      </trkpt>
      <trkpt lat="43.64493" lon="3.75642">
        <ele>140.27165</ele>
        <time>2021-03-27T10:24:30.000Z</time>
      </trkpt>
      <trkpt lat="43.64534" lon="3.75674">
        <ele>140.41057</ele>
        <time>2021-03-27T10:24:42.000Z</time>
      </trkpt>
      <trkpt lat="43.6455" lon="3.7569">
        <ele>140.49602</ele>
        <time>2021-03-27T10:24:48.000Z</time>
      </trkpt>
      <trkpt lat="43.64561" lon="3.75711">
        <ele>140.58499</ele>
        <time>2021-03-27T10:24:53.000Z</time>
      </trkpt>
      <trkpt lat="43.64587" lon="3.75782">
        <ele>141.48098</ele>
        <time>2021-03-27T10:25:09.000Z</time>
      </trkpt>
      <trkpt lat="43.64615" lon="3.75843">
        <ele>142.53243</ele>
        <time>2021-03-27T10:25:22.000Z</time>
      </trkpt>
      <trkpt lat="43.64642" lon="3.75863">
        <ele>142.85736</ele>
        <time>2021-03-27T10:25:28.000Z</time>
      </trkpt>
      <trkpt lat="43.64679" lon="3.75881">
        <ele>143.0971</ele>
        <time>2021-03-27T10:25:35.000Z</time>
      </trkpt>
      <trkpt lat="43.6472" lon="3.75914">
        <ele>143.27329</ele>
        <time>2021-03-27T10:25:44.000Z</time>
      </trkpt>
      <trkpt lat="43.64761" lon="3.75964">
        <ele>143.28999</ele>
        <time>2021-03-27T10:25:55.000Z</time>
      </trkpt>
      <trkpt lat="43.64778" lon="3.76005">
        <ele>143.26355</ele>
        <time>2021-03-27T10:26:02.000Z</time>
      </trkpt>
      <trkpt lat="43.64784" lon="3.76029">
        <ele>143.24392</ele>
        <time>2021-03-27T10:26:06.000Z</time>
      </trkpt>
      <trkpt lat="43.64796" lon="3.76063">
        <ele>143.22775</ele>
        <time>2021-03-27T10:26:12.000Z</time>
      </trkpt>
      <trkpt lat="43.64803" lon="3.76091">
        <ele>143.22501</ele>
        <time>2021-03-27T10:26:17.000Z</time>
      </trkpt>
      <trkpt lat="43.64812" lon="3.76117">
        <ele>143.22046</ele>
        <time>2021-03-27T10:26:21.000Z</time>
      </trkpt>
      <trkpt lat="43.64821" lon="3.76153">
        <ele>143.21435</ele>
        <time>2021-03-27T10:26:26.000Z</time>
      </trkpt>
      <trkpt lat="43.64831" lon="3.76197">
        <ele>143.20699</ele>
        <time>2021-03-27T10:26:32.000Z</time>
      </trkpt>
      <trkpt lat="43.64832" lon="3.76232">
        <ele>143.20229</ele>
        <time>2021-03-27T10:26:37.000Z</time>
      </trkpt>
      <trkpt lat="43.64842" lon="3.76267">
        <ele>143.20333</ele>
        <time>2021-03-27T10:26:41.000Z</time>
      </trkpt>
      <trkpt lat="43.64845" lon="3.76303">
        <ele>143.22033</ele>
        <time>2021-03-27T10:26:47.000Z</time>
      </trkpt>
      <trkpt lat="43.64851" lon="3.76328">
        <ele>143.25981</ele>
        <time>2021-03-27T10:26:51.000Z</time>
      </trkpt>
      <trkpt lat="43.6486" lon="3.76352">
        <ele>143.41445</ele>
        <time>2021-03-27T10:26:56.000Z</time>
      </trkpt>
      <trkpt lat="43.64863" lon="3.7638">
        <ele>143.71702</ele>
        <time>2021-03-27T10:27:01.000Z</time>
      </trkpt>
      <trkpt lat="43.6486" lon="3.7646">
        <ele>145.97127</ele>
        <time>2021-03-27T10:27:15.000Z</time>
      </trkpt>
      <trkpt lat="43.6485" lon="3.76536">
        <ele>147.7068</ele>
        <time>2021-03-27T10:27:26.000Z</time>
      </trkpt>
      <trkpt lat="43.64843" lon="3.76568">
        <ele>148.19531</ele>
        <time>2021-03-27T10:27:31.000Z</time>
      </trkpt>
      <trkpt lat="43.64834" lon="3.76618">
        <ele>148.74958</ele>
        <time>2021-03-27T10:27:38.000Z</time>
      </trkpt>
      <trkpt lat="43.64831" lon="3.76659">
        <ele>148.98605</ele>
        <time>2021-03-27T10:27:44.000Z</time>
      </trkpt>
      <trkpt lat="43.64828" lon="3.76695">
        <ele>149.05435</ele>
        <time>2021-03-27T10:27:49.000Z</time>
      </trkpt>
      <trkpt lat="43.64822" lon="3.76742">
        <ele>149.05661</ele>
        <time>2021-03-27T10:27:55.000Z</time>
      </trkpt>
      <trkpt lat="43.64843" lon="3.76767">
        <ele>148.97693</ele>
        <time>2021-03-27T10:28:00.000Z</time>
      </trkpt>
      <trkpt lat="43.6487" lon="3.76788">
        <ele>148.80808</ele>
        <time>2021-03-27T10:28:06.000Z</time>
      </trkpt>
      <trkpt lat="43.64872" lon="3.76796">
        <ele>148.74452</ele>
        <time>2021-03-27T10:28:09.000Z</time>
      </trkpt>
      <trkpt lat="43.64878" lon="3.76799">
        <ele>148.6949</ele>
        <time>2021-03-27T10:28:11.000Z</time>
      </trkpt>
      <trkpt lat="43.64881" lon="3.768">
        <ele>148.67789</ele>
        <time>2021-03-27T10:28:13.000Z</time>
      </trkpt>
      <trkpt lat="43.64883" lon="3.76802">
        <ele>148.66656</ele>
        <time>2021-03-27T10:28:16.000Z</time>
      </trkpt>
      <trkpt lat="43.64889" lon="3.76828">
        <ele>148.71056</ele>
        <time>2021-03-27T10:28:46.000Z</time>
      </trkpt>
      <trkpt lat="43.64887" lon="3.76847">
        <ele>148.75804</ele>
        <time>2021-03-27T10:28:50.000Z</time>
      </trkpt>
      <trkpt lat="43.6488" lon="3.76869">
        <ele>148.81356</ele>
        <time>2021-03-27T10:28:54.000Z</time>
      </trkpt>
      <trkpt lat="43.64879" lon="3.76925">
        <ele>149.07298</ele>
        <time>2021-03-27T10:29:05.000Z</time>
      </trkpt>
      <trkpt lat="43.64877" lon="3.76957">
        <ele>149.36884</ele>
        <time>2021-03-27T10:29:11.000Z</time>
      </trkpt>
      <trkpt lat="43.64878" lon="3.76981">
        <ele>149.62765</ele>
        <time>2021-03-27T10:29:15.000Z</time>
      </trkpt>
      <trkpt lat="43.64874" lon="3.77015">
        <ele>150.04998</ele>
        <time>2021-03-27T10:29:20.000Z</time>
      </trkpt>
      <trkpt lat="43.64872" lon="3.77045">
        <ele>150.51751</ele>
        <time>2021-03-27T10:29:26.000Z</time>
      </trkpt>
      <trkpt lat="43.64893" lon="3.7705">
        <ele>151.02435</ele>
        <time>2021-03-27T10:29:33.000Z</time>
      </trkpt>
      <trkpt lat="43.64898" lon="3.77076">
        <ele>151.2495</ele>
        <time>2021-03-27T10:29:39.000Z</time>
      </trkpt>
      <trkpt lat="43.64892" lon="3.77115">
        <ele>151.37351</ele>
        <time>2021-03-27T10:29:44.000Z</time>
      </trkpt>
      <trkpt lat="43.64891" lon="3.77128">
        <ele>151.38704</ele>
        <time>2021-03-27T10:29:47.000Z</time>
      </trkpt>
      <trkpt lat="43.64893" lon="3.77133">
        <ele>151.3682</ele>
        <time>2021-03-27T10:29:53.000Z</time>
      </trkpt>
      <trkpt lat="43.64903" lon="3.77134">
        <ele>151.30607</ele>
        <time>2021-03-27T10:30:04.000Z</time>
      </trkpt>
      <trkpt lat="43.64914" lon="3.77141">
        <ele>151.12728</ele>
        <time>2021-03-27T10:30:10.000Z</time>
      </trkpt>
      <trkpt lat="43.64928" lon="3.77148">
        <ele>150.46468</ele>
        <time>2021-03-27T10:30:15.000Z</time>
      </trkpt>
      <trkpt lat="43.64946" lon="3.77131">
        <ele>149.75743</ele>
        <time>2021-03-27T10:30:17.000Z</time>
      </trkpt>
      <trkpt lat="43.64956" lon="3.77117">
        <ele>146.75195</ele>
        <time>2021-03-27T10:30:21.000Z</time>
      </trkpt>
      <trkpt lat="43.64972" lon="3.77101">
        <ele>142.63115</ele>
        <time>2021-03-27T10:30:26.000Z</time>
      </trkpt>
      <trkpt lat="43.64988" lon="3.77088">
        <ele>139.61947</ele>
        <time>2021-03-27T10:30:30.000Z</time>
      </trkpt>
      <trkpt lat="43.65006" lon="3.77069">
        <ele>135.47131</ele>
        <time>2021-03-27T10:30:36.000Z</time>
      </trkpt>
      <trkpt lat="43.65011" lon="3.77086">
        <ele>130.09102</ele>
        <time>2021-03-27T10:31:33.000Z</time>
      </trkpt>
      <trkpt lat="43.65015" lon="3.77154">
        <ele>122.81194</ele>
        <time>2021-03-27T10:31:45.000Z</time>
      </trkpt>
      <trkpt lat="43.65024" lon="3.77181">
        <ele>119.47854</ele>
        <time>2021-03-27T10:31:50.000Z</time>
      </trkpt>
      <trkpt lat="43.65037" lon="3.77204">
        <ele>116.68013</ele>
        <time>2021-03-27T10:31:55.000Z</time>
      </trkpt>
      <trkpt lat="43.65042" lon="3.77224">
        <ele>114.68583</ele>
        <time>2021-03-27T10:31:59.000Z</time>
      </trkpt>
      <trkpt lat="43.65035" lon="3.77249">
        <ele>113.58169</ele>
        <time>2021-03-27T10:32:03.000Z</time>
      </trkpt>
      <trkpt lat="43.65043" lon="3.77277">
        <ele>112.60601</ele>
        <time>2021-03-27T10:32:09.000Z</time>
      </trkpt>
      <trkpt lat="43.65043" lon="3.77293">
        <ele>111.91602</ele>
        <time>2021-03-27T10:32:15.000Z</time>
      </trkpt>
      <trkpt lat="43.65046" lon="3.77309">
        <ele>110.1813</ele>
        <time>2021-03-27T10:32:19.000Z</time>
      </trkpt>
      <trkpt lat="43.65052" lon="3.77321">
        <ele>108.9456</ele>
        <time>2021-03-27T10:32:21.000Z</time>
      </trkpt>
      <trkpt lat="43.65059" lon="3.77334">
        <ele>107.72129</ele>
        <time>2021-03-27T10:32:25.000Z</time>
      </trkpt>
      <trkpt lat="43.6507" lon="3.77345">
        <ele>106.61054</ele>
        <time>2021-03-27T10:32:28.000Z</time>
      </trkpt>
      <trkpt lat="43.65075" lon="3.77361">
        <ele>104.95512</ele>
        <time>2021-03-27T10:32:32.000Z</time>
      </trkpt>
      <trkpt lat="43.65063" lon="3.77425">
        <ele>100.67832</ele>
        <time>2021-03-27T10:32:45.000Z</time>
      </trkpt>
      <trkpt lat="43.65048" lon="3.77463">
        <ele>99.61631</ele>
        <time>2021-03-27T10:32:54.000Z</time>
      </trkpt>
      <trkpt lat="43.65047" lon="3.77466">
        <ele>99.52065</ele>
        <time>2021-03-27T10:32:56.000Z</time>
      </trkpt>
      <trkpt lat="43.65049" lon="3.7747">
        <ele>99.20951</ele>
        <time>2021-03-27T10:34:19.000Z</time>
      </trkpt>
      <trkpt lat="43.65044" lon="3.77486">
        <ele>98.89843</ele>
        <time>2021-03-27T10:34:38.000Z</time>
      </trkpt>
      <trkpt lat="43.65047" lon="3.77515">
        <ele>97.64363</ele>
        <time>2021-03-27T10:34:43.000Z</time>
      </trkpt>
      <trkpt lat="43.65056" lon="3.77538">
        <ele>96.48431</ele>
        <time>2021-03-27T10:34:49.000Z</time>
      </trkpt>
      <trkpt lat="43.65062" lon="3.77554">
        <ele>95.84385</ele>
        <time>2021-03-27T10:34:53.000Z</time>
      </trkpt>
      <trkpt lat="43.65063" lon="3.77573">
        <ele>94.52038</ele>
        <time>2021-03-27T10:34:58.000Z</time>
      </trkpt>
      <trkpt lat="43.65064" lon="3.77623">
        <ele>92.58591</ele>
        <time>2021-03-27T10:35:09.000Z</time>
      </trkpt>
      <trkpt lat="43.6506" lon="3.77645">
        <ele>91.85174</ele>
        <time>2021-03-27T10:35:16.000Z</time>
      </trkpt>
      <trkpt lat="43.65057" lon="3.77652">
        <ele>91.61348</ele>
        <time>2021-03-27T10:35:20.000Z</time>
      </trkpt>
      <trkpt lat="43.65053" lon="3.77664">
        <ele>91.3166</ele>
        <time>2021-03-27T10:35:26.000Z</time>
      </trkpt>
      <trkpt lat="43.65052" lon="3.77677">
        <ele>91.03407</ele>
        <time>2021-03-27T10:35:36.000Z</time>
      </trkpt>
      <trkpt lat="43.65052" lon="3.77685">
        <ele>90.48858</ele>
        <time>2021-03-27T10:36:07.000Z</time>
      </trkpt>
      <trkpt lat="43.65058" lon="3.7769">
        <ele>90.09596</ele>
        <time>2021-03-27T10:36:11.000Z</time>
      </trkpt>
      <trkpt lat="43.65064" lon="3.77696">
        <ele>89.52485</ele>
        <time>2021-03-27T10:36:15.000Z</time>
      </trkpt>
      <trkpt lat="43.65066" lon="3.77699">
        <ele>89.30525</ele>
        <time>2021-03-27T10:36:17.000Z</time>
      </trkpt>
      <trkpt lat="43.65077" lon="3.77703">
        <ele>88.76212</ele>
        <time>2021-03-27T10:37:00.999Z</time>
      </trkpt>
      <trkpt lat="43.65078" lon="3.77712">
        <ele>88.61927</ele>
        <time>2021-03-27T10:37:10.999Z</time>
      </trkpt>
      <trkpt lat="43.65075" lon="3.77728">
        <ele>88.18695</ele>
        <time>2021-03-27T10:37:16.999Z</time>
      </trkpt>
      <trkpt lat="43.65076" lon="3.77732">
        <ele>87.97384</ele>
        <time>2021-03-27T10:37:18.999Z</time>
      </trkpt>
      <trkpt lat="43.65079" lon="3.77733">
        <ele>87.75219</ele>
        <time>2021-03-27T10:37:23.999Z</time>
      </trkpt>
      <trkpt lat="43.65091" lon="3.77748">
        <ele>86.60265</ele>
        <time>2021-03-27T10:38:48.000Z</time>
      </trkpt>
      <trkpt lat="43.65098" lon="3.77759">
        <ele>85.75757</ele>
        <time>2021-03-27T10:38:52.000Z</time>
      </trkpt>
      <trkpt lat="43.65112" lon="3.77773">
        <ele>84.85673</ele>
        <time>2021-03-27T10:38:58.000Z</time>
      </trkpt>
      <trkpt lat="43.65125" lon="3.77783">
        <ele>84.5746</ele>
        <time>2021-03-27T10:39:07.000Z</time>
      </trkpt>
      <trkpt lat="43.65128" lon="3.77789">
        <ele>84.59229</ele>
        <time>2021-03-27T10:39:11.000Z</time>
      </trkpt>
      <trkpt lat="43.65133" lon="3.77789">
        <ele>84.62564</ele>
        <time>2021-03-27T10:39:20.000Z</time>
      </trkpt>
      <trkpt lat="43.65138" lon="3.77797">
        <ele>84.60969</ele>
        <time>2021-03-27T10:39:24.000Z</time>
      </trkpt>
      <trkpt lat="43.65144" lon="3.77835">
        <ele>84.33341</ele>
        <time>2021-03-27T10:39:32.000Z</time>
      </trkpt>
      <trkpt lat="43.65142" lon="3.77853">
        <ele>84.09571</ele>
        <time>2021-03-27T10:39:36.000Z</time>
      </trkpt>
      <trkpt lat="43.65143" lon="3.77857">
        <ele>84.02383</ele>
        <time>2021-03-27T10:39:38.000Z</time>
      </trkpt>
      <trkpt lat="43.65142" lon="3.7786">
        <ele>83.95516</ele>
        <time>2021-03-27T10:39:42.000Z</time>
      </trkpt>
      <trkpt lat="43.65142" lon="3.77863">
        <ele>83.8805</ele>
        <time>2021-03-27T10:39:52.000Z</time>
      </trkpt>
      <trkpt lat="43.65144" lon="3.77866">
        <ele>83.80123</ele>
        <time>2021-03-27T10:39:57.000Z</time>
      </trkpt>
      <trkpt lat="43.65144" lon="3.7787">
        <ele>83.62371</ele>
        <time>2021-03-27T10:40:08.000Z</time>
      </trkpt>
      <trkpt lat="43.65141" lon="3.77875">
        <ele>83.44313</ele>
        <time>2021-03-27T10:40:14.000Z</time>
      </trkpt>
      <trkpt lat="43.65153" lon="3.77897">
        <ele>82.9381</ele>
        <time>2021-03-27T10:40:24.000Z</time>
      </trkpt>
      <trkpt lat="43.65169" lon="3.77942">
        <ele>81.84456</ele>
        <time>2021-03-27T10:40:38.000Z</time>
      </trkpt>
      <trkpt lat="43.65171" lon="3.77962">
        <ele>81.50207</ele>
        <time>2021-03-27T10:40:43.000Z</time>
      </trkpt>
      <trkpt lat="43.65171" lon="3.77976">
        <ele>81.29742</ele>
        <time>2021-03-27T10:40:47.000Z</time>
      </trkpt>
      <trkpt lat="43.65172" lon="3.77986">
        <ele>81.24577</ele>
        <time>2021-03-27T10:40:51.000Z</time>
      </trkpt>
      <trkpt lat="43.65171" lon="3.78023">
        <ele>81.46877</ele>
        <time>2021-03-27T10:41:04.000Z</time>
      </trkpt>
      <trkpt lat="43.6517" lon="3.78036">
        <ele>81.65879</ele>
        <time>2021-03-27T10:41:09.000Z</time>
      </trkpt>
      <trkpt lat="43.6517" lon="3.78044">
        <ele>81.81408</ele>
        <time>2021-03-27T10:41:13.000Z</time>
      </trkpt>
      <trkpt lat="43.65173" lon="3.78087">
        <ele>82.47762</ele>
        <time>2021-03-27T10:42:26.000Z</time>
      </trkpt>
      <trkpt lat="43.65175" lon="3.78123">
        <ele>82.56667</ele>
        <time>2021-03-27T10:42:32.000Z</time>
      </trkpt>
      <trkpt lat="43.65174" lon="3.7816">
        <ele>82.61827</ele>
        <time>2021-03-27T10:42:40.000Z</time>
      </trkpt>
      <trkpt lat="43.65167" lon="3.78199">
        <ele>82.49527</ele>
        <time>2021-03-27T10:42:46.000Z</time>
      </trkpt>
      <trkpt lat="43.65163" lon="3.78219">
        <ele>82.32625</ele>
        <time>2021-03-27T10:42:50.000Z</time>
      </trkpt>
      <trkpt lat="43.65156" lon="3.78248">
        <ele>81.97564</ele>
        <time>2021-03-27T10:42:55.000Z</time>
      </trkpt>
      <trkpt lat="43.65155" lon="3.78333">
        <ele>80.28528</ele>
        <time>2021-03-27T10:43:06.000Z</time>
      </trkpt>
      <trkpt lat="43.6515" lon="3.78374">
        <ele>78.95385</ele>
        <time>2021-03-27T10:43:12.000Z</time>
      </trkpt>
      <trkpt lat="43.65142" lon="3.78395">
        <ele>78.10787</ele>
        <time>2021-03-27T10:43:16.000Z</time>
      </trkpt>
      <trkpt lat="43.6514" lon="3.78419">
        <ele>77.27774</ele>
        <time>2021-03-27T10:43:21.000Z</time>
      </trkpt>
      <trkpt lat="43.65132" lon="3.78444">
        <ele>76.73928</ele>
        <time>2021-03-27T10:43:26.000Z</time>
      </trkpt>
      <trkpt lat="43.65122" lon="3.78476">
        <ele>76.0089</ele>
        <time>2021-03-27T10:43:33.000Z</time>
      </trkpt>
      <trkpt lat="43.65124" lon="3.7851">
        <ele>75.33128</ele>
        <time>2021-03-27T10:43:39.000Z</time>
      </trkpt>
      <trkpt lat="43.65126" lon="3.78541">
        <ele>74.55944</ele>
        <time>2021-03-27T10:43:45.000Z</time>
      </trkpt>
      <trkpt lat="43.65139" lon="3.78572">
        <ele>73.91069</ele>
        <time>2021-03-27T10:43:51.000Z</time>
      </trkpt>
      <trkpt lat="43.6514" lon="3.78594">
        <ele>73.70452</ele>
        <time>2021-03-27T10:43:55.000Z</time>
      </trkpt>
      <trkpt lat="43.65135" lon="3.78642">
        <ele>73.62751</ele>
        <time>2021-03-27T10:44:06.000Z</time>
      </trkpt>
      <trkpt lat="43.65137" lon="3.78669">
        <ele>73.55366</ele>
        <time>2021-03-27T10:44:11.000Z</time>
      </trkpt>
      <trkpt lat="43.65137" lon="3.78699">
        <ele>73.41013</ele>
        <time>2021-03-27T10:44:16.000Z</time>
      </trkpt>
      <trkpt lat="43.65147" lon="3.78726">
        <ele>72.9889</ele>
        <time>2021-03-27T10:44:21.000Z</time>
      </trkpt>
      <trkpt lat="43.65141" lon="3.78749">
        <ele>72.01273</ele>
        <time>2021-03-27T10:44:25.000Z</time>
      </trkpt>
      <trkpt lat="43.65141" lon="3.78783">
        <ele>69.61887</ele>
        <time>2021-03-27T10:44:30.000Z</time>
      </trkpt>
      <trkpt lat="43.65147" lon="3.78804">
        <ele>66.96889</ele>
        <time>2021-03-27T10:44:34.000Z</time>
      </trkpt>
      <trkpt lat="43.65139" lon="3.78816">
        <ele>64.59491</ele>
        <time>2021-03-27T10:44:39.000Z</time>
      </trkpt>
      <trkpt lat="43.65109" lon="3.78835">
        <ele>62.23928</ele>
        <time>2021-03-27T10:44:46.000Z</time>
      </trkpt>
      <trkpt lat="43.65091" lon="3.78847">
        <ele>61.58447</ele>
        <time>2021-03-27T10:44:50.000Z</time>
      </trkpt>
      <trkpt lat="43.65078" lon="3.78871">
        <ele>60.95096</ele>
        <time>2021-03-27T10:44:56.000Z</time>
      </trkpt>
      <trkpt lat="43.6507" lon="3.7888">
        <ele>60.72666</ele>
        <time>2021-03-27T10:45:00.000Z</time>
      </trkpt>
      <trkpt lat="43.6507" lon="3.78876">
        <ele>60.66504</ele>
        <time>2021-03-27T10:45:08.000Z</time>
      </trkpt>
      <trkpt lat="43.65059" lon="3.78921">
        <ele>60.10284</ele>
        <time>2021-03-27T10:47:49.000Z</time>
      </trkpt>
      <trkpt lat="43.65042" lon="3.78943">
        <ele>59.76913</ele>
        <time>2021-03-27T10:47:53.000Z</time>
      </trkpt>
      <trkpt lat="43.65014" lon="3.78965">
        <ele>59.42824</ele>
        <time>2021-03-27T10:47:58.000Z</time>
      </trkpt>
      <trkpt lat="43.65" lon="3.78986">
        <ele>59.18294</ele>
        <time>2021-03-27T10:48:02.000Z</time>
      </trkpt>
      <trkpt lat="43.6496" lon="3.78998">
        <ele>58.72897</ele>
        <time>2021-03-27T10:48:10.000Z</time>
      </trkpt>
      <trkpt lat="43.64939" lon="3.79016">
        <ele>58.48179</ele>
        <time>2021-03-27T10:48:16.000Z</time>
      </trkpt>
      <trkpt lat="43.64925" lon="3.79028">
        <ele>58.34375</ele>
        <time>2021-03-27T10:48:20.000Z</time>
      </trkpt>
      <trkpt lat="43.64896" lon="3.79044">
        <ele>58.21643</ele>
        <time>2021-03-27T10:48:25.000Z</time>
      </trkpt>
      <trkpt lat="43.64859" lon="3.79071">
        <ele>58.04373</ele>
        <time>2021-03-27T10:48:34.000Z</time>
      </trkpt>
      <trkpt lat="43.64842" lon="3.79088">
        <ele>58.02063</ele>
        <time>2021-03-27T10:48:38.000Z</time>
      </trkpt>
      <trkpt lat="43.6482" lon="3.79112">
        <ele>58.00623</ele>
        <time>2021-03-27T10:48:43.000Z</time>
      </trkpt>
      <trkpt lat="43.64799" lon="3.79127">
        <ele>58.03687</ele>
        <time>2021-03-27T10:48:48.000Z</time>
      </trkpt>
      <trkpt lat="43.64786" lon="3.79142">
        <ele>58.11869</ele>
        <time>2021-03-27T10:49:00.000Z</time>
      </trkpt>
      <trkpt lat="43.64762" lon="3.7915">
        <ele>58.3694</ele>
        <time>2021-03-27T10:49:06.000Z</time>
      </trkpt>
      <trkpt lat="43.64733" lon="3.79179">
        <ele>58.81002</ele>
        <time>2021-03-27T10:49:15.000Z</time>
      </trkpt>
      <trkpt lat="43.64702" lon="3.79196">
        <ele>59.36003</ele>
        <time>2021-03-27T10:49:25.000Z</time>
      </trkpt>
      <trkpt lat="43.64673" lon="3.7921">
        <ele>59.83876</ele>
        <time>2021-03-27T10:49:40.000Z</time>
      </trkpt>
      <trkpt lat="43.64665" lon="3.79214">
        <ele>59.89961</ele>
        <time>2021-03-27T10:49:44.000Z</time>
      </trkpt>
      <trkpt lat="43.64667" lon="3.79227">
        <ele>59.83383</ele>
        <time>2021-03-27T10:50:06.000Z</time>
      </trkpt>
      <trkpt lat="43.64664" lon="3.79247">
        <ele>59.64383</ele>
        <time>2021-03-27T10:50:11.000Z</time>
      </trkpt>
      <trkpt lat="43.64666" lon="3.79261">
        <ele>59.33564</ele>
        <time>2021-03-27T10:50:15.000Z</time>
      </trkpt>
      <trkpt lat="43.64659" lon="3.79303">
        <ele>58.1602</ele>
        <time>2021-03-27T10:50:25.000Z</time>
      </trkpt>
      <trkpt lat="43.64653" lon="3.79319">
        <ele>57.65806</ele>
        <time>2021-03-27T10:50:29.000Z</time>
      </trkpt>
      <trkpt lat="43.64648" lon="3.7935">
        <ele>56.84021</ele>
        <time>2021-03-27T10:50:36.000Z</time>
      </trkpt>
      <trkpt lat="43.64641" lon="3.79366">
        <ele>56.42824</ele>
        <time>2021-03-27T10:50:40.000Z</time>
      </trkpt>
      <trkpt lat="43.64637" lon="3.79385">
        <ele>55.9633</ele>
        <time>2021-03-27T10:50:44.000Z</time>
      </trkpt>
      <trkpt lat="43.64624" lon="3.79405">
        <ele>55.36021</ele>
        <time>2021-03-27T10:50:49.000Z</time>
      </trkpt>
      <trkpt lat="43.64604" lon="3.79432">
        <ele>54.80405</ele>
        <time>2021-03-27T10:50:54.000Z</time>
      </trkpt>
      <trkpt lat="43.64599" lon="3.79446">
        <ele>54.38207</ele>
        <time>2021-03-27T10:50:58.000Z</time>
      </trkpt>
      <trkpt lat="43.64598" lon="3.79463">
        <ele>54.06241</ele>
        <time>2021-03-27T10:51:04.000Z</time>
      </trkpt>
      <trkpt lat="43.64594" lon="3.79486">
        <ele>53.7306</ele>
        <time>2021-03-27T10:51:10.000Z</time>
      </trkpt>
      <trkpt lat="43.64583" lon="3.79506">
        <ele>53.61472</ele>
        <time>2021-03-27T10:51:14.000Z</time>
      </trkpt>
      <trkpt lat="43.64574" lon="3.79534">
        <ele>53.5432</ele>
        <time>2021-03-27T10:51:18.000Z</time>
      </trkpt>
      <trkpt lat="43.64564" lon="3.79575">
        <ele>53.46455</ele>
        <time>2021-03-27T10:51:24.000Z</time>
      </trkpt>
      <trkpt lat="43.64557" lon="3.79603">
        <ele>53.41459</ele>
        <time>2021-03-27T10:51:29.000Z</time>
      </trkpt>
      <trkpt lat="43.64547" lon="3.79626">
        <ele>53.37021</ele>
        <time>2021-03-27T10:51:34.000Z</time>
      </trkpt>
      <trkpt lat="43.64536" lon="3.79672">
        <ele>53.33932</ele>
        <time>2021-03-27T10:51:40.000Z</time>
      </trkpt>
      <trkpt lat="43.6452" lon="3.79701">
        <ele>53.3268</ele>
        <time>2021-03-27T10:51:45.000Z</time>
      </trkpt>
      <trkpt lat="43.64491" lon="3.79744">
        <ele>53.31296</ele>
        <time>2021-03-27T10:51:53.999Z</time>
      </trkpt>
      <trkpt lat="43.64481" lon="3.79763">
        <ele>53.31345</ele>
        <time>2021-03-27T10:51:56.999Z</time>
      </trkpt>
      <trkpt lat="43.64467" lon="3.79778">
        <ele>53.31543</ele>
        <time>2021-03-27T10:52:01.999Z</time>
      </trkpt>
      <trkpt lat="43.64434" lon="3.7979">
        <ele>53.3046</ele>
        <time>2021-03-27T10:52:13.999Z</time>
      </trkpt>
      <trkpt lat="43.64411" lon="3.7979">
        <ele>53.29196</ele>
        <time>2021-03-27T10:52:18.999Z</time>
      </trkpt>
      <trkpt lat="43.64397" lon="3.79782">
        <ele>53.27909</ele>
        <time>2021-03-27T10:52:23.999Z</time>
      </trkpt>
      <trkpt lat="43.64359" lon="3.79785">
        <ele>53.24753</ele>
        <time>2021-03-27T10:52:31.999Z</time>
      </trkpt>
      <trkpt lat="43.64337" lon="3.79801">
        <ele>53.22323</ele>
        <time>2021-03-27T10:52:36.999Z</time>
      </trkpt>
      <trkpt lat="43.6431" lon="3.79816">
        <ele>53.21122</ele>
        <time>2021-03-27T10:52:41.999Z</time>
      </trkpt>
      <trkpt lat="43.64276" lon="3.79828">
        <ele>53.2097</ele>
        <time>2021-03-27T10:52:48.999Z</time>
      </trkpt>
      <trkpt lat="43.64253" lon="3.79844">
        <ele>53.20988</ele>
        <time>2021-03-27T10:52:53.999Z</time>
      </trkpt>
      <trkpt lat="43.64231" lon="3.79859">
        <ele>53.20921</ele>
        <time>2021-03-27T10:52:58.999Z</time>
      </trkpt>
      <trkpt lat="43.6422" lon="3.79897">
        <ele>53.20398</ele>
        <time>2021-03-27T10:53:03.999Z</time>
      </trkpt>
      <trkpt lat="43.64198" lon="3.79895">
        <ele>53.18978</ele>
        <time>2021-03-27T10:53:08.999Z</time>
      </trkpt>
      <trkpt lat="43.64174" lon="3.79906">
        <ele>53.17147</ele>
        <time>2021-03-27T10:53:13.999Z</time>
      </trkpt>
      <trkpt lat="43.64147" lon="3.79925">
        <ele>53.13285</ele>
        <time>2021-03-27T10:53:19.999Z</time>
      </trkpt>
      <trkpt lat="43.64129" lon="3.79941">
        <ele>53.1012</ele>
        <time>2021-03-27T10:53:23.999Z</time>
      </trkpt>
      <trkpt lat="43.64103" lon="3.79961">
        <ele>53.02662</ele>
        <time>2021-03-27T10:53:29.999Z</time>
      </trkpt>
      <trkpt lat="43.64069" lon="3.79988">
        <ele>52.91959</ele>
        <time>2021-03-27T10:53:36.999Z</time>
      </trkpt>
      <trkpt lat="43.64039" lon="3.8001">
        <ele>52.85892</ele>
        <time>2021-03-27T10:53:42.999Z</time>
      </trkpt>
      <trkpt lat="43.64023" lon="3.80024">
        <ele>52.81919</ele>
        <time>2021-03-27T10:53:46.999Z</time>
      </trkpt>
      <trkpt lat="43.63966" lon="3.80063">
        <ele>52.69523</ele>
        <time>2021-03-27T10:53:58.999Z</time>
      </trkpt>
      <trkpt lat="43.63944" lon="3.80077">
        <ele>52.64943</ele>
        <time>2021-03-27T10:54:03.999Z</time>
      </trkpt>
      <trkpt lat="43.63912" lon="3.80093">
        <ele>52.58654</ele>
        <time>2021-03-27T10:54:09.999Z</time>
      </trkpt>
      <trkpt lat="43.63887" lon="3.80105">
        <ele>52.53044</ele>
        <time>2021-03-27T10:54:14.999Z</time>
      </trkpt>
      <trkpt lat="43.63871" lon="3.80137">
        <ele>52.4923</ele>
        <time>2021-03-27T10:54:22.999Z</time>
      </trkpt>
      <trkpt lat="43.63846" lon="3.80193">
        <ele>52.79587</ele>
        <time>2021-03-27T10:54:36.999Z</time>
      </trkpt>
      <trkpt lat="43.63841" lon="3.80215">
        <ele>52.96564</ele>
        <time>2021-03-27T10:54:40.999Z</time>
      </trkpt>
      <trkpt lat="43.63841" lon="3.80245">
        <ele>53.2088</ele>
        <time>2021-03-27T10:54:44.999Z</time>
      </trkpt>
      <trkpt lat="43.63849" lon="3.80268">
        <ele>53.4756</ele>
        <time>2021-03-27T10:54:49.999Z</time>
      </trkpt>
      <trkpt lat="43.63863" lon="3.80293">
        <ele>53.75957</ele>
        <time>2021-03-27T10:54:56.999Z</time>
      </trkpt>
      <trkpt lat="43.63867" lon="3.80319">
        <ele>53.98365</ele>
        <time>2021-03-27T10:55:01.999Z</time>
      </trkpt>
      <trkpt lat="43.63885" lon="3.80367">
        <ele>54.2965</ele>
        <time>2021-03-27T10:55:09.999Z</time>
      </trkpt>
      <trkpt lat="43.639" lon="3.80394">
        <ele>54.44461</ele>
        <time>2021-03-27T10:55:14.999Z</time>
      </trkpt>
      <trkpt lat="43.63915" lon="3.80431">
        <ele>54.51304</ele>
        <time>2021-03-27T10:55:19.999Z</time>
      </trkpt>
      <trkpt lat="43.63922" lon="3.80453">
        <ele>54.53306</ele>
        <time>2021-03-27T10:55:23.999Z</time>
      </trkpt>
      <trkpt lat="43.63912" lon="3.80529">
        <ele>54.29248</ele>
        <time>2021-03-27T10:55:36.999Z</time>
      </trkpt>
      <trkpt lat="43.63911" lon="3.80567">
        <ele>54.03803</ele>
        <time>2021-03-27T10:55:42.999Z</time>
      </trkpt>
      <trkpt lat="43.63906" lon="3.80627">
        <ele>53.606</ele>
        <time>2021-03-27T10:55:51.999Z</time>
      </trkpt>
      <trkpt lat="43.63908" lon="3.80644">
        <ele>53.23753</ele>
        <time>2021-03-27T10:55:58.999Z</time>
      </trkpt>
      <trkpt lat="43.63912" lon="3.80644">
        <ele>53.04213</ele>
        <time>2021-03-27T10:56:11.999Z</time>
      </trkpt>
      <trkpt lat="43.63917" lon="3.80659">
        <ele>52.70553</ele>
        <time>2021-03-27T10:56:21.999Z</time>
      </trkpt>
      <trkpt lat="43.63929" lon="3.80665">
        <ele>52.49073</ele>
        <time>2021-03-27T10:56:26.999Z</time>
      </trkpt>
      <trkpt lat="43.63964" lon="3.80657">
        <ele>52.38648</ele>
        <time>2021-03-27T10:56:39.999Z</time>
      </trkpt>
      <trkpt lat="43.63998" lon="3.80642">
        <ele>52.98953</ele>
        <time>2021-03-27T10:56:54.999Z</time>
      </trkpt>
      <trkpt lat="43.64023" lon="3.80631">
        <ele>54.96196</ele>
        <time>2021-03-27T10:57:06.999Z</time>
      </trkpt>
      <trkpt lat="43.64043" lon="3.80615">
        <ele>57.61138</ele>
        <time>2021-03-27T10:57:17.999Z</time>
      </trkpt>
      <trkpt lat="43.64051" lon="3.80615">
        <ele>58.44342</ele>
        <time>2021-03-27T10:57:21.999Z</time>
      </trkpt>
      <trkpt lat="43.6406" lon="3.80617">
        <ele>59.69894</ele>
        <time>2021-03-27T10:57:25.999Z</time>
      </trkpt>
      <trkpt lat="43.64065" lon="3.80625">
        <ele>60.54537</ele>
        <time>2021-03-27T10:57:29.999Z</time>
      </trkpt>
      <trkpt lat="43.6407" lon="3.80638">
        <ele>61.82011</ele>
        <time>2021-03-27T10:57:35.999Z</time>
      </trkpt>
      <trkpt lat="43.64076" lon="3.80641">
        <ele>62.62912</ele>
        <time>2021-03-27T10:57:39.999Z</time>
      </trkpt>
      <trkpt lat="43.64082" lon="3.80636">
        <ele>63.36727</ele>
        <time>2021-03-27T10:57:43.999Z</time>
      </trkpt>
      <trkpt lat="43.64084" lon="3.80615">
        <ele>64.86793</ele>
        <time>2021-03-27T10:57:51.999Z</time>
      </trkpt>
      <trkpt lat="43.64088" lon="3.80609">
        <ele>65.51023</ele>
        <time>2021-03-27T10:57:55.999Z</time>
      </trkpt>
      <trkpt lat="43.64099" lon="3.80611">
        <ele>66.52238</ele>
        <time>2021-03-27T10:58:01.999Z</time>
      </trkpt>
      <trkpt lat="43.64101" lon="3.80609">
        <ele>67.55645</ele>
        <time>2021-03-27T10:58:13.999Z</time>
      </trkpt>
      <trkpt lat="43.64104" lon="3.80595">
        <ele>68.69086</ele>
        <time>2021-03-27T10:58:43.999Z</time>
      </trkpt>
      <trkpt lat="43.64105" lon="3.80585">
        <ele>69.46714</ele>
        <time>2021-03-27T10:58:47.999Z</time>
      </trkpt>
      <trkpt lat="43.64115" lon="3.80581">
        <ele>70.71671</ele>
        <time>2021-03-27T10:58:52.999Z</time>
      </trkpt>
      <trkpt lat="43.64121" lon="3.80595">
        <ele>72.43855</ele>
        <time>2021-03-27T10:58:57.999Z</time>
      </trkpt>
      <trkpt lat="43.64123" lon="3.80609">
        <ele>73.68999</ele>
        <time>2021-03-27T10:59:01.999Z</time>
      </trkpt>
      <trkpt lat="43.64142" lon="3.80627">
        <ele>76.55407</ele>
        <time>2021-03-27T10:59:09.999Z</time>
      </trkpt>
      <trkpt lat="43.64153" lon="3.80634">
        <ele>77.89129</ele>
        <time>2021-03-27T10:59:15.999Z</time>
      </trkpt>
      <trkpt lat="43.64158" lon="3.80634">
        <ele>78.33475</ele>
        <time>2021-03-27T10:59:31.000Z</time>
      </trkpt>
      <trkpt lat="43.64164" lon="3.80633">
        <ele>79.2205</ele>
        <time>2021-03-27T10:59:38.000Z</time>
      </trkpt>
      <trkpt lat="43.64164" lon="3.80637">
        <ele>79.40325</ele>
        <time>2021-03-27T10:59:40.000Z</time>
      </trkpt>
      <trkpt lat="43.64162" lon="3.80639">
        <ele>79.6167</ele>
        <time>2021-03-27T10:59:43.000Z</time>
      </trkpt>
      <trkpt lat="43.64162" lon="3.80633">
        <ele>80.06475</ele>
        <time>2021-03-27T10:59:56.000Z</time>
      </trkpt>
      <trkpt lat="43.64161" lon="3.8063">
        <ele>80.08569</ele>
        <time>2021-03-27T10:59:58.000Z</time>
      </trkpt>
      <trkpt lat="43.64164" lon="3.80679">
        <ele>80.46575</ele>
        <time>2021-03-27T11:00:17.000Z</time>
      </trkpt>
      <trkpt lat="43.64168" lon="3.80699">
        <ele>80.7239</ele>
        <time>2021-03-27T11:00:22.000Z</time>
      </trkpt>
      <trkpt lat="43.64169" lon="3.80734">
        <ele>81.54382</ele>
        <time>2021-03-27T11:00:33.000Z</time>
      </trkpt>
      <trkpt lat="43.64172" lon="3.80747">
        <ele>82.42119</ele>
        <time>2021-03-27T11:00:40.000Z</time>
      </trkpt>
      <trkpt lat="43.64171" lon="3.80763">
        <ele>84.8951</ele>
        <time>2021-03-27T11:00:45.000Z</time>
      </trkpt>
      <trkpt lat="43.64172" lon="3.80781">
        <ele>89.09001</ele>
        <time>2021-03-27T11:00:50.000Z</time>
      </trkpt>
      <trkpt lat="43.64175" lon="3.80793">
        <ele>91.36131</ele>
        <time>2021-03-27T11:00:53.000Z</time>
      </trkpt>
      <trkpt lat="43.64174" lon="3.80796">
        <ele>92.0398</ele>
        <time>2021-03-27T11:00:55.000Z</time>
      </trkpt>
      <trkpt lat="43.64172" lon="3.808">
        <ele>92.61343</ele>
        <time>2021-03-27T11:01:42.000Z</time>
      </trkpt>
      <trkpt lat="43.6417" lon="3.80802">
        <ele>93.11758</ele>
        <time>2021-03-27T11:01:44.000Z</time>
      </trkpt>
      <trkpt lat="43.64172" lon="3.80819">
        <ele>94.37767</ele>
        <time>2021-03-27T11:02:04.000Z</time>
      </trkpt>
      <trkpt lat="43.64175" lon="3.80857">
        <ele>96.31594</ele>
        <time>2021-03-27T11:02:12.000Z</time>
      </trkpt>
      <trkpt lat="43.64189" lon="3.80898">
        <ele>97.99111</ele>
        <time>2021-03-27T11:02:19.000Z</time>
      </trkpt>
      <trkpt lat="43.64183" lon="3.80917">
        <ele>99.6311</ele>
        <time>2021-03-27T11:02:25.000Z</time>
      </trkpt>
      <trkpt lat="43.64171" lon="3.80934">
        <ele>100.94071</ele>
        <time>2021-03-27T11:02:31.000Z</time>
      </trkpt>
      <trkpt lat="43.64164" lon="3.80944">
        <ele>101.52777</ele>
        <time>2021-03-27T11:02:37.000Z</time>
      </trkpt>
      <trkpt lat="43.64157" lon="3.8096">
        <ele>101.8559</ele>
        <time>2021-03-27T11:02:44.000Z</time>
      </trkpt>
      <trkpt lat="43.64137" lon="3.80999">
        <ele>101.66095</ele>
        <time>2021-03-27T11:02:50.000Z</time>
      </trkpt>
      <trkpt lat="43.64127" lon="3.81017">
        <ele>101.69644</ele>
        <time>2021-03-27T11:02:54.000Z</time>
      </trkpt>
      <trkpt lat="43.64119" lon="3.81031">
        <ele>102.00995</ele>
        <time>2021-03-27T11:02:58.000Z</time>
      </trkpt>
      <trkpt lat="43.64116" lon="3.81042">
        <ele>102.36469</ele>
        <time>2021-03-27T11:03:01.000Z</time>
      </trkpt>
      <trkpt lat="43.64114" lon="3.81051">
        <ele>102.70979</ele>
        <time>2021-03-27T11:03:06.000Z</time>
      </trkpt>
      <trkpt lat="43.64107" lon="3.81064">
        <ele>103.47908</ele>
        <time>2021-03-27T11:03:12.000Z</time>
      </trkpt>
      <trkpt lat="43.64102" lon="3.8108">
        <ele>105.13192</ele>
        <time>2021-03-27T11:03:16.000Z</time>
      </trkpt>
      <trkpt lat="43.64091" lon="3.81096">
        <ele>108.15197</ele>
        <time>2021-03-27T11:03:23.000Z</time>
      </trkpt>
      <trkpt lat="43.64089" lon="3.81107">
        <ele>110.25892</ele>
        <time>2021-03-27T11:03:27.000Z</time>
      </trkpt>
      <trkpt lat="43.64088" lon="3.81101">
        <ele>112.32777</ele>
        <time>2021-03-27T11:04:07.000Z</time>
      </trkpt>
      <trkpt lat="43.64105" lon="3.81116">
        <ele>114.95384</ele>
        <time>2021-03-27T11:04:57.000Z</time>
      </trkpt>
      <trkpt lat="43.64121" lon="3.81144">
        <ele>116.14441</ele>
        <time>2021-03-27T11:05:03.000Z</time>
      </trkpt>
      <trkpt lat="43.64138" lon="3.81168">
        <ele>116.66012</ele>
        <time>2021-03-27T11:05:08.000Z</time>
      </trkpt>
      <trkpt lat="43.64177" lon="3.8121">
        <ele>117.29464</ele>
        <time>2021-03-27T11:05:18.000Z</time>
      </trkpt>
      <trkpt lat="43.64219" lon="3.81281">
        <ele>117.65531</ele>
        <time>2021-03-27T11:05:31.000Z</time>
      </trkpt>
      <trkpt lat="43.64233" lon="3.81305">
        <ele>117.69485</ele>
        <time>2021-03-27T11:05:36.000Z</time>
      </trkpt>
      <trkpt lat="43.64248" lon="3.81325">
        <ele>117.71925</ele>
        <time>2021-03-27T11:05:40.000Z</time>
      </trkpt>
      <trkpt lat="43.64266" lon="3.81361">
        <ele>117.757</ele>
        <time>2021-03-27T11:05:47.000Z</time>
      </trkpt>
      <trkpt lat="43.6428" lon="3.81395">
        <ele>117.8235</ele>
        <time>2021-03-27T11:05:53.000Z</time>
      </trkpt>
      <trkpt lat="43.64307" lon="3.81478">
        <ele>117.87426</ele>
        <time>2021-03-27T11:06:08.000Z</time>
      </trkpt>
      <trkpt lat="43.64314" lon="3.81502">
        <ele>117.87881</ele>
        <time>2021-03-27T11:06:12.000Z</time>
      </trkpt>
      <trkpt lat="43.64318" lon="3.81527">
        <ele>117.88951</ele>
        <time>2021-03-27T11:06:16.000Z</time>
      </trkpt>
      <trkpt lat="43.64325" lon="3.81556">
        <ele>117.90482</ele>
        <time>2021-03-27T11:06:21.000Z</time>
      </trkpt>
      <trkpt lat="43.64337" lon="3.81592">
        <ele>117.93175</ele>
        <time>2021-03-27T11:06:27.000Z</time>
      </trkpt>
      <trkpt lat="43.64364" lon="3.81677">
        <ele>117.96092</ele>
        <time>2021-03-27T11:06:42.000Z</time>
      </trkpt>
      <trkpt lat="43.64381" lon="3.81732">
        <ele>117.95621</ele>
        <time>2021-03-27T11:06:50.000Z</time>
      </trkpt>
      <trkpt lat="43.64421" lon="3.81797">
        <ele>117.89759</ele>
        <time>2021-03-27T11:07:02.000Z</time>
      </trkpt>
      <trkpt lat="43.64418" lon="3.81819">
        <ele>117.7803</ele>
        <time>2021-03-27T11:07:09.000Z</time>
      </trkpt>
      <trkpt lat="43.64414" lon="3.81839">
        <ele>117.476</ele>
        <time>2021-03-27T11:07:13.000Z</time>
      </trkpt>
      <trkpt lat="43.64416" lon="3.81906">
        <ele>114.96383</ele>
        <time>2021-03-27T11:07:25.000Z</time>
      </trkpt>
      <trkpt lat="43.64412" lon="3.81925">
        <ele>113.58991</ele>
        <time>2021-03-27T11:07:41.000Z</time>
      </trkpt>
      <trkpt lat="43.64408" lon="3.81941">
        <ele>112.68975</ele>
        <time>2021-03-27T11:07:46.000Z</time>
      </trkpt>
      <trkpt lat="43.64402" lon="3.81974">
        <ele>111.41493</ele>
        <time>2021-03-27T11:07:52.000Z</time>
      </trkpt>
      <trkpt lat="43.64387" lon="3.82013">
        <ele>109.95468</ele>
        <time>2021-03-27T11:07:58.000Z</time>
      </trkpt>
      <trkpt lat="43.64375" lon="3.82029">
        <ele>108.92142</ele>
        <time>2021-03-27T11:08:02.000Z</time>
      </trkpt>
      <trkpt lat="43.64357" lon="3.82066">
        <ele>107.45213</ele>
        <time>2021-03-27T11:08:09.000Z</time>
      </trkpt>
      <trkpt lat="43.64348" lon="3.82085">
        <ele>106.46357</ele>
        <time>2021-03-27T11:08:14.000Z</time>
      </trkpt>
      <trkpt lat="43.64348" lon="3.82115">
        <ele>105.07239</ele>
        <time>2021-03-27T11:08:20.000Z</time>
      </trkpt>
      <trkpt lat="43.64345" lon="3.82139">
        <ele>103.98626</ele>
        <time>2021-03-27T11:08:24.000Z</time>
      </trkpt>
      <trkpt lat="43.6435" lon="3.82158">
        <ele>103.02544</ele>
        <time>2021-03-27T11:08:28.000Z</time>
      </trkpt>
      <trkpt lat="43.64359" lon="3.82178">
        <ele>102.0041</ele>
        <time>2021-03-27T11:08:33.000Z</time>
      </trkpt>
      <trkpt lat="43.64409" lon="3.8221">
        <ele>99.49826</ele>
        <time>2021-03-27T11:08:42.000Z</time>
      </trkpt>
      <trkpt lat="43.64421" lon="3.82233">
        <ele>98.55486</ele>
        <time>2021-03-27T11:08:46.000Z</time>
      </trkpt>
      <trkpt lat="43.6443" lon="3.82256">
        <ele>97.77558</ele>
        <time>2021-03-27T11:08:50.000Z</time>
      </trkpt>
      <trkpt lat="43.64445" lon="3.82268">
        <ele>97.33814</ele>
        <time>2021-03-27T11:08:54.000Z</time>
      </trkpt>
      <trkpt lat="43.6446" lon="3.82277">
        <ele>96.96551</ele>
        <time>2021-03-27T11:08:58.000Z</time>
      </trkpt>
      <trkpt lat="43.64472" lon="3.82291">
        <ele>96.58683</ele>
        <time>2021-03-27T11:09:06.000Z</time>
      </trkpt>
      <trkpt lat="43.64488" lon="3.82291">
        <ele>96.48558</ele>
        <time>2021-03-27T11:09:10.000Z</time>
      </trkpt>
      <trkpt lat="43.64512" lon="3.82306">
        <ele>96.72604</ele>
        <time>2021-03-27T11:09:16.000Z</time>
      </trkpt>
      <trkpt lat="43.64554" lon="3.82315">
        <ele>97.4783</ele>
        <time>2021-03-27T11:09:26.000Z</time>
      </trkpt>
      <trkpt lat="43.64577" lon="3.82322">
        <ele>97.73968</ele>
        <time>2021-03-27T11:09:31.000Z</time>
      </trkpt>
      <trkpt lat="43.64632" lon="3.82366">
        <ele>97.89827</ele>
        <time>2021-03-27T11:09:44.000Z</time>
      </trkpt>
      <trkpt lat="43.64659" lon="3.82386">
        <ele>97.90519</ele>
        <time>2021-03-27T11:09:51.000Z</time>
      </trkpt>
      <trkpt lat="43.64703" lon="3.82416">
        <ele>97.93559</ele>
        <time>2021-03-27T11:10:02.000Z</time>
      </trkpt>
      <trkpt lat="43.64736" lon="3.82429">
        <ele>97.99545</ele>
        <time>2021-03-27T11:10:10.000Z</time>
      </trkpt>
      <trkpt lat="43.6479" lon="3.82424">
        <ele>98.20584</ele>
        <time>2021-03-27T11:10:24.000Z</time>
      </trkpt>
      <trkpt lat="43.6484" lon="3.82414">
        <ele>100.23674</ele>
        <time>2021-03-27T11:10:39.000Z</time>
      </trkpt>
      <trkpt lat="43.64865" lon="3.82406">
        <ele>101.75557</ele>
        <time>2021-03-27T11:10:47.000Z</time>
      </trkpt>
      <trkpt lat="43.64881" lon="3.82413">
        <ele>102.4908</ele>
        <time>2021-03-27T11:10:52.000Z</time>
      </trkpt>
      <trkpt lat="43.6489" lon="3.82427">
        <ele>103.0832</ele>
        <time>2021-03-27T11:10:56.000Z</time>
      </trkpt>
      <trkpt lat="43.64898" lon="3.82441">
        <ele>103.67155</ele>
        <time>2021-03-27T11:11:00.000Z</time>
      </trkpt>
      <trkpt lat="43.64912" lon="3.82458">
        <ele>104.41767</ele>
        <time>2021-03-27T11:11:06.000Z</time>
      </trkpt>
      <trkpt lat="43.64923" lon="3.82463">
        <ele>104.87061</ele>
        <time>2021-03-27T11:11:10.000Z</time>
      </trkpt>
      <trkpt lat="43.64937" lon="3.82453">
        <ele>105.45464</ele>
        <time>2021-03-27T11:11:15.000Z</time>
      </trkpt>
      <trkpt lat="43.64948" lon="3.82442">
        <ele>105.83218</ele>
        <time>2021-03-27T11:11:19.000Z</time>
      </trkpt>
      <trkpt lat="43.64962" lon="3.82435">
        <ele>106.14799</ele>
        <time>2021-03-27T11:11:24.000Z</time>
      </trkpt>
      <trkpt lat="43.64974" lon="3.82424">
        <ele>106.51795</ele>
        <time>2021-03-27T11:11:29.000Z</time>
      </trkpt>
      <trkpt lat="43.6499" lon="3.82424">
        <ele>107.15851</ele>
        <time>2021-03-27T11:11:35.000Z</time>
      </trkpt>
      <trkpt lat="43.6501" lon="3.82418">
        <ele>108.04822</ele>
        <time>2021-03-27T11:11:44.000Z</time>
      </trkpt>
      <trkpt lat="43.65025" lon="3.82415">
        <ele>108.95594</ele>
        <time>2021-03-27T11:11:49.000Z</time>
      </trkpt>
      <trkpt lat="43.65045" lon="3.82408">
        <ele>110.30155</ele>
        <time>2021-03-27T11:11:56.000Z</time>
      </trkpt>
      <trkpt lat="43.65067" lon="3.82407">
        <ele>111.58058</ele>
        <time>2021-03-27T11:12:04.000Z</time>
      </trkpt>
      <trkpt lat="43.65074" lon="3.8239">
        <ele>112.49118</ele>
        <time>2021-03-27T11:12:10.000Z</time>
      </trkpt>
      <trkpt lat="43.6508" lon="3.82365">
        <ele>113.07477</ele>
        <time>2021-03-27T11:12:15.001Z</time>
      </trkpt>
      <trkpt lat="43.65094" lon="3.82351">
        <ele>113.40518</ele>
        <time>2021-03-27T11:12:20.001Z</time>
      </trkpt>
      <trkpt lat="43.6511" lon="3.82349">
        <ele>113.70472</ele>
        <time>2021-03-27T11:12:24.001Z</time>
      </trkpt>
      <trkpt lat="43.65133" lon="3.82366">
        <ele>114.46784</ele>
        <time>2021-03-27T11:12:32.000Z</time>
      </trkpt>
      <trkpt lat="43.6514" lon="3.82383">
        <ele>114.82032</ele>
        <time>2021-03-27T11:12:37.000Z</time>
      </trkpt>
      <trkpt lat="43.65146" lon="3.824">
        <ele>115.04097</ele>
        <time>2021-03-27T11:12:42.000Z</time>
      </trkpt>
      <trkpt lat="43.65156" lon="3.82419">
        <ele>115.18586</ele>
        <time>2021-03-27T11:12:47.000Z</time>
      </trkpt>
      <trkpt lat="43.65162" lon="3.82466">
        <ele>115.17055</ele>
        <time>2021-03-27T11:12:55.000Z</time>
      </trkpt>
      <trkpt lat="43.65156" lon="3.82479">
        <ele>115.1246</ele>
        <time>2021-03-27T11:12:59.000Z</time>
      </trkpt>
      <trkpt lat="43.65161" lon="3.82507">
        <ele>115.01348</ele>
        <time>2021-03-27T11:13:06.000Z</time>
      </trkpt>
      <trkpt lat="43.65189" lon="3.82551">
        <ele>114.75331</ele>
        <time>2021-03-27T11:13:16.000Z</time>
      </trkpt>
      <trkpt lat="43.65201" lon="3.82576">
        <ele>114.66646</ele>
        <time>2021-03-27T11:13:21.000Z</time>
      </trkpt>
      <trkpt lat="43.65213" lon="3.8259">
        <ele>114.66031</ele>
        <time>2021-03-27T11:13:25.000Z</time>
      </trkpt>
      <trkpt lat="43.65237" lon="3.82606">
        <ele>114.65872</ele>
        <time>2021-03-27T11:13:31.000Z</time>
      </trkpt>
      <trkpt lat="43.65269" lon="3.82642">
        <ele>114.8398</ele>
        <time>2021-03-27T11:13:42.000Z</time>
      </trkpt>
      <trkpt lat="43.65278" lon="3.82658">
        <ele>115.16735</ele>
        <time>2021-03-27T11:13:47.000Z</time>
      </trkpt>
      <trkpt lat="43.65316" lon="3.82689">
        <ele>116.68966</ele>
        <time>2021-03-27T11:13:59.000Z</time>
      </trkpt>
      <trkpt lat="43.65344" lon="3.82709">
        <ele>117.613</ele>
        <time>2021-03-27T11:14:11.000Z</time>
      </trkpt>
      <trkpt lat="43.65356" lon="3.82713">
        <ele>117.82892</ele>
        <time>2021-03-27T11:14:15.000Z</time>
      </trkpt>
      <trkpt lat="43.65365" lon="3.8272">
        <ele>118.01368</ele>
        <time>2021-03-27T11:14:19.000Z</time>
      </trkpt>
      <trkpt lat="43.65383" lon="3.82724">
        <ele>118.25305</ele>
        <time>2021-03-27T11:14:25.000Z</time>
      </trkpt>
      <trkpt lat="43.65396" lon="3.82732">
        <ele>118.41802</ele>
        <time>2021-03-27T11:14:29.000Z</time>
      </trkpt>
      <trkpt lat="43.65434" lon="3.82769">
        <ele>118.98422</ele>
        <time>2021-03-27T11:14:42.000Z</time>
      </trkpt>
      <trkpt lat="43.65461" lon="3.82775">
        <ele>119.35435</ele>
        <time>2021-03-27T11:14:51.000Z</time>
      </trkpt>
      <trkpt lat="43.6547" lon="3.82784">
        <ele>119.44805</ele>
        <time>2021-03-27T11:14:55.000Z</time>
      </trkpt>
      <trkpt lat="43.65479" lon="3.82797">
        <ele>119.48776</ele>
        <time>2021-03-27T11:15:01.000Z</time>
      </trkpt>
      <trkpt lat="43.65487" lon="3.82808">
        <ele>119.47568</ele>
        <time>2021-03-27T11:15:05.000Z</time>
      </trkpt>
      <trkpt lat="43.65496" lon="3.82811">
        <ele>119.44556</ele>
        <time>2021-03-27T11:15:09.000Z</time>
      </trkpt>
      <trkpt lat="43.65493" lon="3.82821">
        <ele>119.42667</ele>
        <time>2021-03-27T11:15:13.000Z</time>
      </trkpt>
      <trkpt lat="43.65495" lon="3.82833">
        <ele>119.42704</ele>
        <time>2021-03-27T11:15:16.000Z</time>
      </trkpt>
      <trkpt lat="43.655" lon="3.82842">
        <ele>119.42206</ele>
        <time>2021-03-27T11:15:20.000Z</time>
      </trkpt>
      <trkpt lat="43.65504" lon="3.82842">
        <ele>119.41506</ele>
        <time>2021-03-27T11:15:22.000Z</time>
      </trkpt>
      <trkpt lat="43.65517" lon="3.82836">
        <ele>119.33913</ele>
        <time>2021-03-27T11:15:28.000Z</time>
      </trkpt>
      <trkpt lat="43.65527" lon="3.82836">
        <ele>119.12805</ele>
        <time>2021-03-27T11:15:32.000Z</time>
      </trkpt>
      <trkpt lat="43.65532" lon="3.82838">
        <ele>118.98451</ele>
        <time>2021-03-27T11:15:34.000Z</time>
      </trkpt>
      <trkpt lat="43.65535" lon="3.82837">
        <ele>118.76398</ele>
        <time>2021-03-27T11:15:36.000Z</time>
      </trkpt>
      <trkpt lat="43.65541" lon="3.82837">
        <ele>118.17435</ele>
        <time>2021-03-27T11:15:40.000Z</time>
      </trkpt>
      <trkpt lat="43.65543" lon="3.82834">
        <ele>117.75201</ele>
        <time>2021-03-27T11:15:43.000Z</time>
      </trkpt>
      <trkpt lat="43.65548" lon="3.82831">
        <ele>115.96254</ele>
        <time>2021-03-27T11:15:59.000Z</time>
      </trkpt>
      <trkpt lat="43.65548" lon="3.82828">
        <ele>115.37483</ele>
        <time>2021-03-27T11:16:04.000Z</time>
      </trkpt>
      <trkpt lat="43.6556" lon="3.82836">
        <ele>112.66494</ele>
        <time>2021-03-27T11:16:28.000Z</time>
      </trkpt>
      <trkpt lat="43.65565" lon="3.82841">
        <ele>111.94429</ele>
        <time>2021-03-27T11:16:31.000Z</time>
      </trkpt>
      <trkpt lat="43.65575" lon="3.82847">
        <ele>110.79391</ele>
        <time>2021-03-27T11:16:37.000Z</time>
      </trkpt>
      <trkpt lat="43.65581" lon="3.82855">
        <ele>110.00128</ele>
        <time>2021-03-27T11:16:41.000Z</time>
      </trkpt>
      <trkpt lat="43.65596" lon="3.82861">
        <ele>108.13093</ele>
        <time>2021-03-27T11:16:49.000Z</time>
      </trkpt>
      <trkpt lat="43.65603" lon="3.82865">
        <ele>107.39637</ele>
        <time>2021-03-27T11:16:53.000Z</time>
      </trkpt>
      <trkpt lat="43.6561" lon="3.82879">
        <ele>106.02905</ele>
        <time>2021-03-27T11:16:58.000Z</time>
      </trkpt>
      <trkpt lat="43.6562" lon="3.82883">
        <ele>105.13762</ele>
        <time>2021-03-27T11:17:03.000Z</time>
      </trkpt>
      <trkpt lat="43.65632" lon="3.82883">
        <ele>103.88451</ele>
        <time>2021-03-27T11:17:07.000Z</time>
      </trkpt>
      <trkpt lat="43.65642" lon="3.8289">
        <ele>102.55929</ele>
        <time>2021-03-27T11:17:11.000Z</time>
      </trkpt>
      <trkpt lat="43.65678" lon="3.82902">
        <ele>98.7955</ele>
        <time>2021-03-27T11:17:20.999Z</time>
      </trkpt>
      <trkpt lat="43.65693" lon="3.82908">
        <ele>97.2635</ele>
        <time>2021-03-27T11:17:24.999Z</time>
      </trkpt>
      <trkpt lat="43.65703" lon="3.82915">
        <ele>96.19971</ele>
        <time>2021-03-27T11:17:27.999Z</time>
      </trkpt>
      <trkpt lat="43.65724" lon="3.82924">
        <ele>94.01333</ele>
        <time>2021-03-27T11:17:33.999Z</time>
      </trkpt>
      <trkpt lat="43.65727" lon="3.82925">
        <ele>93.58926</ele>
        <time>2021-03-27T11:17:35.999Z</time>
      </trkpt>
      <trkpt lat="43.65729" lon="3.82922">
        <ele>93.18907</ele>
        <time>2021-03-27T11:17:38.999Z</time>
      </trkpt>
      <trkpt lat="43.65731" lon="3.82917">
        <ele>92.48267</ele>
        <time>2021-03-27T11:17:45.999Z</time>
      </trkpt>
      <trkpt lat="43.65734" lon="3.82921">
        <ele>92.1689</ele>
        <time>2021-03-27T11:17:55.999Z</time>
      </trkpt>
      <trkpt lat="43.65732" lon="3.82927">
        <ele>91.67482</ele>
        <time>2021-03-27T11:18:04.999Z</time>
      </trkpt>
      <trkpt lat="43.6573" lon="3.8293">
        <ele>91.51002</ele>
        <time>2021-03-27T11:18:07.999Z</time>
      </trkpt>
      <trkpt lat="43.65729" lon="3.82944">
        <ele>91.14817</ele>
        <time>2021-03-27T11:18:18.999Z</time>
      </trkpt>
      <trkpt lat="43.65719" lon="3.8296">
        <ele>91.02092</ele>
        <time>2021-03-27T11:18:24.999Z</time>
      </trkpt>
      <trkpt lat="43.65704" lon="3.83003">
        <ele>90.82069</ele>
        <time>2021-03-27T11:18:34.999Z</time>
      </trkpt>
      <trkpt lat="43.657" lon="3.8304">
        <ele>90.64081</ele>
        <time>2021-03-27T11:18:39.999Z</time>
      </trkpt>
      <trkpt lat="43.65693" lon="3.83057">
        <ele>90.51564</ele>
        <time>2021-03-27T11:18:43.999Z</time>
      </trkpt>
      <trkpt lat="43.65688" lon="3.83077">
        <ele>90.44702</ele>
        <time>2021-03-27T11:18:48.999Z</time>
      </trkpt>
      <trkpt lat="43.6567" lon="3.83086">
        <ele>90.42181</ele>
        <time>2021-03-27T11:18:51.999Z</time>
      </trkpt>
      <trkpt lat="43.65658" lon="3.83102">
        <ele>90.43491</ele>
        <time>2021-03-27T11:18:55.999Z</time>
      </trkpt>
      <trkpt lat="43.65642" lon="3.83112">
        <ele>90.47204</ele>
        <time>2021-03-27T11:19:00.999Z</time>
      </trkpt>
      <trkpt lat="43.65624" lon="3.83122">
        <ele>90.49394</ele>
        <time>2021-03-27T11:19:07.999Z</time>
      </trkpt>
      <trkpt lat="43.65622" lon="3.83142">
        <ele>90.48977</ele>
        <time>2021-03-27T11:19:13.999Z</time>
      </trkpt>
      <trkpt lat="43.65619" lon="3.83153">
        <ele>90.47356</ele>
        <time>2021-03-27T11:19:17.999Z</time>
      </trkpt>
      <trkpt lat="43.65613" lon="3.8316">
        <ele>90.45601</ele>
        <time>2021-03-27T11:19:21.999Z</time>
      </trkpt>
      <trkpt lat="43.65604" lon="3.83165">
        <ele>90.44038</ele>
        <time>2021-03-27T11:19:26.000Z</time>
      </trkpt>
      <trkpt lat="43.65595" lon="3.83171">
        <ele>90.43282</ele>
        <time>2021-03-27T11:19:32.000Z</time>
      </trkpt>
      <trkpt lat="43.65564" lon="3.8317">
        <ele>90.43592</ele>
        <time>2021-03-27T11:19:44.000Z</time>
      </trkpt>
      <trkpt lat="43.65538" lon="3.83171">
        <ele>90.46506</ele>
        <time>2021-03-27T11:19:55.000Z</time>
      </trkpt>
      <trkpt lat="43.65519" lon="3.83159">
        <ele>90.77293</ele>
        <time>2021-03-27T11:20:01.000Z</time>
      </trkpt>
      <trkpt lat="43.65506" lon="3.83157">
        <ele>91.47049</ele>
        <time>2021-03-27T11:20:05.000Z</time>
      </trkpt>
      <trkpt lat="43.65493" lon="3.8316">
        <ele>92.48096</ele>
        <time>2021-03-27T11:20:11.000Z</time>
      </trkpt>
      <trkpt lat="43.65486" lon="3.83163">
        <ele>92.93119</ele>
        <time>2021-03-27T11:20:16.000Z</time>
      </trkpt>
      <trkpt lat="43.65478" lon="3.83172">
        <ele>93.55614</ele>
        <time>2021-03-27T11:20:21.000Z</time>
      </trkpt>
      <trkpt lat="43.65467" lon="3.83193">
        <ele>93.92192</ele>
        <time>2021-03-27T11:20:25.000Z</time>
      </trkpt>
      <trkpt lat="43.65457" lon="3.83213">
        <ele>93.9716</ele>
        <time>2021-03-27T11:20:30.000Z</time>
      </trkpt>
      <trkpt lat="43.65463" lon="3.83233">
        <ele>93.85097</ele>
        <time>2021-03-27T11:20:34.000Z</time>
      </trkpt>
      <trkpt lat="43.65469" lon="3.83246">
        <ele>93.70493</ele>
        <time>2021-03-27T11:20:37.000Z</time>
      </trkpt>
      <trkpt lat="43.65467" lon="3.83278">
        <ele>93.27203</ele>
        <time>2021-03-27T11:20:46.000Z</time>
      </trkpt>
      <trkpt lat="43.65475" lon="3.83298">
        <ele>92.99461</ele>
        <time>2021-03-27T11:20:50.000Z</time>
      </trkpt>
      <trkpt lat="43.65506" lon="3.83342">
        <ele>92.15101</ele>
        <time>2021-03-27T11:20:59.000Z</time>
      </trkpt>
      <trkpt lat="43.65522" lon="3.83344">
        <ele>91.46797</ele>
        <time>2021-03-27T11:21:04.000Z</time>
      </trkpt>
      <trkpt lat="43.65533" lon="3.83334">
        <ele>90.91335</ele>
        <time>2021-03-27T11:21:08.000Z</time>
      </trkpt>
      <trkpt lat="43.65547" lon="3.83316">
        <ele>90.03814</ele>
        <time>2021-03-27T11:21:14.000Z</time>
      </trkpt>
      <trkpt lat="43.65547" lon="3.83335">
        <ele>89.21235</ele>
        <time>2021-03-27T11:21:25.000Z</time>
      </trkpt>
      <trkpt lat="43.65533" lon="3.83357">
        <ele>88.909</ele>
        <time>2021-03-27T11:21:31.000Z</time>
      </trkpt>
      <trkpt lat="43.65509" lon="3.83376">
        <ele>88.7847</ele>
        <time>2021-03-27T11:21:35.000Z</time>
      </trkpt>
      <trkpt lat="43.6549" lon="3.83402">
        <ele>88.64301</ele>
        <time>2021-03-27T11:21:41.000Z</time>
      </trkpt>
      <trkpt lat="43.65482" lon="3.83419">
        <ele>88.57672</ele>
        <time>2021-03-27T11:21:45.000Z</time>
      </trkpt>
      <trkpt lat="43.65466" lon="3.83437">
        <ele>88.53676</ele>
        <time>2021-03-27T11:21:49.000Z</time>
      </trkpt>
      <trkpt lat="43.65455" lon="3.83451">
        <ele>88.51423</ele>
        <time>2021-03-27T11:21:52.000Z</time>
      </trkpt>
      <trkpt lat="43.65453" lon="3.83464">
        <ele>88.50935</ele>
        <time>2021-03-27T11:21:57.000Z</time>
      </trkpt>
      <trkpt lat="43.65504" lon="3.83509">
        <ele>88.48227</ele>
        <time>2021-03-27T11:22:08.000Z</time>
      </trkpt>
      <trkpt lat="43.65538" lon="3.83577">
        <ele>88.2296</ele>
        <time>2021-03-27T11:22:16.000Z</time>
      </trkpt>
      <trkpt lat="43.6558" lon="3.8369">
        <ele>86.64506</ele>
        <time>2021-03-27T11:22:26.000Z</time>
      </trkpt>
      <trkpt lat="43.65583" lon="3.83709">
        <ele>84.45824</ele>
        <time>2021-03-27T11:22:31.000Z</time>
      </trkpt>
      <trkpt lat="43.65589" lon="3.83726">
        <ele>82.5109</ele>
        <time>2021-03-27T11:22:36.000Z</time>
      </trkpt>
      <trkpt lat="43.65622" lon="3.83742">
        <ele>80.67636</ele>
        <time>2021-03-27T11:22:47.000Z</time>
      </trkpt>
      <trkpt lat="43.65627" lon="3.83785">
        <ele>80.57488</ele>
        <time>2021-03-27T11:22:50.000Z</time>
      </trkpt>
      <trkpt lat="43.65641" lon="3.83806">
        <ele>80.20095</ele>
        <time>2021-03-27T11:22:55.000Z</time>
      </trkpt>
      <trkpt lat="43.65663" lon="3.83816">
        <ele>79.92087</ele>
        <time>2021-03-27T11:22:59.000Z</time>
      </trkpt>
      <trkpt lat="43.65692" lon="3.83825">
        <ele>79.44235</ele>
        <time>2021-03-27T11:23:04.000Z</time>
      </trkpt>
      <trkpt lat="43.6571" lon="3.83834">
        <ele>79.08888</ele>
        <time>2021-03-27T11:23:08.000Z</time>
      </trkpt>
      <trkpt lat="43.65733" lon="3.83849">
        <ele>78.72266</ele>
        <time>2021-03-27T11:23:13.000Z</time>
      </trkpt>
      <trkpt lat="43.65757" lon="3.83851">
        <ele>78.45536</ele>
        <time>2021-03-27T11:23:16.000Z</time>
      </trkpt>
      <trkpt lat="43.65791" lon="3.8387">
        <ele>77.615</ele>
        <time>2021-03-27T11:23:24.000Z</time>
      </trkpt>
      <trkpt lat="43.65807" lon="3.83882">
        <ele>77.09278</ele>
        <time>2021-03-27T11:23:28.000Z</time>
      </trkpt>
      <trkpt lat="43.65829" lon="3.83909">
        <ele>76.23056</ele>
        <time>2021-03-27T11:23:33.000Z</time>
      </trkpt>
      <trkpt lat="43.65839" lon="3.8394">
        <ele>74.96848</ele>
        <time>2021-03-27T11:23:38.000Z</time>
      </trkpt>
      <trkpt lat="43.65851" lon="3.8396">
        <ele>73.98247</ele>
        <time>2021-03-27T11:23:43.000Z</time>
      </trkpt>
      <trkpt lat="43.6587" lon="3.83979">
        <ele>72.86717</ele>
        <time>2021-03-27T11:23:47.000Z</time>
      </trkpt>
      <trkpt lat="43.65884" lon="3.84">
        <ele>71.82783</ele>
        <time>2021-03-27T11:23:50.000Z</time>
      </trkpt>
      <trkpt lat="43.65891" lon="3.8402">
        <ele>70.44252</ele>
        <time>2021-03-27T11:23:55.000Z</time>
      </trkpt>
      <trkpt lat="43.65902" lon="3.8404">
        <ele>69.83835</ele>
        <time>2021-03-27T11:24:00.000Z</time>
      </trkpt>
      <trkpt lat="43.65915" lon="3.84062">
        <ele>69.65745</ele>
        <time>2021-03-27T11:24:04.000Z</time>
      </trkpt>
      <trkpt lat="43.65933" lon="3.84073">
        <ele>69.22418</ele>
        <time>2021-03-27T11:24:08.999Z</time>
      </trkpt>
      <trkpt lat="43.65947" lon="3.84094">
        <ele>68.5202</ele>
        <time>2021-03-27T11:24:12.999Z</time>
      </trkpt>
      <trkpt lat="43.65954" lon="3.84114">
        <ele>67.78712</ele>
        <time>2021-03-27T11:24:17.999Z</time>
      </trkpt>
      <trkpt lat="43.65972" lon="3.84139">
        <ele>65.96428</ele>
        <time>2021-03-27T11:24:24.999Z</time>
      </trkpt>
      <trkpt lat="43.65981" lon="3.84162">
        <ele>64.83201</ele>
        <time>2021-03-27T11:24:29.999Z</time>
      </trkpt>
      <trkpt lat="43.65996" lon="3.8419">
        <ele>63.87535</ele>
        <time>2021-03-27T11:24:34.999Z</time>
      </trkpt>
      <trkpt lat="43.66008" lon="3.84214">
        <ele>63.07019</ele>
        <time>2021-03-27T11:24:39.999Z</time>
      </trkpt>
      <trkpt lat="43.6602" lon="3.84238">
        <ele>62.33734</ele>
        <time>2021-03-27T11:24:44.999Z</time>
      </trkpt>
      <trkpt lat="43.66027" lon="3.84264">
        <ele>61.92624</ele>
        <time>2021-03-27T11:24:47.999Z</time>
      </trkpt>
      <trkpt lat="43.66029" lon="3.84279">
        <ele>61.82986</ele>
        <time>2021-03-27T11:24:51.999Z</time>
      </trkpt>
      <trkpt lat="43.66037" lon="3.84295">
        <ele>61.86183</ele>
        <time>2021-03-27T11:24:56.999Z</time>
      </trkpt>
      <trkpt lat="43.66046" lon="3.84304">
        <ele>61.81533</ele>
        <time>2021-03-27T11:25:00.999Z</time>
      </trkpt>
      <trkpt lat="43.66049" lon="3.84321">
        <ele>61.68054</ele>
        <time>2021-03-27T11:25:04.999Z</time>
      </trkpt>
      <trkpt lat="43.66059" lon="3.84344">
        <ele>61.48994</ele>
        <time>2021-03-27T11:25:09.999Z</time>
      </trkpt>
      <trkpt lat="43.66066" lon="3.84364">
        <ele>61.37743</ele>
        <time>2021-03-27T11:25:12.999Z</time>
      </trkpt>
      <trkpt lat="43.66082" lon="3.84402">
        <ele>60.99422</ele>
        <time>2021-03-27T11:25:20.999Z</time>
      </trkpt>
      <trkpt lat="43.66088" lon="3.84425">
        <ele>60.64857</ele>
        <time>2021-03-27T11:25:24.999Z</time>
      </trkpt>
      <trkpt lat="43.66098" lon="3.84448">
        <ele>60.16373</ele>
        <time>2021-03-27T11:25:28.999Z</time>
      </trkpt>
      <trkpt lat="43.66112" lon="3.84478">
        <ele>59.3405</ele>
        <time>2021-03-27T11:25:34.999Z</time>
      </trkpt>
      <trkpt lat="43.66117" lon="3.84482">
        <ele>59.04509</ele>
        <time>2021-03-27T11:25:37.999Z</time>
      </trkpt>
      <trkpt lat="43.66111" lon="3.84487">
        <ele>58.88459</ele>
        <time>2021-03-27T11:25:54.999Z</time>
      </trkpt>
      <trkpt lat="43.66114" lon="3.84489">
        <ele>58.57865</ele>
        <time>2021-03-27T11:26:13.999Z</time>
      </trkpt>
      <trkpt lat="43.66116" lon="3.84487">
        <ele>58.43227</ele>
        <time>2021-03-27T11:26:15.999Z</time>
      </trkpt>
      <trkpt lat="43.66117" lon="3.84484">
        <ele>58.28694</ele>
        <time>2021-03-27T11:26:41.999Z</time>
      </trkpt>
      <trkpt lat="43.6612" lon="3.84482">
        <ele>58.16427</ele>
        <time>2021-03-27T11:26:47.999Z</time>
      </trkpt>
      <trkpt lat="43.66107" lon="3.84486">
        <ele>57.45018</ele>
        <time>2021-03-27T11:27:00.999Z</time>
      </trkpt>
      <trkpt lat="43.66102" lon="3.84494">
        <ele>57.29963</ele>
        <time>2021-03-27T11:27:02.999Z</time>
      </trkpt>
      <trkpt lat="43.66082" lon="3.84535">
        <ele>57.04666</ele>
        <time>2021-03-27T11:27:13.999Z</time>
      </trkpt>
      <trkpt lat="43.66071" lon="3.84567">
        <ele>56.984</ele>
        <time>2021-03-27T11:27:17.999Z</time>
      </trkpt>
      <trkpt lat="43.66064" lon="3.84603">
        <ele>56.91381</ele>
        <time>2021-03-27T11:27:22.999Z</time>
      </trkpt>
      <trkpt lat="43.66064" lon="3.84634">
        <ele>56.82814</ele>
        <time>2021-03-27T11:27:26.999Z</time>
      </trkpt>
      <trkpt lat="43.66048" lon="3.84669">
        <ele>56.66841</ele>
        <time>2021-03-27T11:27:31.999Z</time>
      </trkpt>
      <trkpt lat="43.66026" lon="3.847">
        <ele>56.48934</ele>
        <time>2021-03-27T11:27:36.999Z</time>
      </trkpt>
      <trkpt lat="43.6602" lon="3.84737">
        <ele>56.38437</ele>
        <time>2021-03-27T11:27:42.999Z</time>
      </trkpt>
      <trkpt lat="43.65998" lon="3.84765">
        <ele>56.28181</ele>
        <time>2021-03-27T11:27:47.999Z</time>
      </trkpt>
      <trkpt lat="43.65988" lon="3.84792">
        <ele>56.10379</ele>
        <time>2021-03-27T11:27:52.999Z</time>
      </trkpt>
      <trkpt lat="43.6597" lon="3.84808">
        <ele>55.95021</ele>
        <time>2021-03-27T11:27:55.999Z</time>
      </trkpt>
      <trkpt lat="43.65961" lon="3.84833">
        <ele>55.71292</ele>
        <time>2021-03-27T11:27:59.999Z</time>
      </trkpt>
      <trkpt lat="43.65964" lon="3.84845">
        <ele>55.49109</ele>
        <time>2021-03-27T11:28:06.999Z</time>
      </trkpt>
      <trkpt lat="43.65974" lon="3.84855">
        <ele>55.30414</ele>
        <time>2021-03-27T11:28:09.999Z</time>
      </trkpt>
      <trkpt lat="43.65988" lon="3.84873">
        <ele>54.72685</ele>
        <time>2021-03-27T11:28:14.999Z</time>
      </trkpt>
      <trkpt lat="43.66006" lon="3.8487">
        <ele>54.19847</ele>
        <time>2021-03-27T11:28:19.999Z</time>
      </trkpt>
      <trkpt lat="43.66024" lon="3.84851">
        <ele>53.92364</ele>
        <time>2021-03-27T11:28:23.999Z</time>
      </trkpt>
      <trkpt lat="43.66046" lon="3.84807">
        <ele>53.7493</ele>
        <time>2021-03-27T11:28:28.999Z</time>
      </trkpt>
      <trkpt lat="43.66071" lon="3.84782">
        <ele>53.67947</ele>
        <time>2021-03-27T11:28:33.999Z</time>
      </trkpt>
      <trkpt lat="43.66085" lon="3.84742">
        <ele>53.67397</ele>
        <time>2021-03-27T11:28:37.999Z</time>
      </trkpt>
      <trkpt lat="43.66112" lon="3.84722">
        <ele>53.68781</ele>
        <time>2021-03-27T11:28:42.999Z</time>
      </trkpt>
      <trkpt lat="43.66134" lon="3.84714">
        <ele>53.72376</ele>
        <time>2021-03-27T11:28:46.999Z</time>
      </trkpt>
      <trkpt lat="43.66168" lon="3.84717">
        <ele>53.8051</ele>
        <time>2021-03-27T11:28:52.999Z</time>
      </trkpt>
      <trkpt lat="43.66198" lon="3.84713">
        <ele>53.90394</ele>
        <time>2021-03-27T11:28:57.999Z</time>
      </trkpt>
      <trkpt lat="43.66224" lon="3.847">
        <ele>54.04178</ele>
        <time>2021-03-27T11:29:02.999Z</time>
      </trkpt>
      <trkpt lat="43.66249" lon="3.8468">
        <ele>54.26137</ele>
        <time>2021-03-27T11:29:07.999Z</time>
      </trkpt>
      <trkpt lat="43.66283" lon="3.84633">
        <ele>54.85762</ele>
        <time>2021-03-27T11:29:15.999Z</time>
      </trkpt>
      <trkpt lat="43.66303" lon="3.84635">
        <ele>55.40171</ele>
        <time>2021-03-27T11:29:20.999Z</time>
      </trkpt>
      <trkpt lat="43.66328" lon="3.84622">
        <ele>56.21858</ele>
        <time>2021-03-27T11:29:25.999Z</time>
      </trkpt>
      <trkpt lat="43.66358" lon="3.84604">
        <ele>57.34653</ele>
        <time>2021-03-27T11:29:31.999Z</time>
      </trkpt>
      <trkpt lat="43.66381" lon="3.84658">
        <ele>58.60084</ele>
        <time>2021-03-27T11:29:38.999Z</time>
      </trkpt>
      <trkpt lat="43.66394" lon="3.84695">
        <ele>59.51712</ele>
        <time>2021-03-27T11:29:44.999Z</time>
      </trkpt>
      <trkpt lat="43.6641" lon="3.84723">
        <ele>60.10591</ele>
        <time>2021-03-27T11:29:48.999Z</time>
      </trkpt>
      <trkpt lat="43.66442" lon="3.84781">
        <ele>61.65443</ele>
        <time>2021-03-27T11:29:58.999Z</time>
      </trkpt>
      <trkpt lat="43.66455" lon="3.84819">
        <ele>62.53336</ele>
        <time>2021-03-27T11:30:04.999Z</time>
      </trkpt>
      <trkpt lat="43.66493" lon="3.84884">
        <ele>64.28277</ele>
        <time>2021-03-27T11:30:15.999Z</time>
      </trkpt>
      <trkpt lat="43.6653" lon="3.8498">
        <ele>66.81654</ele>
        <time>2021-03-27T11:30:29.999Z</time>
      </trkpt>
      <trkpt lat="43.66563" lon="3.85059">
        <ele>68.80219</ele>
        <time>2021-03-27T11:30:40.999Z</time>
      </trkpt>
      <trkpt lat="43.66592" lon="3.85099">
        <ele>70.25463</ele>
        <time>2021-03-27T11:30:48.999Z</time>
      </trkpt>
      <trkpt lat="43.66598" lon="3.85137">
        <ele>71.07128</ele>
        <time>2021-03-27T11:30:53.999Z</time>
      </trkpt>
      <trkpt lat="43.66601" lon="3.85181">
        <ele>71.81301</ele>
        <time>2021-03-27T11:30:59.999Z</time>
      </trkpt>
      <trkpt lat="43.66599" lon="3.85214">
        <ele>72.19491</ele>
        <time>2021-03-27T11:31:04.999Z</time>
      </trkpt>
      <trkpt lat="43.66597" lon="3.85245">
        <ele>72.49043</ele>
        <time>2021-03-27T11:31:08.999Z</time>
      </trkpt>
      <trkpt lat="43.66598" lon="3.85289">
        <ele>72.85172</ele>
        <time>2021-03-27T11:31:14.999Z</time>
      </trkpt>
      <trkpt lat="43.66603" lon="3.85336">
        <ele>73.22337</ele>
        <time>2021-03-27T11:31:21.999Z</time>
      </trkpt>
      <trkpt lat="43.66605" lon="3.85384">
        <ele>73.66836</ele>
        <time>2021-03-27T11:31:27.999Z</time>
      </trkpt>
      <trkpt lat="43.6661" lon="3.85418">
        <ele>74.01863</ele>
        <time>2021-03-27T11:31:31.999Z</time>
      </trkpt>
      <trkpt lat="43.66609" lon="3.85456">
        <ele>74.55358</ele>
        <time>2021-03-27T11:31:36.999Z</time>
      </trkpt>
      <trkpt lat="43.66611" lon="3.85496">
        <ele>75.11051</ele>
        <time>2021-03-27T11:31:41.999Z</time>
      </trkpt>
      <trkpt lat="43.66617" lon="3.8553">
        <ele>75.46692</ele>
        <time>2021-03-27T11:31:45.999Z</time>
      </trkpt>
      <trkpt lat="43.66616" lon="3.85589">
        <ele>75.87876</ele>
        <time>2021-03-27T11:31:54.998Z</time>
      </trkpt>
      <trkpt lat="43.66616" lon="3.85632">
        <ele>75.95783</ele>
        <time>2021-03-27T11:31:59.998Z</time>
      </trkpt>
      <trkpt lat="43.66619" lon="3.85667">
        <ele>76.00725</ele>
        <time>2021-03-27T11:32:03.998Z</time>
      </trkpt>
      <trkpt lat="43.66615" lon="3.85702">
        <ele>76.04002</ele>
        <time>2021-03-27T11:32:09.998Z</time>
      </trkpt>
      <trkpt lat="43.66596" lon="3.85703">
        <ele>76.07518</ele>
        <time>2021-03-27T11:32:14.998Z</time>
      </trkpt>
      <trkpt lat="43.66576" lon="3.857">
        <ele>76.13065</ele>
        <time>2021-03-27T11:32:19.998Z</time>
      </trkpt>
      <trkpt lat="43.66535" lon="3.85707">
        <ele>76.2214</ele>
        <time>2021-03-27T11:32:24.998Z</time>
      </trkpt>
      <trkpt lat="43.66517" lon="3.85715">
        <ele>76.4465</ele>
        <time>2021-03-27T11:32:30.998Z</time>
      </trkpt>
      <trkpt lat="43.66501" lon="3.85744">
        <ele>77.13161</ele>
        <time>2021-03-27T11:32:37.998Z</time>
      </trkpt>
      <trkpt lat="43.66498" lon="3.85754">
        <ele>77.39627</ele>
        <time>2021-03-27T11:32:40.998Z</time>
      </trkpt>
      <trkpt lat="43.66496" lon="3.85768">
        <ele>78.20893</ele>
        <time>2021-03-27T11:32:45.998Z</time>
      </trkpt>
      <trkpt lat="43.66519" lon="3.8583">
        <ele>81.62033</ele>
        <time>2021-03-27T11:32:58.998Z</time>
      </trkpt>
      <trkpt lat="43.66518" lon="3.85838">
        <ele>81.72318</ele>
        <time>2021-03-27T11:33:01.998Z</time>
      </trkpt>
      <trkpt lat="43.66515" lon="3.8584">
        <ele>82.03995</ele>
        <time>2021-03-27T11:34:05.000Z</time>
      </trkpt>
      <trkpt lat="43.66511" lon="3.85841">
        <ele>82.15656</ele>
        <time>2021-03-27T11:34:11.000Z</time>
      </trkpt>
      <trkpt lat="43.66509" lon="3.85843">
        <ele>82.26527</ele>
        <time>2021-03-27T11:34:20.000Z</time>
      </trkpt>
      <trkpt lat="43.66519" lon="3.85852">
        <ele>82.30119</ele>
        <time>2021-03-27T11:34:44.000Z</time>
      </trkpt>
      <trkpt lat="43.66523" lon="3.85863">
        <ele>82.5217</ele>
        <time>2021-03-27T11:34:54.000Z</time>
      </trkpt>
      <trkpt lat="43.66526" lon="3.85865">
        <ele>82.54925</ele>
        <time>2021-03-27T11:34:55.000Z</time>
      </trkpt>
    </trkseg>
  </trk>
</gpx>